<?xml version="1.0" encoding="UTF-8" standalone="no" ?>
<gpx xmlns="http://www.topografix.com/GPX/1/1" xmlns:xsi="http://www.w3.org/2001/XMLSchema-instance" xsi:schemaLocation="http://www.topografix.com/GPX/1/1 http://www.topografix.com/GPX/1/1/gpx.xsd" version="1.1" creator="VisuGPX - https://www.visugpx.com">
  <metadata>
    <name>3 082 0701 G2-Luzinay Baraton Pt Evêque Bois Chapulay Chaumont La Détourbe Savas Colombier Charantonnay St Georges Oytier Septème Luzinay</name>
  </metadata>
  <trk>
    <name><![CDATA[3 082 0857 G2-Luzinay Baraton Pt Evêque Bois Chapulay Chaumont La Détourbe Savas Colombier Charantonnay St Georges Oytier Septème Luzinay]]></name>
    <extensions>
      <line xmlns="http://www.topografix.com/GPX/gpx_style/0/2">
        <width>2</width>
      </line>
    </extensions>
    <trkseg>
      <trkpt lat="45.66513" lon="4.95766">
        <ele>222</ele>
        <time>2023-02-14T10:19:56.000Z</time>
      </trkpt>
      <trkpt lat="45.66491" lon="4.95773">
        <ele>223</ele>
        <time>2023-02-14T10:20:00.000Z</time>
      </trkpt>
      <trkpt lat="45.66464" lon="4.95788">
        <ele>224</ele>
        <time>2023-02-14T10:20:05.000Z</time>
      </trkpt>
      <trkpt lat="45.66484" lon="4.95856">
        <ele>224</ele>
        <time>2023-02-14T10:20:14.000Z</time>
      </trkpt>
      <trkpt lat="45.66486" lon="4.95874">
        <ele>224</ele>
        <time>2023-02-14T10:20:17.000Z</time>
      </trkpt>
      <trkpt lat="45.66482" lon="4.9589">
        <ele>224</ele>
        <time>2023-02-14T10:20:19.000Z</time>
      </trkpt>
      <trkpt lat="45.66443" lon="4.95896">
        <ele>225</ele>
        <time>2023-02-14T10:20:26.000Z</time>
      </trkpt>
      <trkpt lat="45.66389" lon="4.95897">
        <ele>227</ele>
        <time>2023-02-14T10:20:35.000Z</time>
      </trkpt>
      <trkpt lat="45.6638" lon="4.9589">
        <ele>227</ele>
        <time>2023-02-14T10:20:37.000Z</time>
      </trkpt>
      <trkpt lat="45.66377" lon="4.95871">
        <ele>228</ele>
        <time>2023-02-14T10:20:40.000Z</time>
      </trkpt>
      <trkpt lat="45.66375" lon="4.95781">
        <ele>227</ele>
        <time>2023-02-14T10:20:51.000Z</time>
      </trkpt>
      <trkpt lat="45.66366" lon="4.95753">
        <ele>227</ele>
        <time>2023-02-14T10:20:55.000Z</time>
      </trkpt>
      <trkpt lat="45.66364" lon="4.95739">
        <ele>227</ele>
        <time>2023-02-14T10:20:56.000Z</time>
      </trkpt>
      <trkpt lat="45.66364" lon="4.95714">
        <ele>226</ele>
        <time>2023-02-14T10:20:59.000Z</time>
      </trkpt>
      <trkpt lat="45.66371" lon="4.9568">
        <ele>226</ele>
        <time>2023-02-14T10:21:04.000Z</time>
      </trkpt>
      <trkpt lat="45.66371" lon="4.95669">
        <ele>226</ele>
        <time>2023-02-14T10:21:05.000Z</time>
      </trkpt>
      <trkpt lat="45.66368" lon="4.95658">
        <ele>225</ele>
        <time>2023-02-14T10:21:07.000Z</time>
      </trkpt>
      <trkpt lat="45.66356" lon="4.9564">
        <ele>225</ele>
        <time>2023-02-14T10:21:10.000Z</time>
      </trkpt>
      <trkpt lat="45.66329" lon="4.95619">
        <ele>225</ele>
        <time>2023-02-14T10:21:15.000Z</time>
      </trkpt>
      <trkpt lat="45.66299" lon="4.95605">
        <ele>225</ele>
        <time>2023-02-14T10:21:21.000Z</time>
      </trkpt>
      <trkpt lat="45.66249" lon="4.95604">
        <ele>226</ele>
        <time>2023-02-14T10:21:30.000Z</time>
      </trkpt>
      <trkpt lat="45.66228" lon="4.95599">
        <ele>226</ele>
        <time>2023-02-14T10:21:34.000Z</time>
      </trkpt>
      <trkpt lat="45.66213" lon="4.95592">
        <ele>226</ele>
        <time>2023-02-14T10:21:36.000Z</time>
      </trkpt>
      <trkpt lat="45.66131" lon="4.95515">
        <ele>227</ele>
        <time>2023-02-14T10:21:54.000Z</time>
      </trkpt>
      <trkpt lat="45.66046" lon="4.95448">
        <ele>231</ele>
        <time>2023-02-14T10:22:11.000Z</time>
      </trkpt>
      <trkpt lat="45.66001" lon="4.95407">
        <ele>230</ele>
        <time>2023-02-14T10:22:21.000Z</time>
      </trkpt>
      <trkpt lat="45.65985" lon="4.95385">
        <ele>229</ele>
        <time>2023-02-14T10:22:25.000Z</time>
      </trkpt>
      <trkpt lat="45.65896" lon="4.95378">
        <ele>229</ele>
        <time>2023-02-14T10:22:40.000Z</time>
      </trkpt>
      <trkpt lat="45.65751" lon="4.95386">
        <ele>225</ele>
        <time>2023-02-14T10:23:06.000Z</time>
      </trkpt>
      <trkpt lat="45.65671" lon="4.95386">
        <ele>224</ele>
        <time>2023-02-14T10:23:20.000Z</time>
      </trkpt>
      <trkpt lat="45.65512" lon="4.95402">
        <ele>223</ele>
        <time>2023-02-14T10:23:49.000Z</time>
      </trkpt>
      <trkpt lat="45.65445" lon="4.95405">
        <ele>223</ele>
        <time>2023-02-14T10:24:01.000Z</time>
      </trkpt>
      <trkpt lat="45.65265" lon="4.95396">
        <ele>222</ele>
        <time>2023-02-14T10:24:33.000Z</time>
      </trkpt>
      <trkpt lat="45.65222" lon="4.95388">
        <ele>222</ele>
        <time>2023-02-14T10:24:40.000Z</time>
      </trkpt>
      <trkpt lat="45.65205" lon="4.9538">
        <ele>222</ele>
        <time>2023-02-14T10:24:44.000Z</time>
      </trkpt>
      <trkpt lat="45.6519" lon="4.95367">
        <ele>221</ele>
        <time>2023-02-14T10:24:47.000Z</time>
      </trkpt>
      <trkpt lat="45.65178" lon="4.95367">
        <ele>221</ele>
        <time>2023-02-14T10:24:49.000Z</time>
      </trkpt>
      <trkpt lat="45.65109" lon="4.9543">
        <ele>221</ele>
        <time>2023-02-14T10:25:04.000Z</time>
      </trkpt>
      <trkpt lat="45.65074" lon="4.95466">
        <ele>220</ele>
        <time>2023-02-14T10:25:11.000Z</time>
      </trkpt>
      <trkpt lat="45.64757" lon="4.95895">
        <ele>222</ele>
        <time>2023-02-14T10:26:29.000Z</time>
      </trkpt>
      <trkpt lat="45.64714" lon="4.95942">
        <ele>222</ele>
        <time>2023-02-14T10:26:38.000Z</time>
      </trkpt>
      <trkpt lat="45.64671" lon="4.95973">
        <ele>223</ele>
        <time>2023-02-14T10:26:47.000Z</time>
      </trkpt>
      <trkpt lat="45.64631" lon="4.95986">
        <ele>224</ele>
        <time>2023-02-14T10:26:54.000Z</time>
      </trkpt>
      <trkpt lat="45.64602" lon="4.95989">
        <ele>224</ele>
        <time>2023-02-14T10:26:59.000Z</time>
      </trkpt>
      <trkpt lat="45.64553" lon="4.95988">
        <ele>224</ele>
        <time>2023-02-14T10:27:08.000Z</time>
      </trkpt>
      <trkpt lat="45.6439" lon="4.95976">
        <ele>223</ele>
        <time>2023-02-14T10:27:37.000Z</time>
      </trkpt>
      <trkpt lat="45.64329" lon="4.95965">
        <ele>222</ele>
        <time>2023-02-14T10:27:48.000Z</time>
      </trkpt>
      <trkpt lat="45.64263" lon="4.9594">
        <ele>225</ele>
        <time>2023-02-14T10:28:00.000Z</time>
      </trkpt>
      <trkpt lat="45.64229" lon="4.95921">
        <ele>226</ele>
        <time>2023-02-14T10:28:07.000Z</time>
      </trkpt>
      <trkpt lat="45.64195" lon="4.9591">
        <ele>227</ele>
        <time>2023-02-14T10:28:13.000Z</time>
      </trkpt>
      <trkpt lat="45.64174" lon="4.9591">
        <ele>228</ele>
        <time>2023-02-14T10:28:17.000Z</time>
      </trkpt>
      <trkpt lat="45.64123" lon="4.95923">
        <ele>230</ele>
        <time>2023-02-14T10:28:26.000Z</time>
      </trkpt>
      <trkpt lat="45.64043" lon="4.95948">
        <ele>232</ele>
        <time>2023-02-14T10:28:41.000Z</time>
      </trkpt>
      <trkpt lat="45.64024" lon="4.95956">
        <ele>232</ele>
        <time>2023-02-14T10:28:44.000Z</time>
      </trkpt>
      <trkpt lat="45.63999" lon="4.95974">
        <ele>231</ele>
        <time>2023-02-14T10:28:49.000Z</time>
      </trkpt>
      <trkpt lat="45.63975" lon="4.96003">
        <ele>230</ele>
        <time>2023-02-14T10:28:55.000Z</time>
      </trkpt>
      <trkpt lat="45.63943" lon="4.96056">
        <ele>228</ele>
        <time>2023-02-14T10:29:03.000Z</time>
      </trkpt>
      <trkpt lat="45.63897" lon="4.96175">
        <ele>229</ele>
        <time>2023-02-14T10:29:20.000Z</time>
      </trkpt>
      <trkpt lat="45.63877" lon="4.96205">
        <ele>229</ele>
        <time>2023-02-14T10:29:25.000Z</time>
      </trkpt>
      <trkpt lat="45.63837" lon="4.96238">
        <ele>228</ele>
        <time>2023-02-14T10:29:34.000Z</time>
      </trkpt>
      <trkpt lat="45.63806" lon="4.96274">
        <ele>227</ele>
        <time>2023-02-14T10:29:41.000Z</time>
      </trkpt>
      <trkpt lat="45.63776" lon="4.96324">
        <ele>226</ele>
        <time>2023-02-14T10:29:49.000Z</time>
      </trkpt>
      <trkpt lat="45.63731" lon="4.96416">
        <ele>226</ele>
        <time>2023-02-14T10:30:03.000Z</time>
      </trkpt>
      <trkpt lat="45.63672" lon="4.96498">
        <ele>226</ele>
        <time>2023-02-14T10:30:18.000Z</time>
      </trkpt>
      <trkpt lat="45.63654" lon="4.96539">
        <ele>226</ele>
        <time>2023-02-14T10:30:24.000Z</time>
      </trkpt>
      <trkpt lat="45.6363" lon="4.96607">
        <ele>226</ele>
        <time>2023-02-14T10:30:33.000Z</time>
      </trkpt>
      <trkpt lat="45.63609" lon="4.96651">
        <ele>226</ele>
        <time>2023-02-14T10:30:40.000Z</time>
      </trkpt>
      <trkpt lat="45.63584" lon="4.96677">
        <ele>225</ele>
        <time>2023-02-14T10:30:45.000Z</time>
      </trkpt>
      <trkpt lat="45.63541" lon="4.96709">
        <ele>225</ele>
        <time>2023-02-14T10:30:54.000Z</time>
      </trkpt>
      <trkpt lat="45.63518" lon="4.96736">
        <ele>225</ele>
        <time>2023-02-14T10:30:59.000Z</time>
      </trkpt>
      <trkpt lat="45.63397" lon="4.96932">
        <ele>231</ele>
        <time>2023-02-14T10:31:32.000Z</time>
      </trkpt>
      <trkpt lat="45.63381" lon="4.96971">
        <ele>232</ele>
        <time>2023-02-14T10:31:37.000Z</time>
      </trkpt>
      <trkpt lat="45.63365" lon="4.97026">
        <ele>234</ele>
        <time>2023-02-14T10:31:45.000Z</time>
      </trkpt>
      <trkpt lat="45.63349" lon="4.9706">
        <ele>236</ele>
        <time>2023-02-14T10:31:50.000Z</time>
      </trkpt>
      <trkpt lat="45.63228" lon="4.97216">
        <ele>241</ele>
        <time>2023-02-14T10:32:19.000Z</time>
      </trkpt>
      <trkpt lat="45.63183" lon="4.97293">
        <ele>242</ele>
        <time>2023-02-14T10:32:31.000Z</time>
      </trkpt>
      <trkpt lat="45.63167" lon="4.97316">
        <ele>242</ele>
        <time>2023-02-14T10:32:35.000Z</time>
      </trkpt>
      <trkpt lat="45.63135" lon="4.97354">
        <ele>243</ele>
        <time>2023-02-14T10:32:43.000Z</time>
      </trkpt>
      <trkpt lat="45.63068" lon="4.97425">
        <ele>245</ele>
        <time>2023-02-14T10:32:58.000Z</time>
      </trkpt>
      <trkpt lat="45.63031" lon="4.97458">
        <ele>246</ele>
        <time>2023-02-14T10:33:05.000Z</time>
      </trkpt>
      <trkpt lat="45.62994" lon="4.97487">
        <ele>248</ele>
        <time>2023-02-14T10:33:13.000Z</time>
      </trkpt>
      <trkpt lat="45.62944" lon="4.97519">
        <ele>249</ele>
        <time>2023-02-14T10:33:23.000Z</time>
      </trkpt>
      <trkpt lat="45.62854" lon="4.97567">
        <ele>253</ele>
        <time>2023-02-14T10:33:40.000Z</time>
      </trkpt>
      <trkpt lat="45.62816" lon="4.9758">
        <ele>255</ele>
        <time>2023-02-14T10:33:47.000Z</time>
      </trkpt>
      <trkpt lat="45.62801" lon="4.97579">
        <ele>255</ele>
        <time>2023-02-14T10:33:49.000Z</time>
      </trkpt>
      <trkpt lat="45.62787" lon="4.97574">
        <ele>256</ele>
        <time>2023-02-14T10:33:52.000Z</time>
      </trkpt>
      <trkpt lat="45.62769" lon="4.97561">
        <ele>256</ele>
        <time>2023-02-14T10:33:55.000Z</time>
      </trkpt>
      <trkpt lat="45.62599" lon="4.97333">
        <ele>271</ele>
        <time>2023-02-14T10:34:37.000Z</time>
      </trkpt>
      <trkpt lat="45.62582" lon="4.97295">
        <ele>273</ele>
        <time>2023-02-14T10:34:42.000Z</time>
      </trkpt>
      <trkpt lat="45.62565" lon="4.97205">
        <ele>276</ele>
        <time>2023-02-14T10:34:54.000Z</time>
      </trkpt>
      <trkpt lat="45.62552" lon="4.97161">
        <ele>277</ele>
        <time>2023-02-14T10:35:00.000Z</time>
      </trkpt>
      <trkpt lat="45.62466" lon="4.97014">
        <ele>281</ele>
        <time>2023-02-14T10:35:24.000Z</time>
      </trkpt>
      <trkpt lat="45.62461" lon="4.96994">
        <ele>282</ele>
        <time>2023-02-14T10:35:27.000Z</time>
      </trkpt>
      <trkpt lat="45.62458" lon="4.96951">
        <ele>284</ele>
        <time>2023-02-14T10:35:32.000Z</time>
      </trkpt>
      <trkpt lat="45.6246" lon="4.96923">
        <ele>284</ele>
        <time>2023-02-14T10:35:35.000Z</time>
      </trkpt>
      <trkpt lat="45.62491" lon="4.96788">
        <ele>285</ele>
        <time>2023-02-14T10:35:53.000Z</time>
      </trkpt>
      <trkpt lat="45.62496" lon="4.96757">
        <ele>286</ele>
        <time>2023-02-14T10:35:57.000Z</time>
      </trkpt>
      <trkpt lat="45.62488" lon="4.96753">
        <ele>287</ele>
        <time>2023-02-14T10:35:59.000Z</time>
      </trkpt>
      <trkpt lat="45.62416" lon="4.96756">
        <ele>295</ele>
        <time>2023-02-14T10:36:11.000Z</time>
      </trkpt>
      <trkpt lat="45.62349" lon="4.96755">
        <ele>297</ele>
        <time>2023-02-14T10:36:23.000Z</time>
      </trkpt>
      <trkpt lat="45.62298" lon="4.96747">
        <ele>298</ele>
        <time>2023-02-14T10:36:32.000Z</time>
      </trkpt>
      <trkpt lat="45.62221" lon="4.96743">
        <ele>300</ele>
        <time>2023-02-14T10:36:46.000Z</time>
      </trkpt>
      <trkpt lat="45.62129" lon="4.9675">
        <ele>302</ele>
        <time>2023-02-14T10:37:03.000Z</time>
      </trkpt>
      <trkpt lat="45.62094" lon="4.96755">
        <ele>302</ele>
        <time>2023-02-14T10:37:09.000Z</time>
      </trkpt>
      <trkpt lat="45.62057" lon="4.96774">
        <ele>302</ele>
        <time>2023-02-14T10:37:16.000Z</time>
      </trkpt>
      <trkpt lat="45.62014" lon="4.96801">
        <ele>302</ele>
        <time>2023-02-14T10:37:24.000Z</time>
      </trkpt>
      <trkpt lat="45.61979" lon="4.9683">
        <ele>301</ele>
        <time>2023-02-14T10:37:31.000Z</time>
      </trkpt>
      <trkpt lat="45.61946" lon="4.96865">
        <ele>300</ele>
        <time>2023-02-14T10:37:39.000Z</time>
      </trkpt>
      <trkpt lat="45.61913" lon="4.96907">
        <ele>300</ele>
        <time>2023-02-14T10:37:46.000Z</time>
      </trkpt>
      <trkpt lat="45.61879" lon="4.96957">
        <ele>299</ele>
        <time>2023-02-14T10:37:55.000Z</time>
      </trkpt>
      <trkpt lat="45.61852" lon="4.96992">
        <ele>299</ele>
        <time>2023-02-14T10:38:02.000Z</time>
      </trkpt>
      <trkpt lat="45.61818" lon="4.97023">
        <ele>297</ele>
        <time>2023-02-14T10:38:09.000Z</time>
      </trkpt>
      <trkpt lat="45.61689" lon="4.97129">
        <ele>296</ele>
        <time>2023-02-14T10:38:35.000Z</time>
      </trkpt>
      <trkpt lat="45.61678" lon="4.97136">
        <ele>297</ele>
        <time>2023-02-14T10:38:37.000Z</time>
      </trkpt>
      <trkpt lat="45.61669" lon="4.97136">
        <ele>297</ele>
        <time>2023-02-14T10:38:39.000Z</time>
      </trkpt>
      <trkpt lat="45.61662" lon="4.97127">
        <ele>296</ele>
        <time>2023-02-14T10:38:41.000Z</time>
      </trkpt>
      <trkpt lat="45.61648" lon="4.97051">
        <ele>294</ele>
        <time>2023-02-14T10:38:51.000Z</time>
      </trkpt>
      <trkpt lat="45.61642" lon="4.97036">
        <ele>294</ele>
        <time>2023-02-14T10:38:53.000Z</time>
      </trkpt>
      <trkpt lat="45.61595" lon="4.96971">
        <ele>294</ele>
        <time>2023-02-14T10:39:04.000Z</time>
      </trkpt>
      <trkpt lat="45.61511" lon="4.96828">
        <ele>299</ele>
        <time>2023-02-14T10:39:28.000Z</time>
      </trkpt>
      <trkpt lat="45.61491" lon="4.96783">
        <ele>298</ele>
        <time>2023-02-14T10:39:34.000Z</time>
      </trkpt>
      <trkpt lat="45.61397" lon="4.96445">
        <ele>302</ele>
        <time>2023-02-14T10:40:19.000Z</time>
      </trkpt>
      <trkpt lat="45.61379" lon="4.96371">
        <ele>302</ele>
        <time>2023-02-14T10:40:29.000Z</time>
      </trkpt>
      <trkpt lat="45.6136" lon="4.96327">
        <ele>302</ele>
        <time>2023-02-14T10:40:36.000Z</time>
      </trkpt>
      <trkpt lat="45.61298" lon="4.96227">
        <ele>300</ele>
        <time>2023-02-14T10:40:52.000Z</time>
      </trkpt>
      <trkpt lat="45.61267" lon="4.96188">
        <ele>300</ele>
        <time>2023-02-14T10:41:00.000Z</time>
      </trkpt>
      <trkpt lat="45.61255" lon="4.96179">
        <ele>299</ele>
        <time>2023-02-14T10:41:02.000Z</time>
      </trkpt>
      <trkpt lat="45.61233" lon="4.96173">
        <ele>300</ele>
        <time>2023-02-14T10:41:06.000Z</time>
      </trkpt>
      <trkpt lat="45.6122" lon="4.96175">
        <ele>300</ele>
        <time>2023-02-14T10:41:08.000Z</time>
      </trkpt>
      <trkpt lat="45.61208" lon="4.9618">
        <ele>300</ele>
        <time>2023-02-14T10:41:11.000Z</time>
      </trkpt>
      <trkpt lat="45.61174" lon="4.96201">
        <ele>302</ele>
        <time>2023-02-14T10:41:17.000Z</time>
      </trkpt>
      <trkpt lat="45.61086" lon="4.96281">
        <ele>300</ele>
        <time>2023-02-14T10:41:36.000Z</time>
      </trkpt>
      <trkpt lat="45.61039" lon="4.96334">
        <ele>300</ele>
        <time>2023-02-14T10:41:46.000Z</time>
      </trkpt>
      <trkpt lat="45.61028" lon="4.96341">
        <ele>300</ele>
        <time>2023-02-14T10:41:48.000Z</time>
      </trkpt>
      <trkpt lat="45.61016" lon="4.96346">
        <ele>300</ele>
        <time>2023-02-14T10:41:51.000Z</time>
      </trkpt>
      <trkpt lat="45.60943" lon="4.96355">
        <ele>302</ele>
        <time>2023-02-14T10:42:04.000Z</time>
      </trkpt>
      <trkpt lat="45.60865" lon="4.96372">
        <ele>302</ele>
        <time>2023-02-14T10:42:18.000Z</time>
      </trkpt>
      <trkpt lat="45.60825" lon="4.96369">
        <ele>301</ele>
        <time>2023-02-14T10:42:25.000Z</time>
      </trkpt>
      <trkpt lat="45.6081" lon="4.96365">
        <ele>301</ele>
        <time>2023-02-14T10:42:28.000Z</time>
      </trkpt>
      <trkpt lat="45.60781" lon="4.96348">
        <ele>300</ele>
        <time>2023-02-14T10:42:33.000Z</time>
      </trkpt>
      <trkpt lat="45.60715" lon="4.96301">
        <ele>296</ele>
        <time>2023-02-14T10:42:46.000Z</time>
      </trkpt>
      <trkpt lat="45.60593" lon="4.96194">
        <ele>291</ele>
        <time>2023-02-14T10:43:12.000Z</time>
      </trkpt>
      <trkpt lat="45.60557" lon="4.96157">
        <ele>291</ele>
        <time>2023-02-14T10:43:20.000Z</time>
      </trkpt>
      <trkpt lat="45.6051" lon="4.961">
        <ele>292</ele>
        <time>2023-02-14T10:43:31.000Z</time>
      </trkpt>
      <trkpt lat="45.60454" lon="4.96038">
        <ele>291</ele>
        <time>2023-02-14T10:43:43.000Z</time>
      </trkpt>
      <trkpt lat="45.60415" lon="4.96001">
        <ele>289</ele>
        <time>2023-02-14T10:43:52.000Z</time>
      </trkpt>
      <trkpt lat="45.60373" lon="4.9598">
        <ele>289</ele>
        <time>2023-02-14T10:43:59.000Z</time>
      </trkpt>
      <trkpt lat="45.60307" lon="4.95956">
        <ele>288</ele>
        <time>2023-02-14T10:44:12.000Z</time>
      </trkpt>
      <trkpt lat="45.60243" lon="4.95927">
        <ele>287</ele>
        <time>2023-02-14T10:44:24.000Z</time>
      </trkpt>
      <trkpt lat="45.60206" lon="4.95905">
        <ele>286</ele>
        <time>2023-02-14T10:44:31.000Z</time>
      </trkpt>
      <trkpt lat="45.60125" lon="4.95845">
        <ele>287</ele>
        <time>2023-02-14T10:44:47.000Z</time>
      </trkpt>
      <trkpt lat="45.60113" lon="4.95841">
        <ele>287</ele>
        <time>2023-02-14T10:44:49.000Z</time>
      </trkpt>
      <trkpt lat="45.60106" lon="4.95842">
        <ele>287</ele>
        <time>2023-02-14T10:44:50.000Z</time>
      </trkpt>
      <trkpt lat="45.601" lon="4.95844">
        <ele>286</ele>
        <time>2023-02-14T10:44:51.000Z</time>
      </trkpt>
      <trkpt lat="45.60088" lon="4.95854">
        <ele>286</ele>
        <time>2023-02-14T10:44:54.000Z</time>
      </trkpt>
      <trkpt lat="45.60073" lon="4.95877">
        <ele>285</ele>
        <time>2023-02-14T10:44:58.000Z</time>
      </trkpt>
      <trkpt lat="45.60057" lon="4.95917">
        <ele>283</ele>
        <time>2023-02-14T10:45:04.000Z</time>
      </trkpt>
      <trkpt lat="45.60036" lon="4.95958">
        <ele>279</ele>
        <time>2023-02-14T10:45:10.000Z</time>
      </trkpt>
      <trkpt lat="45.60029" lon="4.95965">
        <ele>279</ele>
        <time>2023-02-14T10:45:11.000Z</time>
      </trkpt>
      <trkpt lat="45.60021" lon="4.95971">
        <ele>278</ele>
        <time>2023-02-14T10:45:13.000Z</time>
      </trkpt>
      <trkpt lat="45.59995" lon="4.95977">
        <ele>278</ele>
        <time>2023-02-14T10:45:18.000Z</time>
      </trkpt>
      <trkpt lat="45.59968" lon="4.95971">
        <ele>277</ele>
        <time>2023-02-14T10:45:23.000Z</time>
      </trkpt>
      <trkpt lat="45.59912" lon="4.95949">
        <ele>276</ele>
        <time>2023-02-14T10:45:33.000Z</time>
      </trkpt>
      <trkpt lat="45.59889" lon="4.9593">
        <ele>276</ele>
        <time>2023-02-14T10:45:38.000Z</time>
      </trkpt>
      <trkpt lat="45.59876" lon="4.95914">
        <ele>276</ele>
        <time>2023-02-14T10:45:41.000Z</time>
      </trkpt>
      <trkpt lat="45.59824" lon="4.95833">
        <ele>271</ele>
        <time>2023-02-14T10:45:54.000Z</time>
      </trkpt>
      <trkpt lat="45.5981" lon="4.95816">
        <ele>272</ele>
        <time>2023-02-14T10:45:58.000Z</time>
      </trkpt>
      <trkpt lat="45.59795" lon="4.95805">
        <ele>272</ele>
        <time>2023-02-14T10:46:01.000Z</time>
      </trkpt>
      <trkpt lat="45.59779" lon="4.95802">
        <ele>271</ele>
        <time>2023-02-14T10:46:04.000Z</time>
      </trkpt>
      <trkpt lat="45.59755" lon="4.95813">
        <ele>269</ele>
        <time>2023-02-14T10:46:08.000Z</time>
      </trkpt>
      <trkpt lat="45.59724" lon="4.95864">
        <ele>264</ele>
        <time>2023-02-14T10:46:16.000Z</time>
      </trkpt>
      <trkpt lat="45.59708" lon="4.95878">
        <ele>263</ele>
        <time>2023-02-14T10:46:20.000Z</time>
      </trkpt>
      <trkpt lat="45.59689" lon="4.95881">
        <ele>262</ele>
        <time>2023-02-14T10:46:23.000Z</time>
      </trkpt>
      <trkpt lat="45.5935" lon="4.9582">
        <ele>248</ele>
        <time>2023-02-14T10:47:24.000Z</time>
      </trkpt>
      <trkpt lat="45.59295" lon="4.95801">
        <ele>245</ele>
        <time>2023-02-14T10:47:34.000Z</time>
      </trkpt>
      <trkpt lat="45.59197" lon="4.95759">
        <ele>242</ele>
        <time>2023-02-14T10:47:52.000Z</time>
      </trkpt>
      <trkpt lat="45.5898" lon="4.95676">
        <ele>229</ele>
        <time>2023-02-14T10:48:32.000Z</time>
      </trkpt>
      <trkpt lat="45.58945" lon="4.9566">
        <ele>228</ele>
        <time>2023-02-14T10:48:39.000Z</time>
      </trkpt>
      <trkpt lat="45.58922" lon="4.95646">
        <ele>227</ele>
        <time>2023-02-14T10:48:43.000Z</time>
      </trkpt>
      <trkpt lat="45.5888" lon="4.95632">
        <ele>226</ele>
        <time>2023-02-14T10:48:51.000Z</time>
      </trkpt>
      <trkpt lat="45.58871" lon="4.95621">
        <ele>226</ele>
        <time>2023-02-14T10:48:53.000Z</time>
      </trkpt>
      <trkpt lat="45.58862" lon="4.95558">
        <ele>226</ele>
        <time>2023-02-14T10:49:01.000Z</time>
      </trkpt>
      <trkpt lat="45.58854" lon="4.95538">
        <ele>225</ele>
        <time>2023-02-14T10:49:04.000Z</time>
      </trkpt>
      <trkpt lat="45.58816" lon="4.9556">
        <ele>225</ele>
        <time>2023-02-14T10:49:11.000Z</time>
      </trkpt>
      <trkpt lat="45.58791" lon="4.95587">
        <ele>224</ele>
        <time>2023-02-14T10:49:17.000Z</time>
      </trkpt>
      <trkpt lat="45.58772" lon="4.95624">
        <ele>223</ele>
        <time>2023-02-14T10:49:22.000Z</time>
      </trkpt>
      <trkpt lat="45.58752" lon="4.95676">
        <ele>222</ele>
        <time>2023-02-14T10:49:30.000Z</time>
      </trkpt>
      <trkpt lat="45.58729" lon="4.95757">
        <ele>221</ele>
        <time>2023-02-14T10:49:41.000Z</time>
      </trkpt>
      <trkpt lat="45.58728" lon="4.95869">
        <ele>222</ele>
        <time>2023-02-14T10:49:55.000Z</time>
      </trkpt>
      <trkpt lat="45.58715" lon="4.95988">
        <ele>222</ele>
        <time>2023-02-14T10:50:10.000Z</time>
      </trkpt>
      <trkpt lat="45.58692" lon="4.96094">
        <ele>224</ele>
        <time>2023-02-14T10:50:23.000Z</time>
      </trkpt>
      <trkpt lat="45.58683" lon="4.96109">
        <ele>223</ele>
        <time>2023-02-14T10:50:26.000Z</time>
      </trkpt>
      <trkpt lat="45.58669" lon="4.96111">
        <ele>223</ele>
        <time>2023-02-14T10:50:28.000Z</time>
      </trkpt>
      <trkpt lat="45.58652" lon="4.96099">
        <ele>223</ele>
        <time>2023-02-14T10:50:32.000Z</time>
      </trkpt>
      <trkpt lat="45.5861" lon="4.96077">
        <ele>223</ele>
        <time>2023-02-14T10:50:40.000Z</time>
      </trkpt>
      <trkpt lat="45.58594" lon="4.96051">
        <ele>222</ele>
        <time>2023-02-14T10:50:44.000Z</time>
      </trkpt>
      <trkpt lat="45.5858" lon="4.96044">
        <ele>222</ele>
        <time>2023-02-14T10:50:47.000Z</time>
      </trkpt>
      <trkpt lat="45.58548" lon="4.96059">
        <ele>222</ele>
        <time>2023-02-14T10:50:53.000Z</time>
      </trkpt>
      <trkpt lat="45.5853" lon="4.9606">
        <ele>222</ele>
        <time>2023-02-14T10:50:56.000Z</time>
      </trkpt>
      <trkpt lat="45.5843" lon="4.96043">
        <ele>221</ele>
        <time>2023-02-14T10:51:14.000Z</time>
      </trkpt>
      <trkpt lat="45.57909" lon="4.95939">
        <ele>217</ele>
        <time>2023-02-14T10:52:47.000Z</time>
      </trkpt>
      <trkpt lat="45.57715" lon="4.95905">
        <ele>218</ele>
        <time>2023-02-14T10:53:22.000Z</time>
      </trkpt>
      <trkpt lat="45.57645" lon="4.9589">
        <ele>216</ele>
        <time>2023-02-14T10:53:35.000Z</time>
      </trkpt>
      <trkpt lat="45.57468" lon="4.95836">
        <ele>218</ele>
        <time>2023-02-14T10:54:07.000Z</time>
      </trkpt>
      <trkpt lat="45.5742" lon="4.95813">
        <ele>219</ele>
        <time>2023-02-14T10:54:16.000Z</time>
      </trkpt>
      <trkpt lat="45.57331" lon="4.95763">
        <ele>221</ele>
        <time>2023-02-14T10:54:33.000Z</time>
      </trkpt>
      <trkpt lat="45.57278" lon="4.95737">
        <ele>223</ele>
        <time>2023-02-14T10:54:43.000Z</time>
      </trkpt>
      <trkpt lat="45.57266" lon="4.95735">
        <ele>223</ele>
        <time>2023-02-14T10:54:45.000Z</time>
      </trkpt>
      <trkpt lat="45.57244" lon="4.95741">
        <ele>224</ele>
        <time>2023-02-14T10:54:49.000Z</time>
      </trkpt>
      <trkpt lat="45.57209" lon="4.95755">
        <ele>228</ele>
        <time>2023-02-14T10:54:56.000Z</time>
      </trkpt>
      <trkpt lat="45.57177" lon="4.95762">
        <ele>230</ele>
        <time>2023-02-14T10:55:01.000Z</time>
      </trkpt>
      <trkpt lat="45.57163" lon="4.95754">
        <ele>232</ele>
        <time>2023-02-14T10:55:04.000Z</time>
      </trkpt>
      <trkpt lat="45.57156" lon="4.95744">
        <ele>232</ele>
        <time>2023-02-14T10:55:06.000Z</time>
      </trkpt>
      <trkpt lat="45.57147" lon="4.95718">
        <ele>233</ele>
        <time>2023-02-14T10:55:09.000Z</time>
      </trkpt>
      <trkpt lat="45.57133" lon="4.95688">
        <ele>233</ele>
        <time>2023-02-14T10:55:14.000Z</time>
      </trkpt>
      <trkpt lat="45.57125" lon="4.9568">
        <ele>234</ele>
        <time>2023-02-14T10:55:16.000Z</time>
      </trkpt>
      <trkpt lat="45.57115" lon="4.95675">
        <ele>235</ele>
        <time>2023-02-14T10:55:18.000Z</time>
      </trkpt>
      <trkpt lat="45.57104" lon="4.95674">
        <ele>237</ele>
        <time>2023-02-14T10:55:19.000Z</time>
      </trkpt>
      <trkpt lat="45.57082" lon="4.95682">
        <ele>240</ele>
        <time>2023-02-14T10:55:24.000Z</time>
      </trkpt>
      <trkpt lat="45.57066" lon="4.95692">
        <ele>243</ele>
        <time>2023-02-14T10:55:27.000Z</time>
      </trkpt>
      <trkpt lat="45.57043" lon="4.95712">
        <ele>246</ele>
        <time>2023-02-14T10:55:31.000Z</time>
      </trkpt>
      <trkpt lat="45.57034" lon="4.95713">
        <ele>248</ele>
        <time>2023-02-14T10:55:33.000Z</time>
      </trkpt>
      <trkpt lat="45.57025" lon="4.95709">
        <ele>249</ele>
        <time>2023-02-14T10:55:35.000Z</time>
      </trkpt>
      <trkpt lat="45.57014" lon="4.95687">
        <ele>250</ele>
        <time>2023-02-14T10:55:38.000Z</time>
      </trkpt>
      <trkpt lat="45.57017" lon="4.95666">
        <ele>250</ele>
        <time>2023-02-14T10:55:41.000Z</time>
      </trkpt>
      <trkpt lat="45.57029" lon="4.95646">
        <ele>248</ele>
        <time>2023-02-14T10:55:44.000Z</time>
      </trkpt>
      <trkpt lat="45.57048" lon="4.95626">
        <ele>245</ele>
        <time>2023-02-14T10:55:48.000Z</time>
      </trkpt>
      <trkpt lat="45.57056" lon="4.9561">
        <ele>244</ele>
        <time>2023-02-14T10:55:51.000Z</time>
      </trkpt>
      <trkpt lat="45.57059" lon="4.95598">
        <ele>243</ele>
        <time>2023-02-14T10:55:52.000Z</time>
      </trkpt>
      <trkpt lat="45.57057" lon="4.95584">
        <ele>244</ele>
        <time>2023-02-14T10:55:54.000Z</time>
      </trkpt>
      <trkpt lat="45.57051" lon="4.95571">
        <ele>244</ele>
        <time>2023-02-14T10:55:56.000Z</time>
      </trkpt>
      <trkpt lat="45.57042" lon="4.95563">
        <ele>245</ele>
        <time>2023-02-14T10:55:58.000Z</time>
      </trkpt>
      <trkpt lat="45.57018" lon="4.9555">
        <ele>248</ele>
        <time>2023-02-14T10:56:02.000Z</time>
      </trkpt>
      <trkpt lat="45.56999" lon="4.95543">
        <ele>250</ele>
        <time>2023-02-14T10:56:06.000Z</time>
      </trkpt>
      <trkpt lat="45.56977" lon="4.95542">
        <ele>251</ele>
        <time>2023-02-14T10:56:10.000Z</time>
      </trkpt>
      <trkpt lat="45.56959" lon="4.95544">
        <ele>253</ele>
        <time>2023-02-14T10:56:13.000Z</time>
      </trkpt>
      <trkpt lat="45.56929" lon="4.95554">
        <ele>255</ele>
        <time>2023-02-14T10:56:19.000Z</time>
      </trkpt>
      <trkpt lat="45.56905" lon="4.95568">
        <ele>258</ele>
        <time>2023-02-14T10:56:23.000Z</time>
      </trkpt>
      <trkpt lat="45.5689" lon="4.95582">
        <ele>259</ele>
        <time>2023-02-14T10:56:26.000Z</time>
      </trkpt>
      <trkpt lat="45.56846" lon="4.95633">
        <ele>263</ele>
        <time>2023-02-14T10:56:36.000Z</time>
      </trkpt>
      <trkpt lat="45.56804" lon="4.95663">
        <ele>267</ele>
        <time>2023-02-14T10:56:45.000Z</time>
      </trkpt>
      <trkpt lat="45.56755" lon="4.95691">
        <ele>271</ele>
        <time>2023-02-14T10:56:54.000Z</time>
      </trkpt>
      <trkpt lat="45.56704" lon="4.95733">
        <ele>276</ele>
        <time>2023-02-14T10:57:05.000Z</time>
      </trkpt>
      <trkpt lat="45.56666" lon="4.95769">
        <ele>279</ele>
        <time>2023-02-14T10:57:13.000Z</time>
      </trkpt>
      <trkpt lat="45.56658" lon="4.95775">
        <ele>279</ele>
        <time>2023-02-14T10:57:14.000Z</time>
      </trkpt>
      <trkpt lat="45.56648" lon="4.95777">
        <ele>280</ele>
        <time>2023-02-14T10:57:16.000Z</time>
      </trkpt>
      <trkpt lat="45.56638" lon="4.95774">
        <ele>280</ele>
        <time>2023-02-14T10:57:18.000Z</time>
      </trkpt>
      <trkpt lat="45.56632" lon="4.95766">
        <ele>280</ele>
        <time>2023-02-14T10:57:19.000Z</time>
      </trkpt>
      <trkpt lat="45.56628" lon="4.95755">
        <ele>279</ele>
        <time>2023-02-14T10:57:21.000Z</time>
      </trkpt>
      <trkpt lat="45.56622" lon="4.95713">
        <ele>277</ele>
        <time>2023-02-14T10:57:26.000Z</time>
      </trkpt>
      <trkpt lat="45.56609" lon="4.95679">
        <ele>275</ele>
        <time>2023-02-14T10:57:31.000Z</time>
      </trkpt>
      <trkpt lat="45.56591" lon="4.95655">
        <ele>275</ele>
        <time>2023-02-14T10:57:36.000Z</time>
      </trkpt>
      <trkpt lat="45.56569" lon="4.95638">
        <ele>274</ele>
        <time>2023-02-14T10:57:40.000Z</time>
      </trkpt>
      <trkpt lat="45.56556" lon="4.95634">
        <ele>274</ele>
        <time>2023-02-14T10:57:42.000Z</time>
      </trkpt>
      <trkpt lat="45.56553" lon="4.95635">
        <ele>274</ele>
        <time>2023-02-14T10:57:43.000Z</time>
      </trkpt>
      <trkpt lat="45.56533" lon="4.95668">
        <ele>274</ele>
        <time>2023-02-14T10:57:48.000Z</time>
      </trkpt>
      <trkpt lat="45.56524" lon="4.95676">
        <ele>275</ele>
        <time>2023-02-14T10:57:50.000Z</time>
      </trkpt>
      <trkpt lat="45.56512" lon="4.95682">
        <ele>275</ele>
        <time>2023-02-14T10:57:52.000Z</time>
      </trkpt>
      <trkpt lat="45.56491" lon="4.95684">
        <ele>274</ele>
        <time>2023-02-14T10:57:56.000Z</time>
      </trkpt>
      <trkpt lat="45.56366" lon="4.95668">
        <ele>266</ele>
        <time>2023-02-14T10:58:19.000Z</time>
      </trkpt>
      <trkpt lat="45.56327" lon="4.95668">
        <ele>266</ele>
        <time>2023-02-14T10:58:25.000Z</time>
      </trkpt>
      <trkpt lat="45.56309" lon="4.95673">
        <ele>268</ele>
        <time>2023-02-14T10:58:29.000Z</time>
      </trkpt>
      <trkpt lat="45.56301" lon="4.95678">
        <ele>269</ele>
        <time>2023-02-14T10:58:30.000Z</time>
      </trkpt>
      <trkpt lat="45.56293" lon="4.95685">
        <ele>271</ele>
        <time>2023-02-14T10:58:32.000Z</time>
      </trkpt>
      <trkpt lat="45.56279" lon="4.95704">
        <ele>274</ele>
        <time>2023-02-14T10:58:35.000Z</time>
      </trkpt>
      <trkpt lat="45.56274" lon="4.95707">
        <ele>275</ele>
        <time>2023-02-14T10:58:36.000Z</time>
      </trkpt>
      <trkpt lat="45.56268" lon="4.95707">
        <ele>276</ele>
        <time>2023-02-14T10:58:37.000Z</time>
      </trkpt>
      <trkpt lat="45.5626" lon="4.95696">
        <ele>275</ele>
        <time>2023-02-14T10:58:39.000Z</time>
      </trkpt>
      <trkpt lat="45.56245" lon="4.95622">
        <ele>265</ele>
        <time>2023-02-14T10:58:49.000Z</time>
      </trkpt>
      <trkpt lat="45.56233" lon="4.956">
        <ele>263</ele>
        <time>2023-02-14T10:58:52.000Z</time>
      </trkpt>
      <trkpt lat="45.56202" lon="4.95562">
        <ele>259</ele>
        <time>2023-02-14T10:59:00.000Z</time>
      </trkpt>
      <trkpt lat="45.56164" lon="4.95534">
        <ele>256</ele>
        <time>2023-02-14T10:59:07.000Z</time>
      </trkpt>
      <trkpt lat="45.56051" lon="4.95495">
        <ele>251</ele>
        <time>2023-02-14T10:59:28.000Z</time>
      </trkpt>
      <trkpt lat="45.56028" lon="4.95489">
        <ele>249</ele>
        <time>2023-02-14T10:59:32.000Z</time>
      </trkpt>
      <trkpt lat="45.55906" lon="4.95495">
        <ele>244</ele>
        <time>2023-02-14T10:59:54.000Z</time>
      </trkpt>
      <trkpt lat="45.55869" lon="4.95489">
        <ele>241</ele>
        <time>2023-02-14T11:00:01.000Z</time>
      </trkpt>
      <trkpt lat="45.558" lon="4.95466">
        <ele>232</ele>
        <time>2023-02-14T11:00:13.000Z</time>
      </trkpt>
      <trkpt lat="45.55767" lon="4.95466">
        <ele>228</ele>
        <time>2023-02-14T11:00:19.000Z</time>
      </trkpt>
      <trkpt lat="45.55711" lon="4.95478">
        <ele>221</ele>
        <time>2023-02-14T11:00:29.000Z</time>
      </trkpt>
      <trkpt lat="45.55707" lon="4.95485">
        <ele>220</ele>
        <time>2023-02-14T11:00:30.000Z</time>
      </trkpt>
      <trkpt lat="45.55706" lon="4.95498">
        <ele>220</ele>
        <time>2023-02-14T11:00:32.000Z</time>
      </trkpt>
      <trkpt lat="45.55726" lon="4.95591">
        <ele>223</ele>
        <time>2023-02-14T11:00:44.000Z</time>
      </trkpt>
      <trkpt lat="45.55783" lon="4.95806">
        <ele>226</ele>
        <time>2023-02-14T11:01:13.000Z</time>
      </trkpt>
      <trkpt lat="45.55794" lon="4.95859">
        <ele>226</ele>
        <time>2023-02-14T11:01:20.000Z</time>
      </trkpt>
      <trkpt lat="45.55798" lon="4.95903">
        <ele>224</ele>
        <time>2023-02-14T11:01:25.000Z</time>
      </trkpt>
      <trkpt lat="45.55797" lon="4.95978">
        <ele>222</ele>
        <time>2023-02-14T11:01:34.000Z</time>
      </trkpt>
      <trkpt lat="45.55782" lon="4.96213">
        <ele>216</ele>
        <time>2023-02-14T11:02:04.000Z</time>
      </trkpt>
      <trkpt lat="45.55774" lon="4.96223">
        <ele>215</ele>
        <time>2023-02-14T11:02:06.000Z</time>
      </trkpt>
      <trkpt lat="45.55762" lon="4.96226">
        <ele>214</ele>
        <time>2023-02-14T11:02:08.000Z</time>
      </trkpt>
      <trkpt lat="45.55442" lon="4.96224">
        <ele>208</ele>
        <time>2023-02-14T11:03:05.000Z</time>
      </trkpt>
      <trkpt lat="45.55221" lon="4.96229">
        <ele>207</ele>
        <time>2023-02-14T11:03:44.000Z</time>
      </trkpt>
      <trkpt lat="45.55076" lon="4.96228">
        <ele>208</ele>
        <time>2023-02-14T11:04:10.000Z</time>
      </trkpt>
      <trkpt lat="45.55043" lon="4.9623">
        <ele>208</ele>
        <time>2023-02-14T11:04:16.000Z</time>
      </trkpt>
      <trkpt lat="45.54935" lon="4.96222">
        <ele>208.5</ele>
        <time>2023-02-14T11:04:36.000Z</time>
      </trkpt>
      <trkpt lat="45.54912" lon="4.96204">
        <ele>208.4</ele>
        <time>2023-02-14T11:04:38.000Z</time>
      </trkpt>
      <trkpt lat="45.54901" lon="4.96165">
        <ele>208</ele>
        <time>2023-02-14T11:04:46.000Z</time>
      </trkpt>
      <trkpt lat="45.54865" lon="4.9597">
        <ele>207</ele>
        <time>2023-02-14T11:05:11.000Z</time>
      </trkpt>
      <trkpt lat="45.54847" lon="4.95915">
        <ele>208</ele>
        <time>2023-02-14T11:05:19.000Z</time>
      </trkpt>
      <trkpt lat="45.5475" lon="4.95667">
        <ele>206</ele>
        <time>2023-02-14T11:05:54.000Z</time>
      </trkpt>
      <trkpt lat="45.54716" lon="4.95562">
        <ele>206</ele>
        <time>2023-02-14T11:06:09.000Z</time>
      </trkpt>
      <trkpt lat="45.54671" lon="4.9544">
        <ele>205</ele>
        <time>2023-02-14T11:06:26.000Z</time>
      </trkpt>
      <trkpt lat="45.54648" lon="4.95353">
        <ele>205</ele>
        <time>2023-02-14T11:06:38.000Z</time>
      </trkpt>
      <trkpt lat="45.54636" lon="4.95328">
        <ele>205</ele>
        <time>2023-02-14T11:06:41.000Z</time>
      </trkpt>
      <trkpt lat="45.54585" lon="4.95242">
        <ele>207</ele>
        <time>2023-02-14T11:06:55.000Z</time>
      </trkpt>
      <trkpt lat="45.54577" lon="4.95211">
        <ele>207</ele>
        <time>2023-02-14T11:07:00.000Z</time>
      </trkpt>
      <trkpt lat="45.54572" lon="4.95175">
        <ele>206</ele>
        <time>2023-02-14T11:07:04.000Z</time>
      </trkpt>
      <trkpt lat="45.54569" lon="4.95069">
        <ele>206</ele>
        <time>2023-02-14T11:07:17.000Z</time>
      </trkpt>
      <trkpt lat="45.54556" lon="4.9499">
        <ele>205</ele>
        <time>2023-02-14T11:07:27.000Z</time>
      </trkpt>
      <trkpt lat="45.54543" lon="4.9493">
        <ele>205</ele>
        <time>2023-02-14T11:07:35.000Z</time>
      </trkpt>
      <trkpt lat="45.54521" lon="4.94877">
        <ele>204</ele>
        <time>2023-02-14T11:07:43.000Z</time>
      </trkpt>
      <trkpt lat="45.54481" lon="4.94803">
        <ele>203</ele>
        <time>2023-02-14T11:07:55.000Z</time>
      </trkpt>
      <trkpt lat="45.54434" lon="4.94726">
        <ele>207</ele>
        <time>2023-02-14T11:08:07.000Z</time>
      </trkpt>
      <trkpt lat="45.54419" lon="4.94651">
        <ele>205</ele>
        <time>2023-02-14T11:08:17.000Z</time>
      </trkpt>
      <trkpt lat="45.54404" lon="4.94593">
        <ele>204</ele>
        <time>2023-02-14T11:08:25.000Z</time>
      </trkpt>
      <trkpt lat="45.54388" lon="4.94541">
        <ele>203</ele>
        <time>2023-02-14T11:08:32.000Z</time>
      </trkpt>
      <trkpt lat="45.54346" lon="4.94438">
        <ele>203</ele>
        <time>2023-02-14T11:08:47.000Z</time>
      </trkpt>
      <trkpt lat="45.54301" lon="4.94347">
        <ele>205</ele>
        <time>2023-02-14T11:09:01.000Z</time>
      </trkpt>
      <trkpt lat="45.54216" lon="4.94195">
        <ele>202</ele>
        <time>2023-02-14T11:09:25.000Z</time>
      </trkpt>
      <trkpt lat="45.54182" lon="4.94123">
        <ele>201</ele>
        <time>2023-02-14T11:09:36.000Z</time>
      </trkpt>
      <trkpt lat="45.54149" lon="4.94035">
        <ele>199</ele>
        <time>2023-02-14T11:09:48.000Z</time>
      </trkpt>
      <trkpt lat="45.54121" lon="4.93979">
        <ele>200</ele>
        <time>2023-02-14T11:09:57.000Z</time>
      </trkpt>
      <trkpt lat="45.54103" lon="4.93957">
        <ele>200</ele>
        <time>2023-02-14T11:10:01.000Z</time>
      </trkpt>
      <trkpt lat="45.5409" lon="4.93946">
        <ele>200</ele>
        <time>2023-02-14T11:10:04.000Z</time>
      </trkpt>
      <trkpt lat="45.54058" lon="4.93928">
        <ele>200</ele>
        <time>2023-02-14T11:10:10.000Z</time>
      </trkpt>
      <trkpt lat="45.54027" lon="4.93916">
        <ele>201</ele>
        <time>2023-02-14T11:10:15.000Z</time>
      </trkpt>
      <trkpt lat="45.53931" lon="4.93903">
        <ele>199</ele>
        <time>2023-02-14T11:10:33.000Z</time>
      </trkpt>
      <trkpt lat="45.53914" lon="4.93905">
        <ele>199</ele>
        <time>2023-02-14T11:10:36.000Z</time>
      </trkpt>
      <trkpt lat="45.539" lon="4.93913">
        <ele>198</ele>
        <time>2023-02-14T11:10:38.000Z</time>
      </trkpt>
      <trkpt lat="45.53846" lon="4.93968">
        <ele>198</ele>
        <time>2023-02-14T11:10:50.000Z</time>
      </trkpt>
      <trkpt lat="45.53824" lon="4.93985">
        <ele>198</ele>
        <time>2023-02-14T11:10:55.000Z</time>
      </trkpt>
      <trkpt lat="45.53819" lon="4.93998">
        <ele>198</ele>
        <time>2023-02-14T11:10:56.000Z</time>
      </trkpt>
      <trkpt lat="45.53819" lon="4.94004">
        <ele>198</ele>
        <time>2023-02-14T11:10:57.000Z</time>
      </trkpt>
      <trkpt lat="45.53834" lon="4.9408">
        <ele>198</ele>
        <time>2023-02-14T11:11:07.000Z</time>
      </trkpt>
      <trkpt lat="45.53835" lon="4.94206">
        <ele>199</ele>
        <time>2023-02-14T11:11:23.000Z</time>
      </trkpt>
      <trkpt lat="45.53837" lon="4.94228">
        <ele>199</ele>
        <time>2023-02-14T11:11:25.000Z</time>
      </trkpt>
      <trkpt lat="45.53842" lon="4.94249">
        <ele>200</ele>
        <time>2023-02-14T11:11:28.000Z</time>
      </trkpt>
      <trkpt lat="45.53842" lon="4.94263">
        <ele>200</ele>
        <time>2023-02-14T11:11:30.000Z</time>
      </trkpt>
      <trkpt lat="45.53829" lon="4.94356">
        <ele>201</ele>
        <time>2023-02-14T11:11:42.000Z</time>
      </trkpt>
      <trkpt lat="45.53835" lon="4.94468">
        <ele>204</ele>
        <time>2023-02-14T11:11:56.000Z</time>
      </trkpt>
      <trkpt lat="45.53829" lon="4.94507">
        <ele>205</ele>
        <time>2023-02-14T11:12:01.000Z</time>
      </trkpt>
      <trkpt lat="45.53796" lon="4.94592">
        <ele>206</ele>
        <time>2023-02-14T11:12:13.000Z</time>
      </trkpt>
      <trkpt lat="45.53779" lon="4.94644">
        <ele>207</ele>
        <time>2023-02-14T11:12:20.000Z</time>
      </trkpt>
      <trkpt lat="45.53776" lon="4.94665">
        <ele>207</ele>
        <time>2023-02-14T11:12:23.000Z</time>
      </trkpt>
      <trkpt lat="45.53778" lon="4.94716">
        <ele>207</ele>
        <time>2023-02-14T11:12:29.000Z</time>
      </trkpt>
      <trkpt lat="45.53766" lon="4.94741">
        <ele>208</ele>
        <time>2023-02-14T11:12:33.000Z</time>
      </trkpt>
      <trkpt lat="45.53722" lon="4.94786">
        <ele>210</ele>
        <time>2023-02-14T11:12:42.000Z</time>
      </trkpt>
      <trkpt lat="45.5368" lon="4.94818">
        <ele>212</ele>
        <time>2023-02-14T11:12:51.000Z</time>
      </trkpt>
      <trkpt lat="45.53657" lon="4.94844">
        <ele>212</ele>
        <time>2023-02-14T11:12:56.000Z</time>
      </trkpt>
      <trkpt lat="45.53631" lon="4.94885">
        <ele>213</ele>
        <time>2023-02-14T11:13:03.000Z</time>
      </trkpt>
      <trkpt lat="45.53601" lon="4.94926">
        <ele>214</ele>
        <time>2023-02-14T11:13:10.000Z</time>
      </trkpt>
      <trkpt lat="45.5358" lon="4.9494">
        <ele>214</ele>
        <time>2023-02-14T11:13:15.000Z</time>
      </trkpt>
      <trkpt lat="45.53567" lon="4.94942">
        <ele>214</ele>
        <time>2023-02-14T11:13:17.000Z</time>
      </trkpt>
      <trkpt lat="45.53512" lon="4.94929">
        <ele>216</ele>
        <time>2023-02-14T11:13:27.000Z</time>
      </trkpt>
      <trkpt lat="45.53426" lon="4.94915">
        <ele>220</ele>
        <time>2023-02-14T11:13:42.000Z</time>
      </trkpt>
      <trkpt lat="45.53397" lon="4.94899">
        <ele>221</ele>
        <time>2023-02-14T11:13:48.000Z</time>
      </trkpt>
      <trkpt lat="45.53378" lon="4.94883">
        <ele>222</ele>
        <time>2023-02-14T11:13:52.000Z</time>
      </trkpt>
      <trkpt lat="45.53356" lon="4.9486">
        <ele>223</ele>
        <time>2023-02-14T11:13:56.000Z</time>
      </trkpt>
      <trkpt lat="45.53346" lon="4.94834">
        <ele>223</ele>
        <time>2023-02-14T11:14:00.000Z</time>
      </trkpt>
      <trkpt lat="45.53325" lon="4.94793">
        <ele>224</ele>
        <time>2023-02-14T11:14:07.000Z</time>
      </trkpt>
      <trkpt lat="45.53192" lon="4.94641">
        <ele>230</ele>
        <time>2023-02-14T11:14:37.000Z</time>
      </trkpt>
      <trkpt lat="45.53137" lon="4.94562">
        <ele>234</ele>
        <time>2023-02-14T11:14:51.000Z</time>
      </trkpt>
      <trkpt lat="45.53095" lon="4.94496">
        <ele>235</ele>
        <time>2023-02-14T11:15:02.000Z</time>
      </trkpt>
      <trkpt lat="45.53056" lon="4.94444">
        <ele>235</ele>
        <time>2023-02-14T11:15:11.000Z</time>
      </trkpt>
      <trkpt lat="45.53006" lon="4.94371">
        <ele>238</ele>
        <time>2023-02-14T11:15:24.000Z</time>
      </trkpt>
      <trkpt lat="45.52979" lon="4.94341">
        <ele>239</ele>
        <time>2023-02-14T11:15:30.000Z</time>
      </trkpt>
      <trkpt lat="45.52954" lon="4.9432">
        <ele>239</ele>
        <time>2023-02-14T11:15:35.000Z</time>
      </trkpt>
      <trkpt lat="45.52944" lon="4.94307">
        <ele>239</ele>
        <time>2023-02-14T11:15:38.000Z</time>
      </trkpt>
      <trkpt lat="45.52935" lon="4.94283">
        <ele>239</ele>
        <time>2023-02-14T11:15:41.000Z</time>
      </trkpt>
      <trkpt lat="45.52929" lon="4.94256">
        <ele>239</ele>
        <time>2023-02-14T11:15:45.000Z</time>
      </trkpt>
      <trkpt lat="45.52915" lon="4.94199">
        <ele>232.9</ele>
        <time>2023-02-14T11:15:52.570Z</time>
      </trkpt>
      <trkpt lat="45.52897" lon="4.94106">
        <ele>230.7</ele>
        <time>2023-02-14T11:16:04.488Z</time>
      </trkpt>
      <trkpt lat="45.52883" lon="4.94039">
        <ele>229.7</ele>
        <time>2023-02-14T11:16:13.137Z</time>
      </trkpt>
      <trkpt lat="45.5287" lon="4.93966">
        <ele>227.8</ele>
        <time>2023-02-14T11:16:22.367Z</time>
      </trkpt>
      <trkpt lat="45.5286" lon="4.939">
        <ele>226.5</ele>
        <time>2023-02-14T11:16:30.809Z</time>
      </trkpt>
      <trkpt lat="45.52849" lon="4.93852">
        <ele>229</ele>
        <time>2023-02-14T11:16:37.000Z</time>
      </trkpt>
      <trkpt lat="45.52845" lon="4.93834">
        <ele>229</ele>
        <time>2023-02-14T11:16:39.000Z</time>
      </trkpt>
      <trkpt lat="45.52839" lon="4.93822">
        <ele>229</ele>
        <time>2023-02-14T11:16:41.000Z</time>
      </trkpt>
      <trkpt lat="45.52823" lon="4.93821">
        <ele>229</ele>
        <time>2023-02-14T11:16:44.000Z</time>
      </trkpt>
      <trkpt lat="45.52779" lon="4.93849">
        <ele>231</ele>
        <time>2023-02-14T11:16:53.000Z</time>
      </trkpt>
      <trkpt lat="45.52739" lon="4.9389">
        <ele>230.7</ele>
        <time>2023-02-14T11:17:04.000Z</time>
      </trkpt>
      <trkpt lat="45.52739" lon="4.93952">
        <ele>232.1</ele>
        <time>2023-02-14T11:17:06.276Z</time>
      </trkpt>
      <trkpt lat="45.52729" lon="4.94029">
        <ele>234.3</ele>
        <time>2023-02-14T11:17:09.163Z</time>
      </trkpt>
      <trkpt lat="45.52723" lon="4.94082">
        <ele>236.3</ele>
        <time>2023-02-14T11:17:11.168Z</time>
      </trkpt>
      <trkpt lat="45.5271" lon="4.94177">
        <ele>239.1</ele>
        <time>2023-02-14T11:17:14.733Z</time>
      </trkpt>
      <trkpt lat="45.52713" lon="4.94275">
        <ele>239.4</ele>
        <time>2023-02-14T11:17:18.342Z</time>
      </trkpt>
      <trkpt lat="45.52728" lon="4.94357">
        <ele>238</ele>
        <time>2023-02-14T11:17:21.423Z</time>
      </trkpt>
      <trkpt lat="45.52738" lon="4.94432">
        <ele>238</ele>
        <time>2023-02-14T11:17:24.245Z</time>
      </trkpt>
      <trkpt lat="45.52745" lon="4.94475">
        <ele>238.1</ele>
        <time>2023-02-14T11:17:25.885Z</time>
      </trkpt>
      <trkpt lat="45.52761" lon="4.9454">
        <ele>239.7</ele>
        <time>2023-02-14T11:17:28.393Z</time>
      </trkpt>
      <trkpt lat="45.52783" lon="4.94598">
        <ele>242.5</ele>
        <time>2023-02-14T11:17:30.829Z</time>
      </trkpt>
      <trkpt lat="45.52796" lon="4.94639">
        <ele>245.8</ele>
        <time>2023-02-14T11:17:32.492Z</time>
      </trkpt>
      <trkpt lat="45.52824" lon="4.94712">
        <ele>251.5</ele>
        <time>2023-02-14T11:17:35.590Z</time>
      </trkpt>
      <trkpt lat="45.52862" lon="4.9476">
        <ele>253.1</ele>
        <time>2023-02-14T11:17:38.222Z</time>
      </trkpt>
      <trkpt lat="45.52903" lon="4.94822">
        <ele>255.8</ele>
        <time>2023-02-14T11:17:41.369Z</time>
      </trkpt>
      <trkpt lat="45.52927" lon="4.94892">
        <ele>260.2</ele>
        <time>2023-02-14T11:17:44.265Z</time>
      </trkpt>
      <trkpt lat="45.52954" lon="4.94948">
        <ele>263.8</ele>
        <time>2023-02-14T11:17:46.769Z</time>
      </trkpt>
      <trkpt lat="45.52975" lon="4.95009">
        <ele>267.7</ele>
        <time>2023-02-14T11:17:49.284Z</time>
      </trkpt>
      <trkpt lat="45.53004" lon="4.95086">
        <ele>269.5</ele>
        <time>2023-02-14T11:17:52.461Z</time>
      </trkpt>
      <trkpt lat="45.53045" lon="4.95145">
        <ele>267.4</ele>
        <time>2023-02-14T11:17:55.534Z</time>
      </trkpt>
      <trkpt lat="45.53068" lon="4.95187">
        <ele>268.6</ele>
        <time>2023-02-14T11:17:57.515Z</time>
      </trkpt>
      <trkpt lat="45.53121" lon="4.95252">
        <ele>265.4</ele>
        <time>2023-02-14T11:18:01.180Z</time>
      </trkpt>
      <trkpt lat="45.53168" lon="4.95329">
        <ele>266.1</ele>
        <time>2023-02-14T11:18:04.927Z</time>
      </trkpt>
      <trkpt lat="45.53201" lon="4.95385">
        <ele>266.7</ele>
        <time>2023-02-14T11:18:07.627Z</time>
      </trkpt>
      <trkpt lat="45.5322" lon="4.95424">
        <ele>268.5</ele>
        <time>2023-02-14T11:18:09.365Z</time>
      </trkpt>
      <trkpt lat="45.53241" lon="4.95479">
        <ele>271.4</ele>
        <time>2023-02-14T11:18:11.693Z</time>
      </trkpt>
      <trkpt lat="45.53247" lon="4.95538">
        <ele>273.2</ele>
        <time>2023-02-14T11:18:13.879Z</time>
      </trkpt>
      <trkpt lat="45.53228" lon="4.95617">
        <ele>276.5</ele>
        <time>2023-02-14T11:18:16.951Z</time>
      </trkpt>
      <trkpt lat="45.53204" lon="4.95682">
        <ele>281.6</ele>
        <time>2023-02-14T11:18:19.660Z</time>
      </trkpt>
      <trkpt lat="45.53161" lon="4.95705">
        <ele>283.3</ele>
        <time>2023-02-14T11:18:22.083Z</time>
      </trkpt>
      <trkpt lat="45.53118" lon="4.95738">
        <ele>285.7</ele>
        <time>2023-02-14T11:18:24.651Z</time>
      </trkpt>
      <trkpt lat="45.53084" lon="4.95794">
        <ele>290.5</ele>
        <time>2023-02-14T11:18:27.372Z</time>
      </trkpt>
      <trkpt lat="45.53081" lon="4.9584">
        <ele>293.9</ele>
        <time>2023-02-14T11:18:29.099Z</time>
      </trkpt>
      <trkpt lat="45.53081" lon="4.95909">
        <ele>301.3</ele>
        <time>2023-02-14T11:18:31.637Z</time>
      </trkpt>
      <trkpt lat="45.53068" lon="4.95963">
        <ele>306.4</ele>
        <time>2023-02-14T11:18:33.757Z</time>
      </trkpt>
      <trkpt lat="45.5306" lon="4.96021">
        <ele>310.2</ele>
        <time>2023-02-14T11:18:35.940Z</time>
      </trkpt>
      <trkpt lat="45.53094" lon="4.96073">
        <ele>310.6</ele>
        <time>2023-02-14T11:18:38.552Z</time>
      </trkpt>
      <trkpt lat="45.53115" lon="4.96129">
        <ele>309.2</ele>
        <time>2023-02-14T11:18:40.877Z</time>
      </trkpt>
      <trkpt lat="45.53141" lon="4.96202">
        <ele>310.2</ele>
        <time>2023-02-14T11:18:43.909Z</time>
      </trkpt>
      <trkpt lat="45.53166" lon="4.96261">
        <ele>313.9</ele>
        <time>2023-02-14T11:18:46.440Z</time>
      </trkpt>
      <trkpt lat="45.53183" lon="4.96302">
        <ele>315.2</ele>
        <time>2023-02-14T11:18:48.202Z</time>
      </trkpt>
      <trkpt lat="45.53202" lon="4.96372">
        <ele>318.6</ele>
        <time>2023-02-14T11:18:50.957Z</time>
      </trkpt>
      <trkpt lat="45.53209" lon="4.96455">
        <ele>320.5</ele>
        <time>2023-02-14T11:18:54.046Z</time>
      </trkpt>
      <trkpt lat="45.53212" lon="4.96545">
        <ele>320.2</ele>
        <time>2023-02-14T11:18:57.348Z</time>
      </trkpt>
      <trkpt lat="45.53224" lon="4.96626">
        <ele>321.1</ele>
        <time>2023-02-14T11:19:00.401Z</time>
      </trkpt>
      <trkpt lat="45.53224" lon="4.96738">
        <ele>318.1</ele>
        <time>2023-02-14T11:19:04.529Z</time>
      </trkpt>
      <trkpt lat="45.53198" lon="4.96814">
        <ele>312.7</ele>
        <time>2023-02-14T11:19:07.665Z</time>
      </trkpt>
      <trkpt lat="45.5316" lon="4.96879">
        <ele>311.7</ele>
        <time>2023-02-14T11:19:10.759Z</time>
      </trkpt>
      <trkpt lat="45.53143" lon="4.96921">
        <ele>311.3</ele>
        <time>2023-02-14T11:19:12.558Z</time>
      </trkpt>
      <trkpt lat="45.5312" lon="4.96975">
        <ele>310.5</ele>
        <time>2023-02-14T11:19:14.867Z</time>
      </trkpt>
      <trkpt lat="45.53089" lon="4.97057">
        <ele>313.8</ele>
        <time>2023-02-14T11:19:18.290Z</time>
      </trkpt>
      <trkpt lat="45.53066" lon="4.97168">
        <ele>320.2</ele>
        <time>2023-02-14T11:19:22.559Z</time>
      </trkpt>
      <trkpt lat="45.53052" lon="4.97245">
        <ele>326.1</ele>
        <time>2023-02-14T11:19:25.497Z</time>
      </trkpt>
      <trkpt lat="45.5304" lon="4.97347">
        <ele>330.1</ele>
        <time>2023-02-14T11:19:29.345Z</time>
      </trkpt>
      <trkpt lat="45.53038" lon="4.97408">
        <ele>330.6</ele>
        <time>2023-02-14T11:19:31.566Z</time>
      </trkpt>
      <trkpt lat="45.53043" lon="4.97523">
        <ele>328.4</ele>
        <time>2023-02-14T11:19:35.818Z</time>
      </trkpt>
      <trkpt lat="45.5305" lon="4.97587">
        <ele>324.8</ele>
        <time>2023-02-14T11:19:38.188Z</time>
      </trkpt>
      <trkpt lat="45.53054" lon="4.97673">
        <ele>319.9</ele>
        <time>2023-02-14T11:19:41.384Z</time>
      </trkpt>
      <trkpt lat="45.53053" lon="4.97722">
        <ele>320.6</ele>
        <time>2023-02-14T11:19:43.182Z</time>
      </trkpt>
      <trkpt lat="45.53039" lon="4.97761">
        <ele>322.7</ele>
        <time>2023-02-14T11:19:44.795Z</time>
      </trkpt>
      <trkpt lat="45.53056" lon="4.97831">
        <ele>324.5</ele>
        <time>2023-02-14T11:19:47.542Z</time>
      </trkpt>
      <trkpt lat="45.53064" lon="4.97918">
        <ele>331.8</ele>
        <time>2023-02-14T11:19:50.776Z</time>
      </trkpt>
      <trkpt lat="45.53079" lon="4.97968">
        <ele>335.4</ele>
        <time>2023-02-14T11:19:52.772Z</time>
      </trkpt>
      <trkpt lat="45.53129" lon="4.9803">
        <ele>336.2</ele>
        <time>2023-02-14T11:19:56.230Z</time>
      </trkpt>
      <trkpt lat="45.53161" lon="4.98098">
        <ele>335.3</ele>
        <time>2023-02-14T11:19:59.257Z</time>
      </trkpt>
      <trkpt lat="45.5321" lon="4.98181">
        <ele>335.2</ele>
        <time>2023-02-14T11:20:03.232Z</time>
      </trkpt>
      <trkpt lat="45.53241" lon="4.98234">
        <ele>334.9</ele>
        <time>2023-02-14T11:20:05.782Z</time>
      </trkpt>
      <trkpt lat="45.53271" lon="4.9831">
        <ele>331.9</ele>
        <time>2023-02-14T11:20:09.016Z</time>
      </trkpt>
      <trkpt lat="45.53294" lon="4.98375">
        <ele>330.4</ele>
        <time>2023-02-14T11:20:11.668Z</time>
      </trkpt>
      <trkpt lat="45.53322" lon="4.98462">
        <ele>330.5</ele>
        <time>2023-02-14T11:20:15.217Z</time>
      </trkpt>
      <trkpt lat="45.53357" lon="4.98545">
        <ele>329.3</ele>
        <time>2023-02-14T11:20:18.740Z</time>
      </trkpt>
      <trkpt lat="45.53374" lon="4.98606">
        <ele>328.3</ele>
        <time>2023-02-14T11:20:21.157Z</time>
      </trkpt>
      <trkpt lat="45.53375" lon="4.98636">
        <ele>328.3</ele>
        <time>2023-02-14T11:20:22.258Z</time>
      </trkpt>
      <trkpt lat="45.53365" lon="4.98715">
        <ele>329.2</ele>
        <time>2023-02-14T11:20:25.217Z</time>
      </trkpt>
      <trkpt lat="45.53376" lon="4.98827">
        <ele>334.4</ele>
        <time>2023-02-14T11:20:29.414Z</time>
      </trkpt>
      <trkpt lat="45.5339" lon="4.98923">
        <ele>339.9</ele>
        <time>2023-02-14T11:20:33.014Z</time>
      </trkpt>
      <trkpt lat="45.53401" lon="4.99061">
        <ele>337</ele>
        <time>2023-02-14T11:20:38.146Z</time>
      </trkpt>
      <trkpt lat="45.53402" lon="4.99119">
        <ele>336.2</ele>
        <time>2023-02-14T11:20:40.264Z</time>
      </trkpt>
      <trkpt lat="45.53414" lon="4.99203">
        <ele>336</ele>
        <time>2023-02-14T11:20:43.419Z</time>
      </trkpt>
      <trkpt lat="45.534" lon="4.99263">
        <ele>337.6</ele>
        <time>2023-02-14T11:20:45.730Z</time>
      </trkpt>
      <trkpt lat="45.53373" lon="4.99333">
        <ele>339.7</ele>
        <time>2023-02-14T11:20:48.684Z</time>
      </trkpt>
      <trkpt lat="45.53344" lon="4.99424">
        <ele>343.8</ele>
        <time>2023-02-14T11:20:52.371Z</time>
      </trkpt>
      <trkpt lat="45.53326" lon="4.99521">
        <ele>346.1</ele>
        <time>2023-02-14T11:20:56.066Z</time>
      </trkpt>
      <trkpt lat="45.53318" lon="4.99575">
        <ele>346.5</ele>
        <time>2023-02-14T11:20:58.101Z</time>
      </trkpt>
      <trkpt lat="45.53318" lon="4.99667">
        <ele>349.4</ele>
        <time>2023-02-14T11:21:01.488Z</time>
      </trkpt>
      <trkpt lat="45.53322" lon="4.99745">
        <ele>349.3</ele>
        <time>2023-02-14T11:21:04.361Z</time>
      </trkpt>
      <trkpt lat="45.53321" lon="4.99869">
        <ele>346.4</ele>
        <time>2023-02-14T11:21:08.911Z</time>
      </trkpt>
      <trkpt lat="45.53318" lon="4.99935">
        <ele>346.8</ele>
        <time>2023-02-14T11:21:11.345Z</time>
      </trkpt>
      <trkpt lat="45.53321" lon="5.00035">
        <ele>353.5</ele>
        <time>2023-02-14T11:21:15.073Z</time>
      </trkpt>
      <trkpt lat="45.53326" lon="5.0011">
        <ele>356.5</ele>
        <time>2023-02-14T11:21:17.845Z</time>
      </trkpt>
      <trkpt lat="45.53321" lon="5.00217">
        <ele>359</ele>
        <time>2023-02-14T11:21:21.760Z</time>
      </trkpt>
      <trkpt lat="45.53318" lon="5.0028">
        <ele>360.2</ele>
        <time>2023-02-14T11:21:24.090Z</time>
      </trkpt>
      <trkpt lat="45.5333" lon="5.00361">
        <ele>361.5</ele>
        <time>2023-02-14T11:21:27.142Z</time>
      </trkpt>
      <trkpt lat="45.5334" lon="5.00433">
        <ele>361</ele>
        <time>2023-02-14T11:21:29.861Z</time>
      </trkpt>
      <trkpt lat="45.53346" lon="5.00511">
        <ele>361</ele>
        <time>2023-02-14T11:21:32.748Z</time>
      </trkpt>
      <trkpt lat="45.53352" lon="5.00573">
        <ele>362</ele>
        <time>2023-02-14T11:21:35.048Z</time>
      </trkpt>
      <trkpt lat="45.53307" lon="5.0055">
        <ele>358.7</ele>
        <time>2023-02-14T11:21:37.558Z</time>
      </trkpt>
      <trkpt lat="45.53253" lon="5.00518">
        <ele>353.1</ele>
        <time>2023-02-14T11:21:40.622Z</time>
      </trkpt>
      <trkpt lat="45.53218" lon="5.00493">
        <ele>352</ele>
        <time>2023-02-14T11:21:42.712Z</time>
      </trkpt>
      <trkpt lat="45.5318" lon="5.0044">
        <ele>352.6</ele>
        <time>2023-02-14T11:21:45.484Z</time>
      </trkpt>
      <trkpt lat="45.53157" lon="5.00398">
        <ele>352.9</ele>
        <time>2023-02-14T11:21:47.436Z</time>
      </trkpt>
      <trkpt lat="45.53136" lon="5.00366">
        <ele>352.3</ele>
        <time>2023-02-14T11:21:49.084Z</time>
      </trkpt>
      <trkpt lat="45.53108" lon="5.00321">
        <ele>351.5</ele>
        <time>2023-02-14T11:21:51.257Z</time>
      </trkpt>
      <trkpt lat="45.53063" lon="5.00279">
        <ele>351.3</ele>
        <time>2023-02-14T11:21:54.110Z</time>
      </trkpt>
      <trkpt lat="45.53025" lon="5.00243">
        <ele>351.6</ele>
        <time>2023-02-14T11:21:56.491Z</time>
      </trkpt>
      <trkpt lat="45.52994" lon="5.00209">
        <ele>350.7</ele>
        <time>2023-02-14T11:21:58.550Z</time>
      </trkpt>
      <trkpt lat="45.52954" lon="5.00167">
        <ele>350.5</ele>
        <time>2023-02-14T11:22:01.137Z</time>
      </trkpt>
      <trkpt lat="45.52933" lon="5.00137">
        <ele>350.4</ele>
        <time>2023-02-14T11:22:02.711Z</time>
      </trkpt>
      <trkpt lat="45.52898" lon="5.00096">
        <ele>350.1</ele>
        <time>2023-02-14T11:22:05.127Z</time>
      </trkpt>
      <trkpt lat="45.52866" lon="5.00068">
        <ele>349.8</ele>
        <time>2023-02-14T11:22:07.073Z</time>
      </trkpt>
      <trkpt lat="45.52828" lon="5.00052">
        <ele>349</ele>
        <time>2023-02-14T11:22:09.158Z</time>
      </trkpt>
      <trkpt lat="45.52796" lon="5.00036">
        <ele>347.3</ele>
        <time>2023-02-14T11:22:10.936Z</time>
      </trkpt>
      <trkpt lat="45.52746" lon="5.00016">
        <ele>345.4</ele>
        <time>2023-02-14T11:22:13.664Z</time>
      </trkpt>
      <trkpt lat="45.5272" lon="4.9999">
        <ele>344</ele>
        <time>2023-02-14T11:22:15.327Z</time>
      </trkpt>
      <trkpt lat="45.52696" lon="4.99971">
        <ele>341.8</ele>
        <time>2023-02-14T11:22:16.762Z</time>
      </trkpt>
      <trkpt lat="45.52686" lon="4.99907">
        <ele>340.3</ele>
        <time>2023-02-14T11:22:19.175Z</time>
      </trkpt>
      <trkpt lat="45.52677" lon="4.99855">
        <ele>335.4</ele>
        <time>2023-02-14T11:22:21.164Z</time>
      </trkpt>
      <trkpt lat="45.5267" lon="4.9982">
        <ele>331.7</ele>
        <time>2023-02-14T11:22:22.514Z</time>
      </trkpt>
      <trkpt lat="45.52625" lon="4.99763">
        <ele>324.7</ele>
        <time>2023-02-14T11:22:25.691Z</time>
      </trkpt>
      <trkpt lat="45.52586" lon="4.99689">
        <ele>318</ele>
        <time>2023-02-14T11:22:29.094Z</time>
      </trkpt>
      <trkpt lat="45.52553" lon="4.99645">
        <ele>315.5</ele>
        <time>2023-02-14T11:22:31.498Z</time>
      </trkpt>
      <trkpt lat="45.52512" lon="4.99582">
        <ele>310.7</ele>
        <time>2023-02-14T11:22:34.653Z</time>
      </trkpt>
      <trkpt lat="45.5249" lon="4.99544">
        <ele>308.2</ele>
        <time>2023-02-14T11:22:36.459Z</time>
      </trkpt>
      <trkpt lat="45.52471" lon="4.99517">
        <ele>307</ele>
        <time>2023-02-14T11:22:37.886Z</time>
      </trkpt>
      <trkpt lat="45.52447" lon="4.99453">
        <ele>303.1</ele>
        <time>2023-02-14T11:22:40.556Z</time>
      </trkpt>
      <trkpt lat="45.52409" lon="4.99399">
        <ele>298.7</ele>
        <time>2023-02-14T11:22:43.378Z</time>
      </trkpt>
      <trkpt lat="45.52369" lon="4.99357">
        <ele>299.1</ele>
        <time>2023-02-14T11:22:45.964Z</time>
      </trkpt>
      <trkpt lat="45.5231" lon="4.99288">
        <ele>298.5</ele>
        <time>2023-02-14T11:22:49.969Z</time>
      </trkpt>
      <trkpt lat="45.5221" lon="4.99191">
        <ele>292.4</ele>
        <time>2023-02-14T11:22:56.356Z</time>
      </trkpt>
      <trkpt lat="45.52184" lon="4.9917">
        <ele>290.7</ele>
        <time>2023-02-14T11:22:57.923Z</time>
      </trkpt>
      <trkpt lat="45.5216" lon="4.99151">
        <ele>289.5</ele>
        <time>2023-02-14T11:22:59.348Z</time>
      </trkpt>
      <trkpt lat="45.52111" lon="4.99106">
        <ele>287.2</ele>
        <time>2023-02-14T11:23:02.439Z</time>
      </trkpt>
      <trkpt lat="45.52073" lon="4.99072">
        <ele>285.5</ele>
        <time>2023-02-14T11:23:04.767Z</time>
      </trkpt>
      <trkpt lat="45.52026" lon="4.99027">
        <ele>282.8</ele>
        <time>2023-02-14T11:23:07.770Z</time>
      </trkpt>
      <trkpt lat="45.52004" lon="4.98994">
        <ele>280.8</ele>
        <time>2023-02-14T11:23:09.420Z</time>
      </trkpt>
      <trkpt lat="45.51971" lon="4.98955">
        <ele>279</ele>
        <time>2023-02-14T11:23:11.688Z</time>
      </trkpt>
      <trkpt lat="45.51915" lon="4.98898">
        <ele>277.4</ele>
        <time>2023-02-14T11:23:15.275Z</time>
      </trkpt>
      <trkpt lat="45.5188" lon="4.98858">
        <ele>277.5</ele>
        <time>2023-02-14T11:23:17.651Z</time>
      </trkpt>
      <trkpt lat="45.51862" lon="4.98838">
        <ele>277.2</ele>
        <time>2023-02-14T11:23:18.835Z</time>
      </trkpt>
      <trkpt lat="45.51839" lon="4.98797">
        <ele>276.9</ele>
        <time>2023-02-14T11:23:20.787Z</time>
      </trkpt>
      <trkpt lat="45.51804" lon="4.98732">
        <ele>276</ele>
        <time>2023-02-14T11:23:23.798Z</time>
      </trkpt>
      <trkpt lat="45.51795" lon="4.98677">
        <ele>273.8</ele>
        <time>2023-02-14T11:23:25.877Z</time>
      </trkpt>
      <trkpt lat="45.51793" lon="4.98613">
        <ele>271.9</ele>
        <time>2023-02-14T11:23:28.215Z</time>
      </trkpt>
      <trkpt lat="45.51782" lon="4.98544">
        <ele>270</ele>
        <time>2023-02-14T11:23:30.833Z</time>
      </trkpt>
      <trkpt lat="45.5177" lon="4.98474">
        <ele>267.9</ele>
        <time>2023-02-14T11:23:33.478Z</time>
      </trkpt>
      <trkpt lat="45.51761" lon="4.98439">
        <ele>266.8</ele>
        <time>2023-02-14T11:23:34.855Z</time>
      </trkpt>
      <trkpt lat="45.51741" lon="4.98413">
        <ele>266</ele>
        <time>2023-02-14T11:23:36.280Z</time>
      </trkpt>
      <trkpt lat="45.51719" lon="4.98367">
        <ele>264.7</ele>
        <time>2023-02-14T11:23:38.329Z</time>
      </trkpt>
      <trkpt lat="45.51703" lon="4.98296">
        <ele>261.5</ele>
        <time>2023-02-14T11:23:41.071Z</time>
      </trkpt>
      <trkpt lat="45.51693" lon="4.98238">
        <ele>258.2</ele>
        <time>2023-02-14T11:23:43.286Z</time>
      </trkpt>
      <trkpt lat="45.51673" lon="4.98208">
        <ele>256.8</ele>
        <time>2023-02-14T11:23:44.785Z</time>
      </trkpt>
      <trkpt lat="45.51627" lon="4.98157">
        <ele>252.3</ele>
        <time>2023-02-14T11:23:47.838Z</time>
      </trkpt>
      <trkpt lat="45.51568" lon="4.98143">
        <ele>245.3</ele>
        <time>2023-02-14T11:23:51.047Z</time>
      </trkpt>
      <trkpt lat="45.51521" lon="4.98132">
        <ele>241.7</ele>
        <time>2023-02-14T11:23:53.514Z</time>
      </trkpt>
      <trkpt lat="45.51489" lon="4.98116">
        <ele>239.3</ele>
        <time>2023-02-14T11:23:55.295Z</time>
      </trkpt>
      <trkpt lat="45.51456" lon="4.981">
        <ele>237.7</ele>
        <time>2023-02-14T11:23:57.137Z</time>
      </trkpt>
      <trkpt lat="45.51453" lon="4.98031">
        <ele>235.8</ele>
        <time>2023-02-14T11:23:59.705Z</time>
      </trkpt>
      <trkpt lat="45.51455" lon="4.97945">
        <ele>234.3</ele>
        <time>2023-02-14T11:24:02.877Z</time>
      </trkpt>
      <trkpt lat="45.51456" lon="4.9789">
        <ele>233.8</ele>
        <time>2023-02-14T11:24:04.887Z</time>
      </trkpt>
      <trkpt lat="45.5146" lon="4.97807">
        <ele>233</ele>
        <time>2023-02-14T11:24:07.955Z</time>
      </trkpt>
      <trkpt lat="45.51468" lon="4.97758">
        <ele>232.2</ele>
        <time>2023-02-14T11:24:09.782Z</time>
      </trkpt>
      <trkpt lat="45.5147" lon="4.97672">
        <ele>231.1</ele>
        <time>2023-02-14T11:24:12.954Z</time>
      </trkpt>
      <trkpt lat="45.51479" lon="4.97618">
        <ele>230.3</ele>
        <time>2023-02-14T11:24:15.007Z</time>
      </trkpt>
      <trkpt lat="45.51493" lon="4.97541">
        <ele>229.9</ele>
        <time>2023-02-14T11:24:17.932Z</time>
      </trkpt>
      <trkpt lat="45.51488" lon="4.97485">
        <ele>229.9</ele>
        <time>2023-02-14T11:24:20.000Z</time>
      </trkpt>
      <trkpt lat="45.51444" lon="4.97467">
        <ele>229.3</ele>
        <time>2023-02-14T11:25:24.897Z</time>
      </trkpt>
      <trkpt lat="45.514" lon="4.97465">
        <ele>228.7</ele>
        <time>2023-02-14T11:26:28.416Z</time>
      </trkpt>
      <trkpt lat="45.51341" lon="4.97453">
        <ele>227.6</ele>
        <time>2023-02-14T11:27:52.571Z</time>
      </trkpt>
      <trkpt lat="45.51295" lon="4.97451">
        <ele>227.3</ele>
        <time>2023-02-14T11:28:58.939Z</time>
      </trkpt>
      <trkpt lat="45.51225" lon="4.97433">
        <ele>225.9</ele>
        <time>2023-02-14T11:30:40.000Z</time>
      </trkpt>
      <trkpt lat="45.51164" lon="4.97428">
        <ele>224.1</ele>
        <time>2023-02-14T11:30:41.159Z</time>
      </trkpt>
      <trkpt lat="45.51114" lon="4.97417">
        <ele>224</ele>
        <time>2023-02-14T11:30:42.118Z</time>
      </trkpt>
      <trkpt lat="45.5105" lon="4.97399">
        <ele>225.9</ele>
        <time>2023-02-14T11:30:43.354Z</time>
      </trkpt>
      <trkpt lat="45.51015" lon="4.97389">
        <ele>227.8</ele>
        <time>2023-02-14T11:30:44.012Z</time>
      </trkpt>
      <trkpt lat="45.50987" lon="4.97379">
        <ele>228.8</ele>
        <time>2023-02-14T11:30:44.555Z</time>
      </trkpt>
      <trkpt lat="45.50933" lon="4.97356">
        <ele>229.7</ele>
        <time>2023-02-14T11:30:45.618Z</time>
      </trkpt>
      <trkpt lat="45.50903" lon="4.97352">
        <ele>230.2</ele>
        <time>2023-02-14T11:30:46.187Z</time>
      </trkpt>
      <trkpt lat="45.50869" lon="4.97339">
        <ele>230.6</ele>
        <time>2023-02-14T11:30:46.852Z</time>
      </trkpt>
      <trkpt lat="45.50829" lon="4.97328">
        <ele>231</ele>
        <time>2023-02-14T11:30:47.618Z</time>
      </trkpt>
      <trkpt lat="45.50793" lon="4.97318">
        <ele>231.2</ele>
        <time>2023-02-14T11:30:48.310Z</time>
      </trkpt>
      <trkpt lat="45.50744" lon="4.97307">
        <ele>231.2</ele>
        <time>2023-02-14T11:30:49.222Z</time>
      </trkpt>
      <trkpt lat="45.50698" lon="4.97302">
        <ele>230.2</ele>
        <time>2023-02-14T11:30:50.090Z</time>
      </trkpt>
      <trkpt lat="45.5067" lon="4.973">
        <ele>229.7</ele>
        <time>2023-02-14T11:30:50.622Z</time>
      </trkpt>
      <trkpt lat="45.50619" lon="4.97312">
        <ele>230.3</ele>
        <time>2023-02-14T11:30:51.580Z</time>
      </trkpt>
      <trkpt lat="45.50585" lon="4.97311">
        <ele>230.7</ele>
        <time>2023-02-14T11:30:52.215Z</time>
      </trkpt>
      <trkpt lat="45.50543" lon="4.97307">
        <ele>231</ele>
        <time>2023-02-14T11:30:53.000Z</time>
      </trkpt>
      <trkpt lat="45.50477" lon="4.97326">
        <ele>232.1</ele>
        <time>2023-02-14T11:30:54.396Z</time>
      </trkpt>
      <trkpt lat="45.50433" lon="4.97335">
        <ele>232.8</ele>
        <time>2023-02-14T11:30:55.339Z</time>
      </trkpt>
      <trkpt lat="45.50406" lon="4.9734">
        <ele>233.4</ele>
        <time>2023-02-14T11:30:55.894Z</time>
      </trkpt>
      <trkpt lat="45.50358" lon="4.9734">
        <ele>235</ele>
        <time>2023-02-14T11:30:56.907Z</time>
      </trkpt>
      <trkpt lat="45.50301" lon="4.97343">
        <ele>235</ele>
        <time>2023-02-14T11:30:58.091Z</time>
      </trkpt>
      <trkpt lat="45.50236" lon="4.97333">
        <ele>234</ele>
        <time>2023-02-14T11:30:59.452Z</time>
      </trkpt>
      <trkpt lat="45.5025" lon="4.9743">
        <ele>234</ele>
        <time>2023-02-14T11:31:00.902Z</time>
      </trkpt>
      <trkpt lat="45.50268" lon="4.97529">
        <ele>234.8</ele>
        <time>2023-02-14T11:31:02.392Z</time>
      </trkpt>
      <trkpt lat="45.50283" lon="4.97595">
        <ele>235.8</ele>
        <time>2023-02-14T11:31:03.417Z</time>
      </trkpt>
      <trkpt lat="45.50291" lon="4.97691">
        <ele>237.2</ele>
        <time>2023-02-14T11:31:04.820Z</time>
      </trkpt>
      <trkpt lat="45.50305" lon="4.9776">
        <ele>237.6</ele>
        <time>2023-02-14T11:31:05.884Z</time>
      </trkpt>
      <trkpt lat="45.50319" lon="4.97879">
        <ele>237.2</ele>
        <time>2023-02-14T11:31:07.640Z</time>
      </trkpt>
      <trkpt lat="45.50321" lon="4.97933">
        <ele>237.3</ele>
        <time>2023-02-14T11:31:08.444Z</time>
      </trkpt>
      <trkpt lat="45.50325" lon="4.98023">
        <ele>238.3</ele>
        <time>2023-02-14T11:31:09.753Z</time>
      </trkpt>
      <trkpt lat="45.50328" lon="4.98075">
        <ele>239</ele>
        <time>2023-02-14T11:31:10.515Z</time>
      </trkpt>
      <trkpt lat="45.50332" lon="4.98155">
        <ele>239</ele>
        <time>2023-02-14T11:31:11.699Z</time>
      </trkpt>
      <trkpt lat="45.50325" lon="4.98244">
        <ele>239.2</ele>
        <time>2023-02-14T11:31:13.000Z</time>
      </trkpt>
      <trkpt lat="45.50263" lon="4.9825">
        <ele>240.7</ele>
        <time>2023-02-14T11:31:17.988Z</time>
      </trkpt>
      <trkpt lat="45.50225" lon="4.98254">
        <ele>241</ele>
        <time>2023-02-14T11:31:21.093Z</time>
      </trkpt>
      <trkpt lat="45.50164" lon="4.98251">
        <ele>241.1</ele>
        <time>2023-02-14T11:31:25.972Z</time>
      </trkpt>
      <trkpt lat="45.50118" lon="4.98249">
        <ele>242.7</ele>
        <time>2023-02-14T11:31:29.712Z</time>
      </trkpt>
      <trkpt lat="45.50076" lon="4.98246">
        <ele>244.8</ele>
        <time>2023-02-14T11:31:33.129Z</time>
      </trkpt>
      <trkpt lat="45.50031" lon="4.98244">
        <ele>249.6</ele>
        <time>2023-02-14T11:31:36.722Z</time>
      </trkpt>
      <trkpt lat="45.49955" lon="4.98218">
        <ele>255.9</ele>
        <time>2023-02-14T11:31:43.050Z</time>
      </trkpt>
      <trkpt lat="45.49907" lon="4.98203">
        <ele>257.8</ele>
        <time>2023-02-14T11:31:47.000Z</time>
      </trkpt>
      <trkpt lat="45.4989" lon="4.98321">
        <ele>258.8</ele>
        <time>2023-02-14T11:32:10.326Z</time>
      </trkpt>
      <trkpt lat="45.49861" lon="4.98417">
        <ele>259.7</ele>
        <time>2023-02-14T11:32:30.659Z</time>
      </trkpt>
      <trkpt lat="45.4983" lon="4.98537">
        <ele>260.4</ele>
        <time>2023-02-14T11:32:55.384Z</time>
      </trkpt>
      <trkpt lat="45.49812" lon="4.98607">
        <ele>261.1</ele>
        <time>2023-02-14T11:33:10.043Z</time>
      </trkpt>
      <trkpt lat="45.49782" lon="4.98695">
        <ele>261.3</ele>
        <time>2023-02-14T11:33:29.048Z</time>
      </trkpt>
      <trkpt lat="45.4975" lon="4.98765">
        <ele>262.7</ele>
        <time>2023-02-14T11:33:45.342Z</time>
      </trkpt>
      <trkpt lat="45.49711" lon="4.9883">
        <ele>261.9</ele>
        <time>2023-02-14T11:34:02.000Z</time>
      </trkpt>
      <trkpt lat="45.49667" lon="4.98925">
        <ele>262.4</ele>
        <time>2023-02-14T11:34:02.338Z</time>
      </trkpt>
      <trkpt lat="45.49629" lon="4.98992">
        <ele>260</ele>
        <time>2023-02-14T11:34:02.596Z</time>
      </trkpt>
      <trkpt lat="45.49581" lon="4.99091">
        <ele>259.4</ele>
        <time>2023-02-14T11:34:02.956Z</time>
      </trkpt>
      <trkpt lat="45.49551" lon="4.99138">
        <ele>256.1</ele>
        <time>2023-02-14T11:34:03.145Z</time>
      </trkpt>
      <trkpt lat="45.49516" lon="4.99185">
        <ele>254.9</ele>
        <time>2023-02-14T11:34:03.352Z</time>
      </trkpt>
      <trkpt lat="45.49474" lon="4.99235">
        <ele>257.3</ele>
        <time>2023-02-14T11:34:03.584Z</time>
      </trkpt>
      <trkpt lat="45.49429" lon="4.99267">
        <ele>264.5</ele>
        <time>2023-02-14T11:34:03.801Z</time>
      </trkpt>
      <trkpt lat="45.49396" lon="4.99292">
        <ele>266.6</ele>
        <time>2023-02-14T11:34:03.959Z</time>
      </trkpt>
      <trkpt lat="45.49354" lon="4.99356">
        <ele>267.2</ele>
        <time>2023-02-14T11:34:04.221Z</time>
      </trkpt>
      <trkpt lat="45.49322" lon="4.99412">
        <ele>265.9</ele>
        <time>2023-02-14T11:34:04.436Z</time>
      </trkpt>
      <trkpt lat="45.49268" lon="4.99469">
        <ele>262.4</ele>
        <time>2023-02-14T11:34:04.724Z</time>
      </trkpt>
      <trkpt lat="45.49191" lon="4.99561">
        <ele>261.4</ele>
        <time>2023-02-14T11:34:05.150Z</time>
      </trkpt>
      <trkpt lat="45.4916" lon="4.99605">
        <ele>260.5</ele>
        <time>2023-02-14T11:34:05.338Z</time>
      </trkpt>
      <trkpt lat="45.49116" lon="4.99655">
        <ele>264.2</ele>
        <time>2023-02-14T11:34:05.577Z</time>
      </trkpt>
      <trkpt lat="45.49087" lon="4.99705">
        <ele>266.7</ele>
        <time>2023-02-14T11:34:05.773Z</time>
      </trkpt>
      <trkpt lat="45.49046" lon="4.99753">
        <ele>266.2</ele>
        <time>2023-02-14T11:34:06.000Z</time>
      </trkpt>
      <trkpt lat="45.49068" lon="4.9981">
        <ele>260.8</ele>
        <time>2023-02-14T11:34:24.805Z</time>
      </trkpt>
      <trkpt lat="45.49036" lon="4.99881">
        <ele>259.3</ele>
        <time>2023-02-14T11:34:48.701Z</time>
      </trkpt>
      <trkpt lat="45.48955" lon="4.99989">
        <ele>261.9</ele>
        <time>2023-02-14T11:35:33.956Z</time>
      </trkpt>
      <trkpt lat="45.4884" lon="5.00156">
        <ele>261.2</ele>
        <time>2023-02-14T11:36:40.717Z</time>
      </trkpt>
      <trkpt lat="45.48818" lon="5.00212">
        <ele>262.2</ele>
        <time>2023-02-14T11:36:59.044Z</time>
      </trkpt>
      <trkpt lat="45.48793" lon="5.00268">
        <ele>262.5</ele>
        <time>2023-02-14T11:37:18.165Z</time>
      </trkpt>
      <trkpt lat="45.48756" lon="5.00364">
        <ele>260.8</ele>
        <time>2023-02-14T11:37:49.321Z</time>
      </trkpt>
      <trkpt lat="45.48736" lon="5.00427">
        <ele>262.1</ele>
        <time>2023-02-14T11:38:08.802Z</time>
      </trkpt>
      <trkpt lat="45.48713" lon="5.00451">
        <ele>263.2</ele>
        <time>2023-02-14T11:38:20.475Z</time>
      </trkpt>
      <trkpt lat="45.48657" lon="5.00516">
        <ele>263.8</ele>
        <time>2023-02-14T11:38:50.000Z</time>
      </trkpt>
      <trkpt lat="45.48633" lon="5.00582">
        <ele>262.9</ele>
        <time>2023-02-14T11:38:52.580Z</time>
      </trkpt>
      <trkpt lat="45.48627" lon="5.00691">
        <ele>262.6</ele>
        <time>2023-02-14T11:38:56.365Z</time>
      </trkpt>
      <trkpt lat="45.4861" lon="5.00797">
        <ele>263.1</ele>
        <time>2023-02-14T11:39:00.111Z</time>
      </trkpt>
      <trkpt lat="45.48604" lon="5.00883">
        <ele>263.5</ele>
        <time>2023-02-14T11:39:03.102Z</time>
      </trkpt>
      <trkpt lat="45.48586" lon="5.00954">
        <ele>263.4</ele>
        <time>2023-02-14T11:39:05.713Z</time>
      </trkpt>
      <trkpt lat="45.48575" lon="5.01016">
        <ele>265.3</ele>
        <time>2023-02-14T11:39:07.959Z</time>
      </trkpt>
      <trkpt lat="45.48551" lon="5.0109">
        <ele>266.7</ele>
        <time>2023-02-14T11:39:10.769Z</time>
      </trkpt>
      <trkpt lat="45.48527" lon="5.01138">
        <ele>267.4</ele>
        <time>2023-02-14T11:39:12.785Z</time>
      </trkpt>
      <trkpt lat="45.48508" lon="5.01174">
        <ele>267.6</ele>
        <time>2023-02-14T11:39:14.360Z</time>
      </trkpt>
      <trkpt lat="45.48464" lon="5.01227">
        <ele>272.9</ele>
        <time>2023-02-14T11:39:17.192Z</time>
      </trkpt>
      <trkpt lat="45.4843" lon="5.01242">
        <ele>276.4</ele>
        <time>2023-02-14T11:39:19.000Z</time>
      </trkpt>
      <trkpt lat="45.48406" lon="5.0131">
        <ele>273.7</ele>
        <time>2023-02-14T11:39:41.344Z</time>
      </trkpt>
      <trkpt lat="45.48386" lon="5.01378">
        <ele>272.3</ele>
        <time>2023-02-14T11:40:02.926Z</time>
      </trkpt>
      <trkpt lat="45.48374" lon="5.01441">
        <ele>271.4</ele>
        <time>2023-02-14T11:40:21.922Z</time>
      </trkpt>
      <trkpt lat="45.48372" lon="5.01541">
        <ele>271.7</ele>
        <time>2023-02-14T11:40:51.371Z</time>
      </trkpt>
      <trkpt lat="45.48391" lon="5.01597">
        <ele>270.9</ele>
        <time>2023-02-14T11:41:09.448Z</time>
      </trkpt>
      <trkpt lat="45.48413" lon="5.01684">
        <ele>269.3</ele>
        <time>2023-02-14T11:41:36.651Z</time>
      </trkpt>
      <trkpt lat="45.48412" lon="5.01744">
        <ele>269.5</ele>
        <time>2023-02-14T11:41:54.320Z</time>
      </trkpt>
      <trkpt lat="45.48401" lon="5.01781">
        <ele>270.8</ele>
        <time>2023-02-14T11:42:06.059Z</time>
      </trkpt>
      <trkpt lat="45.48376" lon="5.0188">
        <ele>272.7</ele>
        <time>2023-02-14T11:42:36.946Z</time>
      </trkpt>
      <trkpt lat="45.48346" lon="5.01954">
        <ele>273.2</ele>
        <time>2023-02-14T11:43:01.813Z</time>
      </trkpt>
      <trkpt lat="45.48299" lon="5.02066">
        <ele>276.1</ele>
        <time>2023-02-14T11:43:40.272Z</time>
      </trkpt>
      <trkpt lat="45.48295" lon="5.02155">
        <ele>276.7</ele>
        <time>2023-02-14T11:44:06.368Z</time>
      </trkpt>
      <trkpt lat="45.48321" lon="5.02245">
        <ele>275.9</ele>
        <time>2023-02-14T11:44:35.003Z</time>
      </trkpt>
      <trkpt lat="45.48345" lon="5.02327">
        <ele>274.7</ele>
        <time>2023-02-14T11:45:00.993Z</time>
      </trkpt>
      <trkpt lat="45.48357" lon="5.02428">
        <ele>274.1</ele>
        <time>2023-02-14T11:45:31.029Z</time>
      </trkpt>
      <trkpt lat="45.48363" lon="5.02494">
        <ele>274.6</ele>
        <time>2023-02-14T11:45:50.666Z</time>
      </trkpt>
      <trkpt lat="45.48371" lon="5.02575">
        <ele>274.1</ele>
        <time>2023-02-14T11:46:14.600Z</time>
      </trkpt>
      <trkpt lat="45.48372" lon="5.02653">
        <ele>274.5</ele>
        <time>2023-02-14T11:46:37.333Z</time>
      </trkpt>
      <trkpt lat="45.48399" lon="5.02746">
        <ele>274.2</ele>
        <time>2023-02-14T11:47:07.000Z</time>
      </trkpt>
      <trkpt lat="45.48382" lon="5.02829">
        <ele>276.2</ele>
        <time>2023-02-14T11:47:08.157Z</time>
      </trkpt>
      <trkpt lat="45.48373" lon="5.0292">
        <ele>277.6</ele>
        <time>2023-02-14T11:47:09.397Z</time>
      </trkpt>
      <trkpt lat="45.48354" lon="5.02962">
        <ele>278.1</ele>
        <time>2023-02-14T11:47:10.073Z</time>
      </trkpt>
      <trkpt lat="45.48334" lon="5.03019">
        <ele>277.8</ele>
        <time>2023-02-14T11:47:10.919Z</time>
      </trkpt>
      <trkpt lat="45.48339" lon="5.03074">
        <ele>277.1</ele>
        <time>2023-02-14T11:47:11.661Z</time>
      </trkpt>
      <trkpt lat="45.48361" lon="5.03184">
        <ele>279.7</ele>
        <time>2023-02-14T11:47:13.200Z</time>
      </trkpt>
      <trkpt lat="45.48363" lon="5.03244">
        <ele>280.8</ele>
        <time>2023-02-14T11:47:14.014Z</time>
      </trkpt>
      <trkpt lat="45.48353" lon="5.03324">
        <ele>281.9</ele>
        <time>2023-02-14T11:47:15.105Z</time>
      </trkpt>
      <trkpt lat="45.48348" lon="5.03367">
        <ele>282.5</ele>
        <time>2023-02-14T11:47:15.689Z</time>
      </trkpt>
      <trkpt lat="45.48326" lon="5.03438">
        <ele>284.2</ele>
        <time>2023-02-14T11:47:16.729Z</time>
      </trkpt>
      <trkpt lat="45.48339" lon="5.03508">
        <ele>282.7</ele>
        <time>2023-02-14T11:47:17.694Z</time>
      </trkpt>
      <trkpt lat="45.48353" lon="5.03586">
        <ele>281.3</ele>
        <time>2023-02-14T11:47:18.781Z</time>
      </trkpt>
      <trkpt lat="45.48376" lon="5.03639">
        <ele>281.4</ele>
        <time>2023-02-14T11:47:19.616Z</time>
      </trkpt>
      <trkpt lat="45.48405" lon="5.03703">
        <ele>281</ele>
        <time>2023-02-14T11:47:20.644Z</time>
      </trkpt>
      <trkpt lat="45.48421" lon="5.03776">
        <ele>280.3</ele>
        <time>2023-02-14T11:47:21.669Z</time>
      </trkpt>
      <trkpt lat="45.4844" lon="5.03849">
        <ele>280.8</ele>
        <time>2023-02-14T11:47:22.709Z</time>
      </trkpt>
      <trkpt lat="45.48441" lon="5.03898">
        <ele>281.2</ele>
        <time>2023-02-14T11:47:23.366Z</time>
      </trkpt>
      <trkpt lat="45.48444" lon="5.03945">
        <ele>282.2</ele>
        <time>2023-02-14T11:47:24.000Z</time>
      </trkpt>
      <trkpt lat="45.48453" lon="5.04053">
        <ele>284.2</ele>
        <time>2023-02-14T11:48:50.134Z</time>
      </trkpt>
      <trkpt lat="45.48453" lon="5.04128">
        <ele>284</ele>
        <time>2023-02-14T11:49:48.804Z</time>
      </trkpt>
      <trkpt lat="45.48449" lon="5.04223">
        <ele>284.5</ele>
        <time>2023-02-14T11:51:03.262Z</time>
      </trkpt>
      <trkpt lat="45.48441" lon="5.04294">
        <ele>286.7</ele>
        <time>2023-02-14T11:52:00.110Z</time>
      </trkpt>
      <trkpt lat="45.4844" lon="5.04354">
        <ele>288.6</ele>
        <time>2023-02-14T11:52:47.512Z</time>
      </trkpt>
      <trkpt lat="45.48454" lon="5.04441">
        <ele>290.1</ele>
        <time>2023-02-14T11:53:57.567Z</time>
      </trkpt>
      <trkpt lat="45.48484" lon="5.04517">
        <ele>290.1</ele>
        <time>2023-02-14T11:55:06.476Z</time>
      </trkpt>
      <trkpt lat="45.48507" lon="5.04596">
        <ele>288.1</ele>
        <time>2023-02-14T11:56:13.186Z</time>
      </trkpt>
      <trkpt lat="45.48515" lon="5.04654">
        <ele>288.8</ele>
        <time>2023-02-14T11:56:59.679Z</time>
      </trkpt>
      <trkpt lat="45.48511" lon="5.04763">
        <ele>288.9</ele>
        <time>2023-02-14T11:58:25.421Z</time>
      </trkpt>
      <trkpt lat="45.48524" lon="5.04813">
        <ele>289.1</ele>
        <time>2023-02-14T11:59:06.924Z</time>
      </trkpt>
      <trkpt lat="45.48536" lon="5.04885">
        <ele>290.1</ele>
        <time>2023-02-14T12:00:05.475Z</time>
      </trkpt>
      <trkpt lat="45.4856" lon="5.04934">
        <ele>296</ele>
        <time>2023-02-14T12:00:53.000Z</time>
      </trkpt>
      <trkpt lat="45.48558" lon="5.04932">
        <ele>296</ele>
        <time>2023-02-14T12:00:54.000Z</time>
      </trkpt>
      <trkpt lat="45.48555" lon="5.04934">
        <ele>296</ele>
        <time>2023-02-14T12:00:54.000Z</time>
      </trkpt>
      <trkpt lat="45.48556" lon="5.04938">
        <ele>297</ele>
        <time>2023-02-14T12:00:55.000Z</time>
      </trkpt>
      <trkpt lat="45.48569" lon="5.04938">
        <ele>294</ele>
        <time>2023-02-14T12:00:57.000Z</time>
      </trkpt>
      <trkpt lat="45.48592" lon="5.04927">
        <ele>291</ele>
        <time>2023-02-14T12:01:01.000Z</time>
      </trkpt>
      <trkpt lat="45.48706" lon="5.04882">
        <ele>290.1</ele>
        <time>2023-02-14T12:01:22.079Z</time>
      </trkpt>
      <trkpt lat="45.48781" lon="5.04854">
        <ele>289.3</ele>
        <time>2023-02-14T12:01:36.003Z</time>
      </trkpt>
      <trkpt lat="45.48847" lon="5.04835">
        <ele>289</ele>
        <time>2023-02-14T12:01:48.000Z</time>
      </trkpt>
      <trkpt lat="45.48904" lon="5.04805">
        <ele>289.1</ele>
        <time>2023-02-14T12:01:58.735Z</time>
      </trkpt>
      <trkpt lat="45.48979" lon="5.04786">
        <ele>289.3</ele>
        <time>2023-02-14T12:02:12.339Z</time>
      </trkpt>
      <trkpt lat="45.49034" lon="5.0476">
        <ele>288.7</ele>
        <time>2023-02-14T12:02:22.687Z</time>
      </trkpt>
      <trkpt lat="45.49092" lon="5.04758">
        <ele>289</ele>
        <time>2023-02-14T12:02:33.000Z</time>
      </trkpt>
      <trkpt lat="45.49144" lon="5.04734">
        <ele>289.2</ele>
        <time>2023-02-14T12:02:42.580Z</time>
      </trkpt>
      <trkpt lat="45.49217" lon="5.04717">
        <ele>288.9</ele>
        <time>2023-02-14T12:02:55.583Z</time>
      </trkpt>
      <trkpt lat="45.49268" lon="5.04691">
        <ele>288.1</ele>
        <time>2023-02-14T12:03:05.125Z</time>
      </trkpt>
      <trkpt lat="45.49335" lon="5.04676">
        <ele>287</ele>
        <time>2023-02-14T12:03:17.000Z</time>
      </trkpt>
      <trkpt lat="45.49413" lon="5.04626">
        <ele>290</ele>
        <time>2023-02-14T12:03:32.385Z</time>
      </trkpt>
      <trkpt lat="45.49466" lon="5.04613">
        <ele>290</ele>
        <time>2023-02-14T12:03:42.000Z</time>
      </trkpt>
      <trkpt lat="45.49517" lon="5.04593">
        <ele>290</ele>
        <time>2023-02-14T12:03:51.000Z</time>
      </trkpt>
      <trkpt lat="45.49603" lon="5.04541">
        <ele>289.5</ele>
        <time>2023-02-14T12:04:07.833Z</time>
      </trkpt>
      <trkpt lat="45.49679" lon="5.04509">
        <ele>290</ele>
        <time>2023-02-14T12:04:22.000Z</time>
      </trkpt>
      <trkpt lat="45.49684" lon="5.0451">
        <ele>290</ele>
        <time>2023-02-14T12:04:23.000Z</time>
      </trkpt>
      <trkpt lat="45.4969" lon="5.04516">
        <ele>290</ele>
        <time>2023-02-14T12:04:24.000Z</time>
      </trkpt>
      <trkpt lat="45.49711" lon="5.04566">
        <ele>290</ele>
        <time>2023-02-14T12:04:31.000Z</time>
      </trkpt>
      <trkpt lat="45.49744" lon="5.04668">
        <ele>291.9</ele>
        <time>2023-02-14T12:04:45.131Z</time>
      </trkpt>
      <trkpt lat="45.49788" lon="5.04762">
        <ele>292.4</ele>
        <time>2023-02-14T12:04:59.379Z</time>
      </trkpt>
      <trkpt lat="45.49842" lon="5.04907">
        <ele>294</ele>
        <time>2023-02-14T12:05:20.000Z</time>
      </trkpt>
      <trkpt lat="45.49883" lon="5.05023">
        <ele>294.1</ele>
        <time>2023-02-14T12:05:36.112Z</time>
      </trkpt>
      <trkpt lat="45.49928" lon="5.05169">
        <ele>294</ele>
        <time>2023-02-14T12:05:56.000Z</time>
      </trkpt>
      <trkpt lat="45.49952" lon="5.05257">
        <ele>296</ele>
        <time>2023-02-14T12:06:08.000Z</time>
      </trkpt>
      <trkpt lat="45.49961" lon="5.05285">
        <ele>296</ele>
        <time>2023-02-14T12:06:20.000Z</time>
      </trkpt>
      <trkpt lat="45.50034" lon="5.0522">
        <ele>295.7</ele>
        <time>2023-02-14T12:06:39.000Z</time>
      </trkpt>
      <trkpt lat="45.5012" lon="5.05161">
        <ele>298</ele>
        <time>2023-02-14T12:06:51.000Z</time>
      </trkpt>
      <trkpt lat="45.50168" lon="5.05112">
        <ele>301.1</ele>
        <time>2023-02-14T12:06:52.619Z</time>
      </trkpt>
      <trkpt lat="45.50239" lon="5.05063">
        <ele>312.6</ele>
        <time>2023-02-14T12:06:54.817Z</time>
      </trkpt>
      <trkpt lat="45.50278" lon="5.05146">
        <ele>316.9</ele>
        <time>2023-02-14T12:06:56.723Z</time>
      </trkpt>
      <trkpt lat="45.503" lon="5.05222">
        <ele>320.5</ele>
        <time>2023-02-14T12:06:58.308Z</time>
      </trkpt>
      <trkpt lat="45.5032" lon="5.0532">
        <ele>319.3</ele>
        <time>2023-02-14T12:07:00.283Z</time>
      </trkpt>
      <trkpt lat="45.5034" lon="5.05405">
        <ele>316.1</ele>
        <time>2023-02-14T12:07:02.000Z</time>
      </trkpt>
      <trkpt lat="45.50362" lon="5.05498">
        <ele>312.1</ele>
        <time>2023-02-14T12:07:07.294Z</time>
      </trkpt>
      <trkpt lat="45.50388" lon="5.05617">
        <ele>310</ele>
        <time>2023-02-14T12:07:14.000Z</time>
      </trkpt>
      <trkpt lat="45.50422" lon="5.05713">
        <ele>308.9</ele>
        <time>2023-02-14T12:07:24.000Z</time>
      </trkpt>
      <trkpt lat="45.50458" lon="5.05813">
        <ele>309.9</ele>
        <time>2023-02-14T12:07:36.640Z</time>
      </trkpt>
      <trkpt lat="45.50488" lon="5.05883">
        <ele>309.8</ele>
        <time>2023-02-14T12:07:46.000Z</time>
      </trkpt>
      <trkpt lat="45.50531" lon="5.05963">
        <ele>309.4</ele>
        <time>2023-02-14T12:07:56.563Z</time>
      </trkpt>
      <trkpt lat="45.50568" lon="5.06019">
        <ele>309.2</ele>
        <time>2023-02-14T12:08:04.718Z</time>
      </trkpt>
      <trkpt lat="45.50599" lon="5.06078">
        <ele>307.6</ele>
        <time>2023-02-14T12:08:12.492Z</time>
      </trkpt>
      <trkpt lat="45.50633" lon="5.06149">
        <ele>305.4</ele>
        <time>2023-02-14T12:08:21.598Z</time>
      </trkpt>
      <trkpt lat="45.50664" lon="5.06208">
        <ele>304</ele>
        <time>2023-02-14T12:08:29.368Z</time>
      </trkpt>
      <trkpt lat="45.50699" lon="5.06265">
        <ele>305</ele>
        <time>2023-02-14T12:08:37.311Z</time>
      </trkpt>
      <trkpt lat="45.50732" lon="5.06318">
        <ele>306</ele>
        <time>2023-02-14T12:08:44.825Z</time>
      </trkpt>
      <trkpt lat="45.50796" lon="5.06358">
        <ele>307.1</ele>
        <time>2023-02-14T12:08:55.325Z</time>
      </trkpt>
      <trkpt lat="45.50824" lon="5.06374">
        <ele>307.4</ele>
        <time>2023-02-14T12:08:59.842Z</time>
      </trkpt>
      <trkpt lat="45.50849" lon="5.06419">
        <ele>307.4</ele>
        <time>2023-02-14T12:09:05.863Z</time>
      </trkpt>
      <trkpt lat="45.50887" lon="5.06443">
        <ele>308.3</ele>
        <time>2023-02-14T12:09:12.125Z</time>
      </trkpt>
      <trkpt lat="45.50956" lon="5.06329">
        <ele>314.5</ele>
        <time>2023-02-14T12:09:28.115Z</time>
      </trkpt>
      <trkpt lat="45.51015" lon="5.06343">
        <ele>317.6</ele>
        <time>2023-02-14T12:09:37.025Z</time>
      </trkpt>
      <trkpt lat="45.51065" lon="5.06372">
        <ele>319.5</ele>
        <time>2023-02-14T12:09:45.103Z</time>
      </trkpt>
      <trkpt lat="45.5112" lon="5.0642">
        <ele>318.7</ele>
        <time>2023-02-14T12:09:54.897Z</time>
      </trkpt>
      <trkpt lat="45.5118" lon="5.06349">
        <ele>329.6</ele>
        <time>2023-02-14T12:10:06.815Z</time>
      </trkpt>
      <trkpt lat="45.51242" lon="5.06403">
        <ele>329.7</ele>
        <time>2023-02-14T12:10:17.703Z</time>
      </trkpt>
      <trkpt lat="45.51332" lon="5.06506">
        <ele>328.3</ele>
        <time>2023-02-14T12:10:35.068Z</time>
      </trkpt>
      <trkpt lat="45.51377" lon="5.06554">
        <ele>325.9</ele>
        <time>2023-02-14T12:10:43.584Z</time>
      </trkpt>
      <trkpt lat="45.51393" lon="5.06592">
        <ele>322.5</ele>
        <time>2023-02-14T12:10:48.236Z</time>
      </trkpt>
      <trkpt lat="45.51398" lon="5.06644">
        <ele>320.4</ele>
        <time>2023-02-14T12:10:53.771Z</time>
      </trkpt>
      <trkpt lat="45.51448" lon="5.06667">
        <ele>320.4</ele>
        <time>2023-02-14T12:11:01.663Z</time>
      </trkpt>
      <trkpt lat="45.51514" lon="5.06678">
        <ele>320.7</ele>
        <time>2023-02-14T12:11:11.737Z</time>
      </trkpt>
      <trkpt lat="45.51558" lon="5.06698">
        <ele>320.6</ele>
        <time>2023-02-14T12:11:18.667Z</time>
      </trkpt>
      <trkpt lat="45.5156" lon="5.06776">
        <ele>318.1</ele>
        <time>2023-02-14T12:11:26.878Z</time>
      </trkpt>
      <trkpt lat="45.51539" lon="5.06884">
        <ele>315.8</ele>
        <time>2023-02-14T12:11:38.719Z</time>
      </trkpt>
      <trkpt lat="45.51506" lon="5.07003">
        <ele>316.1</ele>
        <time>2023-02-14T12:11:52.236Z</time>
      </trkpt>
      <trkpt lat="45.51481" lon="5.07122">
        <ele>319.4</ele>
        <time>2023-02-14T12:12:05.405Z</time>
      </trkpt>
      <trkpt lat="45.5146" lon="5.07222">
        <ele>321.5</ele>
        <time>2023-02-14T12:12:16.360Z</time>
      </trkpt>
      <trkpt lat="45.51435" lon="5.07273">
        <ele>321.3</ele>
        <time>2023-02-14T12:12:22.923Z</time>
      </trkpt>
      <trkpt lat="45.51448" lon="5.07306">
        <ele>319</ele>
        <time>2023-02-14T12:12:27.000Z</time>
      </trkpt>
      <trkpt lat="45.51583" lon="5.07343">
        <ele>324</ele>
        <time>2023-02-14T12:12:51.000Z</time>
      </trkpt>
      <trkpt lat="45.51641" lon="5.07353">
        <ele>324</ele>
        <time>2023-02-14T12:13:02.000Z</time>
      </trkpt>
      <trkpt lat="45.51694" lon="5.07349">
        <ele>324</ele>
        <time>2023-02-14T12:13:11.000Z</time>
      </trkpt>
      <trkpt lat="45.51745" lon="5.0735">
        <ele>324</ele>
        <time>2023-02-14T12:13:20.000Z</time>
      </trkpt>
      <trkpt lat="45.51789" lon="5.07362">
        <ele>325</ele>
        <time>2023-02-14T12:13:28.000Z</time>
      </trkpt>
      <trkpt lat="45.51817" lon="5.07376">
        <ele>325</ele>
        <time>2023-02-14T12:13:33.000Z</time>
      </trkpt>
      <trkpt lat="45.51997" lon="5.0748">
        <ele>326</ele>
        <time>2023-02-14T12:14:08.000Z</time>
      </trkpt>
      <trkpt lat="45.52211" lon="5.07619">
        <ele>329</ele>
        <time>2023-02-14T12:14:50.000Z</time>
      </trkpt>
      <trkpt lat="45.52266" lon="5.07658">
        <ele>331</ele>
        <time>2023-02-14T12:15:01.000Z</time>
      </trkpt>
      <trkpt lat="45.52294" lon="5.07696">
        <ele>332</ele>
        <time>2023-02-14T12:15:08.000Z</time>
      </trkpt>
      <trkpt lat="45.52307" lon="5.07724">
        <ele>332</ele>
        <time>2023-02-14T12:15:12.000Z</time>
      </trkpt>
      <trkpt lat="45.52312" lon="5.07744">
        <ele>333</ele>
        <time>2023-02-14T12:15:14.000Z</time>
      </trkpt>
      <trkpt lat="45.52329" lon="5.07905">
        <ele>335</ele>
        <time>2023-02-14T12:15:35.000Z</time>
      </trkpt>
      <trkpt lat="45.52341" lon="5.07979">
        <ele>335</ele>
        <time>2023-02-14T12:15:44.000Z</time>
      </trkpt>
      <trkpt lat="45.52384" lon="5.0818">
        <ele>336</ele>
        <time>2023-02-14T12:16:10.000Z</time>
      </trkpt>
      <trkpt lat="45.52392" lon="5.08209">
        <ele>337</ele>
        <time>2023-02-14T12:16:14.000Z</time>
      </trkpt>
      <trkpt lat="45.5243" lon="5.08288">
        <ele>338</ele>
        <time>2023-02-14T12:16:26.000Z</time>
      </trkpt>
      <trkpt lat="45.5245" lon="5.08338">
        <ele>338</ele>
        <time>2023-02-14T12:16:33.000Z</time>
      </trkpt>
      <trkpt lat="45.52463" lon="5.08387">
        <ele>339</ele>
        <time>2023-02-14T12:16:40.000Z</time>
      </trkpt>
      <trkpt lat="45.52471" lon="5.08403">
        <ele>340</ele>
        <time>2023-02-14T12:16:42.000Z</time>
      </trkpt>
      <trkpt lat="45.52477" lon="5.08436">
        <ele>341</ele>
        <time>2023-02-14T12:16:47.000Z</time>
      </trkpt>
      <trkpt lat="45.52503" lon="5.08492">
        <ele>342</ele>
        <time>2023-02-14T12:16:55.000Z</time>
      </trkpt>
      <trkpt lat="45.52522" lon="5.08559">
        <ele>345</ele>
        <time>2023-02-14T12:17:04.000Z</time>
      </trkpt>
      <trkpt lat="45.52561" lon="5.08673">
        <ele>350</ele>
        <time>2023-02-14T12:17:20.000Z</time>
      </trkpt>
      <trkpt lat="45.52591" lon="5.08786">
        <ele>352</ele>
        <time>2023-02-14T12:17:35.000Z</time>
      </trkpt>
      <trkpt lat="45.52603" lon="5.08805">
        <ele>352</ele>
        <time>2023-02-14T12:17:38.000Z</time>
      </trkpt>
      <trkpt lat="45.52616" lon="5.08816">
        <ele>351</ele>
        <time>2023-02-14T12:17:41.000Z</time>
      </trkpt>
      <trkpt lat="45.52697" lon="5.08867">
        <ele>347</ele>
        <time>2023-02-14T12:17:56.000Z</time>
      </trkpt>
      <trkpt lat="45.52796" lon="5.08908">
        <ele>344</ele>
        <time>2023-02-14T12:18:15.000Z</time>
      </trkpt>
      <trkpt lat="45.52801" lon="5.08914">
        <ele>344</ele>
        <time>2023-02-14T12:18:16.000Z</time>
      </trkpt>
      <trkpt lat="45.5281" lon="5.08928">
        <ele>344</ele>
        <time>2023-02-14T12:18:18.000Z</time>
      </trkpt>
      <trkpt lat="45.52842" lon="5.09016">
        <ele>345</ele>
        <time>2023-02-14T12:18:31.000Z</time>
      </trkpt>
      <trkpt lat="45.52858" lon="5.09049">
        <ele>345</ele>
        <time>2023-02-14T12:18:36.000Z</time>
      </trkpt>
      <trkpt lat="45.52943" lon="5.09186">
        <ele>349</ele>
        <time>2023-02-14T12:18:59.000Z</time>
      </trkpt>
      <trkpt lat="45.53011" lon="5.09311">
        <ele>348</ele>
        <time>2023-02-14T12:19:18.000Z</time>
      </trkpt>
      <trkpt lat="45.53026" lon="5.09363">
        <ele>347</ele>
        <time>2023-02-14T12:19:25.000Z</time>
      </trkpt>
      <trkpt lat="45.53029" lon="5.09381">
        <ele>347</ele>
        <time>2023-02-14T12:19:28.000Z</time>
      </trkpt>
      <trkpt lat="45.53034" lon="5.09428">
        <ele>348</ele>
        <time>2023-02-14T12:19:33.000Z</time>
      </trkpt>
      <trkpt lat="45.53037" lon="5.09504">
        <ele>349</ele>
        <time>2023-02-14T12:19:43.000Z</time>
      </trkpt>
      <trkpt lat="45.53044" lon="5.09566">
        <ele>350</ele>
        <time>2023-02-14T12:19:51.000Z</time>
      </trkpt>
      <trkpt lat="45.53083" lon="5.09751">
        <ele>352</ele>
        <time>2023-02-14T12:20:15.000Z</time>
      </trkpt>
      <trkpt lat="45.53116" lon="5.09857">
        <ele>352</ele>
        <time>2023-02-14T12:20:29.000Z</time>
      </trkpt>
      <trkpt lat="45.53146" lon="5.09929">
        <ele>354</ele>
        <time>2023-02-14T12:20:40.000Z</time>
      </trkpt>
      <trkpt lat="45.53167" lon="5.0996">
        <ele>355</ele>
        <time>2023-02-14T12:20:45.000Z</time>
      </trkpt>
      <trkpt lat="45.53173" lon="5.09974">
        <ele>355</ele>
        <time>2023-02-14T12:20:47.000Z</time>
      </trkpt>
      <trkpt lat="45.53223" lon="5.10153">
        <ele>356</ele>
        <time>2023-02-14T12:21:11.000Z</time>
      </trkpt>
      <trkpt lat="45.53238" lon="5.10267">
        <ele>355</ele>
        <time>2023-02-14T12:21:26.000Z</time>
      </trkpt>
      <trkpt lat="45.53245" lon="5.10284">
        <ele>355</ele>
        <time>2023-02-14T12:21:28.000Z</time>
      </trkpt>
      <trkpt lat="45.53256" lon="5.10297">
        <ele>355</ele>
        <time>2023-02-14T12:21:31.000Z</time>
      </trkpt>
      <trkpt lat="45.53278" lon="5.10317">
        <ele>355</ele>
        <time>2023-02-14T12:21:35.000Z</time>
      </trkpt>
      <trkpt lat="45.53304" lon="5.10336">
        <ele>357</ele>
        <time>2023-02-14T12:21:41.000Z</time>
      </trkpt>
      <trkpt lat="45.53319" lon="5.10343">
        <ele>357</ele>
        <time>2023-02-14T12:21:43.000Z</time>
      </trkpt>
      <trkpt lat="45.53332" lon="5.10341">
        <ele>358</ele>
        <time>2023-02-14T12:21:46.000Z</time>
      </trkpt>
      <trkpt lat="45.53342" lon="5.10344">
        <ele>358</ele>
        <time>2023-02-14T12:21:47.000Z</time>
      </trkpt>
      <trkpt lat="45.53372" lon="5.10364">
        <ele>357</ele>
        <time>2023-02-14T12:21:53.000Z</time>
      </trkpt>
      <trkpt lat="45.53419" lon="5.10404">
        <ele>359</ele>
        <time>2023-02-14T12:22:03.000Z</time>
      </trkpt>
      <trkpt lat="45.5346" lon="5.10463">
        <ele>361</ele>
        <time>2023-02-14T12:22:13.000Z</time>
      </trkpt>
      <trkpt lat="45.53483" lon="5.10485">
        <ele>362</ele>
        <time>2023-02-14T12:22:18.000Z</time>
      </trkpt>
      <trkpt lat="45.53499" lon="5.10492">
        <ele>363</ele>
        <time>2023-02-14T12:22:21.000Z</time>
      </trkpt>
      <trkpt lat="45.53564" lon="5.10507">
        <ele>363</ele>
        <time>2023-02-14T12:22:33.000Z</time>
      </trkpt>
      <trkpt lat="45.53617" lon="5.10524">
        <ele>363</ele>
        <time>2023-02-14T12:22:43.000Z</time>
      </trkpt>
      <trkpt lat="45.53644" lon="5.10535">
        <ele>363</ele>
        <time>2023-02-14T12:22:48.000Z</time>
      </trkpt>
      <trkpt lat="45.53698" lon="5.10564">
        <ele>363</ele>
        <time>2023-02-14T12:22:58.000Z</time>
      </trkpt>
      <trkpt lat="45.53737" lon="5.10572">
        <ele>363</ele>
        <time>2023-02-14T12:23:05.000Z</time>
      </trkpt>
      <trkpt lat="45.53754" lon="5.10557">
        <ele>362</ele>
        <time>2023-02-14T12:23:09.000Z</time>
      </trkpt>
      <trkpt lat="45.53772" lon="5.10525">
        <ele>362</ele>
        <time>2023-02-14T12:23:14.000Z</time>
      </trkpt>
      <trkpt lat="45.5378" lon="5.10506">
        <ele>361</ele>
        <time>2023-02-14T12:23:16.000Z</time>
      </trkpt>
      <trkpt lat="45.53809" lon="5.10462">
        <ele>360</ele>
        <time>2023-02-14T12:23:24.000Z</time>
      </trkpt>
      <trkpt lat="45.53843" lon="5.10429">
        <ele>359</ele>
        <time>2023-02-14T12:23:31.000Z</time>
      </trkpt>
      <trkpt lat="45.53925" lon="5.10332">
        <ele>358</ele>
        <time>2023-02-14T12:23:50.000Z</time>
      </trkpt>
      <trkpt lat="45.54027" lon="5.10204">
        <ele>356</ele>
        <time>2023-02-14T12:24:14.000Z</time>
      </trkpt>
      <trkpt lat="45.54065" lon="5.10143">
        <ele>355</ele>
        <time>2023-02-14T12:24:25.000Z</time>
      </trkpt>
      <trkpt lat="45.54101" lon="5.1007">
        <ele>353</ele>
        <time>2023-02-14T12:24:36.000Z</time>
      </trkpt>
      <trkpt lat="45.54111" lon="5.1006">
        <ele>353</ele>
        <time>2023-02-14T12:24:38.000Z</time>
      </trkpt>
      <trkpt lat="45.54129" lon="5.10064">
        <ele>353</ele>
        <time>2023-02-14T12:24:41.000Z</time>
      </trkpt>
      <trkpt lat="45.54142" lon="5.10062">
        <ele>353</ele>
        <time>2023-02-14T12:24:43.000Z</time>
      </trkpt>
      <trkpt lat="45.54177" lon="5.1004">
        <ele>352</ele>
        <time>2023-02-14T12:24:50.000Z</time>
      </trkpt>
      <trkpt lat="45.54351" lon="5.099">
        <ele>351</ele>
        <time>2023-02-14T12:25:26.000Z</time>
      </trkpt>
      <trkpt lat="45.54578" lon="5.09722">
        <ele>356</ele>
        <time>2023-02-14T12:26:12.000Z</time>
      </trkpt>
      <trkpt lat="45.54584" lon="5.09718">
        <ele>356</ele>
        <time>2023-02-14T12:26:13.000Z</time>
      </trkpt>
      <trkpt lat="45.54596" lon="5.09715">
        <ele>356</ele>
        <time>2023-02-14T12:26:15.000Z</time>
      </trkpt>
      <trkpt lat="45.54605" lon="5.09723">
        <ele>356</ele>
        <time>2023-02-14T12:26:17.000Z</time>
      </trkpt>
      <trkpt lat="45.5464" lon="5.09771">
        <ele>356</ele>
        <time>2023-02-14T12:26:26.000Z</time>
      </trkpt>
      <trkpt lat="45.54686" lon="5.09821">
        <ele>356</ele>
        <time>2023-02-14T12:26:36.000Z</time>
      </trkpt>
      <trkpt lat="45.5477" lon="5.09875">
        <ele>358</ele>
        <time>2023-02-14T12:26:52.000Z</time>
      </trkpt>
      <trkpt lat="45.54846" lon="5.0991">
        <ele>359</ele>
        <time>2023-02-14T12:27:07.000Z</time>
      </trkpt>
      <trkpt lat="45.54893" lon="5.09936">
        <ele>358</ele>
        <time>2023-02-14T12:27:16.000Z</time>
      </trkpt>
      <trkpt lat="45.54957" lon="5.09982">
        <ele>360</ele>
        <time>2023-02-14T12:27:28.000Z</time>
      </trkpt>
      <trkpt lat="45.55008" lon="5.10027">
        <ele>361</ele>
        <time>2023-02-14T12:27:39.000Z</time>
      </trkpt>
      <trkpt lat="45.55058" lon="5.10052">
        <ele>361</ele>
        <time>2023-02-14T12:27:48.000Z</time>
      </trkpt>
      <trkpt lat="45.55214" lon="5.10107">
        <ele>362</ele>
        <time>2023-02-14T12:28:17.000Z</time>
      </trkpt>
      <trkpt lat="45.55226" lon="5.10114">
        <ele>362</ele>
        <time>2023-02-14T12:28:19.000Z</time>
      </trkpt>
      <trkpt lat="45.55235" lon="5.10127">
        <ele>362</ele>
        <time>2023-02-14T12:28:22.000Z</time>
      </trkpt>
      <trkpt lat="45.5524" lon="5.10156">
        <ele>363</ele>
        <time>2023-02-14T12:28:25.000Z</time>
      </trkpt>
      <trkpt lat="45.55239" lon="5.10348">
        <ele>365</ele>
        <time>2023-02-14T12:28:49.000Z</time>
      </trkpt>
      <trkpt lat="45.55241" lon="5.10388">
        <ele>365</ele>
        <time>2023-02-14T12:28:54.000Z</time>
      </trkpt>
      <trkpt lat="45.55244" lon="5.10408">
        <ele>366</ele>
        <time>2023-02-14T12:28:57.000Z</time>
      </trkpt>
      <trkpt lat="45.55258" lon="5.10461">
        <ele>366</ele>
        <time>2023-02-14T12:29:04.000Z</time>
      </trkpt>
      <trkpt lat="45.55278" lon="5.10508">
        <ele>366</ele>
        <time>2023-02-14T12:29:11.000Z</time>
      </trkpt>
      <trkpt lat="45.55306" lon="5.10562">
        <ele>366</ele>
        <time>2023-02-14T12:29:19.000Z</time>
      </trkpt>
      <trkpt lat="45.55326" lon="5.10586">
        <ele>367</ele>
        <time>2023-02-14T12:29:24.000Z</time>
      </trkpt>
      <trkpt lat="45.5537" lon="5.1063">
        <ele>367</ele>
        <time>2023-02-14T12:29:33.000Z</time>
      </trkpt>
      <trkpt lat="45.55395" lon="5.1066">
        <ele>367</ele>
        <time>2023-02-14T12:29:39.000Z</time>
      </trkpt>
      <trkpt lat="45.5543" lon="5.10709">
        <ele>368</ele>
        <time>2023-02-14T12:29:48.000Z</time>
      </trkpt>
      <trkpt lat="45.55471" lon="5.10782">
        <ele>369</ele>
        <time>2023-02-14T12:29:59.000Z</time>
      </trkpt>
      <trkpt lat="45.55527" lon="5.10898">
        <ele>370</ele>
        <time>2023-02-14T12:30:17.000Z</time>
      </trkpt>
      <trkpt lat="45.55571" lon="5.11028">
        <ele>372</ele>
        <time>2023-02-14T12:30:35.000Z</time>
      </trkpt>
      <trkpt lat="45.55582" lon="5.11054">
        <ele>372</ele>
        <time>2023-02-14T12:30:39.000Z</time>
      </trkpt>
      <trkpt lat="45.55639" lon="5.11159">
        <ele>370</ele>
        <time>2023-02-14T12:30:55.000Z</time>
      </trkpt>
      <trkpt lat="45.55663" lon="5.11227">
        <ele>373</ele>
        <time>2023-02-14T12:31:05.000Z</time>
      </trkpt>
      <trkpt lat="45.5567" lon="5.11238">
        <ele>374</ele>
        <time>2023-02-14T12:31:07.000Z</time>
      </trkpt>
      <trkpt lat="45.55679" lon="5.11246">
        <ele>374</ele>
        <time>2023-02-14T12:31:09.000Z</time>
      </trkpt>
      <trkpt lat="45.55697" lon="5.11251">
        <ele>375</ele>
        <time>2023-02-14T12:31:12.000Z</time>
      </trkpt>
      <trkpt lat="45.55715" lon="5.11247">
        <ele>376</ele>
        <time>2023-02-14T12:31:15.000Z</time>
      </trkpt>
      <trkpt lat="45.5576" lon="5.11214">
        <ele>376</ele>
        <time>2023-02-14T12:31:24.000Z</time>
      </trkpt>
      <trkpt lat="45.55804" lon="5.11201">
        <ele>377</ele>
        <time>2023-02-14T12:31:32.000Z</time>
      </trkpt>
      <trkpt lat="45.55873" lon="5.11164">
        <ele>376</ele>
        <time>2023-02-14T12:31:45.000Z</time>
      </trkpt>
      <trkpt lat="45.55978" lon="5.11129">
        <ele>375</ele>
        <time>2023-02-14T12:32:04.000Z</time>
      </trkpt>
      <trkpt lat="45.56031" lon="5.11098">
        <ele>375</ele>
        <time>2023-02-14T12:32:15.000Z</time>
      </trkpt>
      <trkpt lat="45.56149" lon="5.11038">
        <ele>377</ele>
        <time>2023-02-14T12:32:37.000Z</time>
      </trkpt>
      <trkpt lat="45.56176" lon="5.11027">
        <ele>378</ele>
        <time>2023-02-14T12:32:42.000Z</time>
      </trkpt>
      <trkpt lat="45.56215" lon="5.1102">
        <ele>379</ele>
        <time>2023-02-14T12:32:49.000Z</time>
      </trkpt>
      <trkpt lat="45.56506" lon="5.10985">
        <ele>381</ele>
        <time>2023-02-14T12:33:41.000Z</time>
      </trkpt>
      <trkpt lat="45.56513" lon="5.10979">
        <ele>381</ele>
        <time>2023-02-14T12:33:42.000Z</time>
      </trkpt>
      <trkpt lat="45.56516" lon="5.10968">
        <ele>381</ele>
        <time>2023-02-14T12:33:44.000Z</time>
      </trkpt>
      <trkpt lat="45.56505" lon="5.1088">
        <ele>380</ele>
        <time>2023-02-14T12:33:55.000Z</time>
      </trkpt>
      <trkpt lat="45.56504" lon="5.10845">
        <ele>379</ele>
        <time>2023-02-14T12:33:59.000Z</time>
      </trkpt>
      <trkpt lat="45.5652" lon="5.107">
        <ele>380</ele>
        <time>2023-02-14T12:34:17.000Z</time>
      </trkpt>
      <trkpt lat="45.56514" lon="5.10577">
        <ele>378</ele>
        <time>2023-02-14T12:34:33.000Z</time>
      </trkpt>
      <trkpt lat="45.56503" lon="5.10424">
        <ele>376</ele>
        <time>2023-02-14T12:34:52.000Z</time>
      </trkpt>
      <trkpt lat="45.56496" lon="5.10379">
        <ele>376</ele>
        <time>2023-02-14T12:34:58.000Z</time>
      </trkpt>
      <trkpt lat="45.56479" lon="5.10322">
        <ele>377</ele>
        <time>2023-02-14T12:35:05.000Z</time>
      </trkpt>
      <trkpt lat="45.56361" lon="5.10021">
        <ele>383</ele>
        <time>2023-02-14T12:35:48.000Z</time>
      </trkpt>
      <trkpt lat="45.56326" lon="5.09945">
        <ele>383</ele>
        <time>2023-02-14T12:36:00.000Z</time>
      </trkpt>
      <trkpt lat="45.56278" lon="5.0981">
        <ele>380</ele>
        <time>2023-02-14T12:36:19.000Z</time>
      </trkpt>
      <trkpt lat="45.56251" lon="5.09755">
        <ele>379</ele>
        <time>2023-02-14T12:36:27.000Z</time>
      </trkpt>
      <trkpt lat="45.56184" lon="5.09646">
        <ele>378</ele>
        <time>2023-02-14T12:36:45.000Z</time>
      </trkpt>
      <trkpt lat="45.5615" lon="5.09607">
        <ele>377</ele>
        <time>2023-02-14T12:36:53.000Z</time>
      </trkpt>
      <trkpt lat="45.56147" lon="5.09591">
        <ele>377</ele>
        <time>2023-02-14T12:36:55.000Z</time>
      </trkpt>
      <trkpt lat="45.56146" lon="5.09557">
        <ele>377</ele>
        <time>2023-02-14T12:36:59.000Z</time>
      </trkpt>
      <trkpt lat="45.56101" lon="5.09497">
        <ele>378</ele>
        <time>2023-02-14T12:37:10.000Z</time>
      </trkpt>
      <trkpt lat="45.56072" lon="5.0944">
        <ele>380</ele>
        <time>2023-02-14T12:37:19.000Z</time>
      </trkpt>
      <trkpt lat="45.56047" lon="5.09401">
        <ele>381</ele>
        <time>2023-02-14T12:37:25.000Z</time>
      </trkpt>
      <trkpt lat="45.5602" lon="5.09371">
        <ele>382</ele>
        <time>2023-02-14T12:37:32.000Z</time>
      </trkpt>
      <trkpt lat="45.55951" lon="5.09305">
        <ele>386</ele>
        <time>2023-02-14T12:37:46.000Z</time>
      </trkpt>
      <trkpt lat="45.5594" lon="5.09288">
        <ele>387</ele>
        <time>2023-02-14T12:37:49.000Z</time>
      </trkpt>
      <trkpt lat="45.55927" lon="5.09257">
        <ele>389</ele>
        <time>2023-02-14T12:37:54.000Z</time>
      </trkpt>
      <trkpt lat="45.55914" lon="5.09209">
        <ele>390</ele>
        <time>2023-02-14T12:38:00.000Z</time>
      </trkpt>
      <trkpt lat="45.55897" lon="5.09159">
        <ele>393</ele>
        <time>2023-02-14T12:38:07.000Z</time>
      </trkpt>
      <trkpt lat="45.55868" lon="5.09089">
        <ele>398</ele>
        <time>2023-02-14T12:38:17.000Z</time>
      </trkpt>
      <trkpt lat="45.55843" lon="5.09038">
        <ele>401</ele>
        <time>2023-02-14T12:38:25.000Z</time>
      </trkpt>
      <trkpt lat="45.55765" lon="5.08895">
        <ele>404</ele>
        <time>2023-02-14T12:38:48.000Z</time>
      </trkpt>
      <trkpt lat="45.55746" lon="5.08846">
        <ele>404</ele>
        <time>2023-02-14T12:38:54.000Z</time>
      </trkpt>
      <trkpt lat="45.55712" lon="5.08666">
        <ele>404</ele>
        <time>2023-02-14T12:39:18.000Z</time>
      </trkpt>
      <trkpt lat="45.5571" lon="5.08638">
        <ele>404</ele>
        <time>2023-02-14T12:39:21.000Z</time>
      </trkpt>
      <trkpt lat="45.55717" lon="5.08444">
        <ele>405</ele>
        <time>2023-02-14T12:39:45.000Z</time>
      </trkpt>
      <trkpt lat="45.55744" lon="5.08332">
        <ele>404</ele>
        <time>2023-02-14T12:40:00.000Z</time>
      </trkpt>
      <trkpt lat="45.55748" lon="5.08283">
        <ele>402</ele>
        <time>2023-02-14T12:40:06.000Z</time>
      </trkpt>
      <trkpt lat="45.55747" lon="5.08253">
        <ele>400</ele>
        <time>2023-02-14T12:40:10.000Z</time>
      </trkpt>
      <trkpt lat="45.55739" lon="5.08233">
        <ele>400</ele>
        <time>2023-02-14T12:40:13.000Z</time>
      </trkpt>
      <trkpt lat="45.55731" lon="5.08224">
        <ele>400</ele>
        <time>2023-02-14T12:40:15.000Z</time>
      </trkpt>
      <trkpt lat="45.55681" lon="5.08201">
        <ele>400</ele>
        <time>2023-02-14T12:40:24.000Z</time>
      </trkpt>
      <trkpt lat="45.55663" lon="5.08182">
        <ele>400</ele>
        <time>2023-02-14T12:40:28.000Z</time>
      </trkpt>
      <trkpt lat="45.5563" lon="5.08099">
        <ele>401</ele>
        <time>2023-02-14T12:40:40.000Z</time>
      </trkpt>
      <trkpt lat="45.55615" lon="5.0807">
        <ele>401</ele>
        <time>2023-02-14T12:40:44.000Z</time>
      </trkpt>
      <trkpt lat="45.55585" lon="5.08028">
        <ele>401</ele>
        <time>2023-02-14T12:40:52.000Z</time>
      </trkpt>
      <trkpt lat="45.55566" lon="5.0801">
        <ele>401</ele>
        <time>2023-02-14T12:40:56.000Z</time>
      </trkpt>
      <trkpt lat="45.5556" lon="5.07997">
        <ele>401</ele>
        <time>2023-02-14T12:40:58.000Z</time>
      </trkpt>
      <trkpt lat="45.5556" lon="5.0798">
        <ele>401</ele>
        <time>2023-02-14T12:41:00.000Z</time>
      </trkpt>
      <trkpt lat="45.55557" lon="5.07968">
        <ele>401</ele>
        <time>2023-02-14T12:41:02.000Z</time>
      </trkpt>
      <trkpt lat="45.55569" lon="5.07943">
        <ele>400</ele>
        <time>2023-02-14T12:41:05.000Z</time>
      </trkpt>
      <trkpt lat="45.55574" lon="5.07922">
        <ele>400</ele>
        <time>2023-02-14T12:41:08.000Z</time>
      </trkpt>
      <trkpt lat="45.55574" lon="5.07885">
        <ele>400</ele>
        <time>2023-02-14T12:41:13.000Z</time>
      </trkpt>
      <trkpt lat="45.55584" lon="5.07806">
        <ele>401</ele>
        <time>2023-02-14T12:41:23.000Z</time>
      </trkpt>
      <trkpt lat="45.55616" lon="5.07715">
        <ele>397</ele>
        <time>2023-02-14T12:41:35.000Z</time>
      </trkpt>
      <trkpt lat="45.55666" lon="5.07614">
        <ele>391</ele>
        <time>2023-02-14T12:41:51.000Z</time>
      </trkpt>
      <trkpt lat="45.5567" lon="5.07616">
        <ele>391</ele>
        <time>2023-02-14T12:41:52.000Z</time>
      </trkpt>
      <trkpt lat="45.55676" lon="5.07625">
        <ele>391</ele>
        <time>2023-02-14T12:41:53.000Z</time>
      </trkpt>
      <trkpt lat="45.55721" lon="5.07711">
        <ele>390</ele>
        <time>2023-02-14T12:42:07.000Z</time>
      </trkpt>
      <trkpt lat="45.55746" lon="5.07723">
        <ele>389</ele>
        <time>2023-02-14T12:42:11.000Z</time>
      </trkpt>
      <trkpt lat="45.55765" lon="5.07722">
        <ele>389</ele>
        <time>2023-02-14T12:42:15.000Z</time>
      </trkpt>
      <trkpt lat="45.55796" lon="5.07687">
        <ele>391</ele>
        <time>2023-02-14T12:42:22.000Z</time>
      </trkpt>
      <trkpt lat="45.55809" lon="5.07662">
        <ele>391</ele>
        <time>2023-02-14T12:42:26.000Z</time>
      </trkpt>
      <trkpt lat="45.55857" lon="5.07623">
        <ele>391</ele>
        <time>2023-02-14T12:42:35.000Z</time>
      </trkpt>
      <trkpt lat="45.55965" lon="5.07464">
        <ele>384</ele>
        <time>2023-02-14T12:43:03.000Z</time>
      </trkpt>
      <trkpt lat="45.55988" lon="5.0737">
        <ele>385</ele>
        <time>2023-02-14T12:43:15.000Z</time>
      </trkpt>
      <trkpt lat="45.55994" lon="5.0727">
        <ele>390</ele>
        <time>2023-02-14T12:43:28.000Z</time>
      </trkpt>
      <trkpt lat="45.55961" lon="5.07276">
        <ele>387</ele>
        <time>2023-02-14T12:43:34.000Z</time>
      </trkpt>
      <trkpt lat="45.55916" lon="5.07274">
        <ele>384</ele>
        <time>2023-02-14T12:43:42.000Z</time>
      </trkpt>
      <trkpt lat="45.55901" lon="5.07234">
        <ele>384</ele>
        <time>2023-02-14T12:43:47.000Z</time>
      </trkpt>
      <trkpt lat="45.55895" lon="5.0718">
        <ele>383</ele>
        <time>2023-02-14T12:43:54.000Z</time>
      </trkpt>
      <trkpt lat="45.55898" lon="5.07054">
        <ele>379</ele>
        <time>2023-02-14T12:44:10.000Z</time>
      </trkpt>
      <trkpt lat="45.55907" lon="5.06988">
        <ele>377</ele>
        <time>2023-02-14T12:44:18.000Z</time>
      </trkpt>
      <trkpt lat="45.55912" lon="5.06857">
        <ele>371</ele>
        <time>2023-02-14T12:44:35.000Z</time>
      </trkpt>
      <trkpt lat="45.55918" lon="5.06813">
        <ele>370</ele>
        <time>2023-02-14T12:44:40.000Z</time>
      </trkpt>
      <trkpt lat="45.55925" lon="5.06688">
        <ele>370</ele>
        <time>2023-02-14T12:44:56.000Z</time>
      </trkpt>
      <trkpt lat="45.55922" lon="5.06647">
        <ele>370</ele>
        <time>2023-02-14T12:45:01.000Z</time>
      </trkpt>
      <trkpt lat="45.55909" lon="5.06589">
        <ele>369</ele>
        <time>2023-02-14T12:45:09.000Z</time>
      </trkpt>
      <trkpt lat="45.55889" lon="5.06434">
        <ele>367</ele>
        <time>2023-02-14T12:45:28.000Z</time>
      </trkpt>
      <trkpt lat="45.55898" lon="5.06373">
        <ele>369</ele>
        <time>2023-02-14T12:45:36.000Z</time>
      </trkpt>
      <trkpt lat="45.55886" lon="5.06287">
        <ele>367</ele>
        <time>2023-02-14T12:45:47.000Z</time>
      </trkpt>
      <trkpt lat="45.55888" lon="5.06249">
        <ele>367</ele>
        <time>2023-02-14T12:45:52.000Z</time>
      </trkpt>
      <trkpt lat="45.55909" lon="5.06167">
        <ele>368</ele>
        <time>2023-02-14T12:46:03.000Z</time>
      </trkpt>
      <trkpt lat="45.55908" lon="5.06129">
        <ele>368</ele>
        <time>2023-02-14T12:46:07.000Z</time>
      </trkpt>
      <trkpt lat="45.55898" lon="5.06069">
        <ele>366</ele>
        <time>2023-02-14T12:46:15.000Z</time>
      </trkpt>
      <trkpt lat="45.55899" lon="5.0602">
        <ele>367</ele>
        <time>2023-02-14T12:46:21.000Z</time>
      </trkpt>
      <trkpt lat="45.55908" lon="5.05964">
        <ele>369</ele>
        <time>2023-02-14T12:46:28.000Z</time>
      </trkpt>
      <trkpt lat="45.55912" lon="5.05892">
        <ele>371</ele>
        <time>2023-02-14T12:46:37.000Z</time>
      </trkpt>
      <trkpt lat="45.55926" lon="5.05829">
        <ele>372</ele>
        <time>2023-02-14T12:46:46.000Z</time>
      </trkpt>
      <trkpt lat="45.5595" lon="5.05781">
        <ele>373</ele>
        <time>2023-02-14T12:46:53.000Z</time>
      </trkpt>
      <trkpt lat="45.55982" lon="5.05742">
        <ele>373</ele>
        <time>2023-02-14T12:47:00.000Z</time>
      </trkpt>
      <trkpt lat="45.56022" lon="5.05674">
        <ele>373</ele>
        <time>2023-02-14T12:47:11.000Z</time>
      </trkpt>
      <trkpt lat="45.56046" lon="5.05639">
        <ele>371</ele>
        <time>2023-02-14T12:47:18.000Z</time>
      </trkpt>
      <trkpt lat="45.56063" lon="5.05604">
        <ele>369</ele>
        <time>2023-02-14T12:47:23.000Z</time>
      </trkpt>
      <trkpt lat="45.56106" lon="5.05532">
        <ele>366</ele>
        <time>2023-02-14T12:47:35.000Z</time>
      </trkpt>
      <trkpt lat="45.56135" lon="5.05477">
        <ele>364</ele>
        <time>2023-02-14T12:47:43.000Z</time>
      </trkpt>
      <trkpt lat="45.56164" lon="5.05391">
        <ele>364</ele>
        <time>2023-02-14T12:47:55.000Z</time>
      </trkpt>
      <trkpt lat="45.56182" lon="5.05317">
        <ele>367</ele>
        <time>2023-02-14T12:48:05.000Z</time>
      </trkpt>
      <trkpt lat="45.56196" lon="5.05274">
        <ele>369</ele>
        <time>2023-02-14T12:48:11.000Z</time>
      </trkpt>
      <trkpt lat="45.56208" lon="5.0521">
        <ele>370</ele>
        <time>2023-02-14T12:48:19.000Z</time>
      </trkpt>
      <trkpt lat="45.56215" lon="5.05154">
        <ele>372</ele>
        <time>2023-02-14T12:48:26.000Z</time>
      </trkpt>
      <trkpt lat="45.56217" lon="5.05087">
        <ele>374</ele>
        <time>2023-02-14T12:48:34.000Z</time>
      </trkpt>
      <trkpt lat="45.56221" lon="5.05049">
        <ele>376</ele>
        <time>2023-02-14T12:48:39.000Z</time>
      </trkpt>
      <trkpt lat="45.56214" lon="5.04894">
        <ele>377</ele>
        <time>2023-02-14T12:48:59.000Z</time>
      </trkpt>
      <trkpt lat="45.56192" lon="5.04821">
        <ele>376</ele>
        <time>2023-02-14T12:49:08.000Z</time>
      </trkpt>
      <trkpt lat="45.5617" lon="5.04779">
        <ele>375</ele>
        <time>2023-02-14T12:49:15.000Z</time>
      </trkpt>
      <trkpt lat="45.56149" lon="5.04742">
        <ele>373</ele>
        <time>2023-02-14T12:49:21.000Z</time>
      </trkpt>
      <trkpt lat="45.56074" lon="5.04643">
        <ele>370</ele>
        <time>2023-02-14T12:49:39.000Z</time>
      </trkpt>
      <trkpt lat="45.56058" lon="5.04606">
        <ele>370</ele>
        <time>2023-02-14T12:49:45.000Z</time>
      </trkpt>
      <trkpt lat="45.56081" lon="5.04576">
        <ele>369</ele>
        <time>2023-02-14T12:49:50.000Z</time>
      </trkpt>
      <trkpt lat="45.56096" lon="5.04544">
        <ele>368</ele>
        <time>2023-02-14T12:49:55.000Z</time>
      </trkpt>
      <trkpt lat="45.56131" lon="5.04437">
        <ele>365</ele>
        <time>2023-02-14T12:50:10.000Z</time>
      </trkpt>
      <trkpt lat="45.56152" lon="5.04325">
        <ele>363</ele>
        <time>2023-02-14T12:50:24.000Z</time>
      </trkpt>
      <trkpt lat="45.56161" lon="5.04254">
        <ele>362</ele>
        <time>2023-02-14T12:50:33.000Z</time>
      </trkpt>
      <trkpt lat="45.56159" lon="5.04205">
        <ele>361</ele>
        <time>2023-02-14T12:50:39.000Z</time>
      </trkpt>
      <trkpt lat="45.56154" lon="5.04171">
        <ele>361</ele>
        <time>2023-02-14T12:50:43.000Z</time>
      </trkpt>
      <trkpt lat="45.56164" lon="5.04061">
        <ele>355</ele>
        <time>2023-02-14T12:50:57.000Z</time>
      </trkpt>
      <trkpt lat="45.56194" lon="5.03934">
        <ele>353</ele>
        <time>2023-02-14T12:51:14.000Z</time>
      </trkpt>
      <trkpt lat="45.56215" lon="5.03819">
        <ele>353</ele>
        <time>2023-02-14T12:51:29.000Z</time>
      </trkpt>
      <trkpt lat="45.56235" lon="5.03735">
        <ele>354</ele>
        <time>2023-02-14T12:51:40.000Z</time>
      </trkpt>
      <trkpt lat="45.5624" lon="5.03692">
        <ele>355</ele>
        <time>2023-02-14T12:51:45.000Z</time>
      </trkpt>
      <trkpt lat="45.56241" lon="5.0363">
        <ele>357</ele>
        <time>2023-02-14T12:51:53.000Z</time>
      </trkpt>
      <trkpt lat="45.56232" lon="5.03576">
        <ele>356</ele>
        <time>2023-02-14T12:52:00.000Z</time>
      </trkpt>
      <trkpt lat="45.56218" lon="5.03518">
        <ele>355</ele>
        <time>2023-02-14T12:52:08.000Z</time>
      </trkpt>
      <trkpt lat="45.56216" lon="5.0349">
        <ele>354</ele>
        <time>2023-02-14T12:52:11.000Z</time>
      </trkpt>
      <trkpt lat="45.56197" lon="5.03368">
        <ele>352</ele>
        <time>2023-02-14T12:52:27.000Z</time>
      </trkpt>
      <trkpt lat="45.56203" lon="5.03335">
        <ele>351</ele>
        <time>2023-02-14T12:52:31.000Z</time>
      </trkpt>
      <trkpt lat="45.56208" lon="5.03268">
        <ele>354</ele>
        <time>2023-02-14T12:52:39.000Z</time>
      </trkpt>
      <trkpt lat="45.56215" lon="5.03225">
        <ele>354</ele>
        <time>2023-02-14T12:52:45.000Z</time>
      </trkpt>
      <trkpt lat="45.56217" lon="5.03194">
        <ele>354</ele>
        <time>2023-02-14T12:52:49.000Z</time>
      </trkpt>
      <trkpt lat="45.56226" lon="5.03146">
        <ele>353</ele>
        <time>2023-02-14T12:52:55.000Z</time>
      </trkpt>
      <trkpt lat="45.56241" lon="5.03105">
        <ele>352</ele>
        <time>2023-02-14T12:53:01.000Z</time>
      </trkpt>
      <trkpt lat="45.56242" lon="5.03051">
        <ele>349</ele>
        <time>2023-02-14T12:53:07.000Z</time>
      </trkpt>
      <trkpt lat="45.56227" lon="5.03017">
        <ele>344</ele>
        <time>2023-02-14T12:53:12.000Z</time>
      </trkpt>
      <trkpt lat="45.56228" lon="5.02968">
        <ele>341</ele>
        <time>2023-02-14T12:53:18.000Z</time>
      </trkpt>
      <trkpt lat="45.5622" lon="5.02863">
        <ele>337</ele>
        <time>2023-02-14T12:53:32.000Z</time>
      </trkpt>
      <trkpt lat="45.56208" lon="5.02813">
        <ele>334</ele>
        <time>2023-02-14T12:53:38.000Z</time>
      </trkpt>
      <trkpt lat="45.56195" lon="5.02787">
        <ele>331</ele>
        <time>2023-02-14T12:53:42.000Z</time>
      </trkpt>
      <trkpt lat="45.56164" lon="5.02693">
        <ele>322</ele>
        <time>2023-02-14T12:53:55.000Z</time>
      </trkpt>
      <trkpt lat="45.56156" lon="5.02646">
        <ele>317</ele>
        <time>2023-02-14T12:54:01.000Z</time>
      </trkpt>
      <trkpt lat="45.56182" lon="5.02537">
        <ele>307</ele>
        <time>2023-02-14T12:54:15.000Z</time>
      </trkpt>
      <trkpt lat="45.56183" lon="5.02498">
        <ele>301</ele>
        <time>2023-02-14T12:54:20.000Z</time>
      </trkpt>
      <trkpt lat="45.56169" lon="5.02405">
        <ele>289</ele>
        <time>2023-02-14T12:54:32.000Z</time>
      </trkpt>
      <trkpt lat="45.56167" lon="5.02356">
        <ele>283</ele>
        <time>2023-02-14T12:54:38.000Z</time>
      </trkpt>
      <trkpt lat="45.56168" lon="5.02243">
        <ele>271</ele>
        <time>2023-02-14T12:54:52.000Z</time>
      </trkpt>
      <trkpt lat="45.56164" lon="5.02181">
        <ele>266</ele>
        <time>2023-02-14T12:55:00.000Z</time>
      </trkpt>
      <trkpt lat="45.56166" lon="5.02135">
        <ele>262</ele>
        <time>2023-02-14T12:55:06.000Z</time>
      </trkpt>
      <trkpt lat="45.56194" lon="5.02106">
        <ele>261</ele>
        <time>2023-02-14T12:55:12.000Z</time>
      </trkpt>
      <trkpt lat="45.5619" lon="5.021">
        <ele>260</ele>
        <time>2023-02-14T12:55:13.000Z</time>
      </trkpt>
      <trkpt lat="45.56168" lon="5.02088">
        <ele>258</ele>
        <time>2023-02-14T12:55:17.000Z</time>
      </trkpt>
      <trkpt lat="45.56141" lon="5.02061">
        <ele>256</ele>
        <time>2023-02-14T12:55:23.000Z</time>
      </trkpt>
      <trkpt lat="45.56032" lon="5.01901">
        <ele>250</ele>
        <time>2023-02-14T12:55:51.000Z</time>
      </trkpt>
      <trkpt lat="45.56029" lon="5.01894">
        <ele>250</ele>
        <time>2023-02-14T12:55:52.000Z</time>
      </trkpt>
      <trkpt lat="45.56027" lon="5.01857">
        <ele>250</ele>
        <time>2023-02-14T12:55:57.000Z</time>
      </trkpt>
      <trkpt lat="45.56005" lon="5.01768">
        <ele>248</ele>
        <time>2023-02-14T12:56:08.000Z</time>
      </trkpt>
      <trkpt lat="45.55979" lon="5.01706">
        <ele>247</ele>
        <time>2023-02-14T12:56:17.000Z</time>
      </trkpt>
      <trkpt lat="45.55965" lon="5.0168">
        <ele>247</ele>
        <time>2023-02-14T12:56:21.000Z</time>
      </trkpt>
      <trkpt lat="45.55942" lon="5.01649">
        <ele>247</ele>
        <time>2023-02-14T12:56:27.000Z</time>
      </trkpt>
      <trkpt lat="45.55917" lon="5.01624">
        <ele>246</ele>
        <time>2023-02-14T12:56:32.000Z</time>
      </trkpt>
      <trkpt lat="45.55902" lon="5.01615">
        <ele>246</ele>
        <time>2023-02-14T12:56:35.000Z</time>
      </trkpt>
      <trkpt lat="45.55887" lon="5.01612">
        <ele>247</ele>
        <time>2023-02-14T12:56:38.000Z</time>
      </trkpt>
      <trkpt lat="45.55872" lon="5.01613">
        <ele>247</ele>
        <time>2023-02-14T12:56:41.000Z</time>
      </trkpt>
      <trkpt lat="45.55765" lon="5.01639">
        <ele>247</ele>
        <time>2023-02-14T12:57:00.000Z</time>
      </trkpt>
      <trkpt lat="45.55729" lon="5.01645">
        <ele>248</ele>
        <time>2023-02-14T12:57:06.000Z</time>
      </trkpt>
      <trkpt lat="45.55717" lon="5.01641">
        <ele>248</ele>
        <time>2023-02-14T12:57:09.000Z</time>
      </trkpt>
      <trkpt lat="45.55707" lon="5.01629">
        <ele>248</ele>
        <time>2023-02-14T12:57:11.000Z</time>
      </trkpt>
      <trkpt lat="45.55699" lon="5.01613">
        <ele>248</ele>
        <time>2023-02-14T12:57:13.000Z</time>
      </trkpt>
      <trkpt lat="45.55501" lon="5.01141">
        <ele>251</ele>
        <time>2023-02-14T12:58:22.000Z</time>
      </trkpt>
      <trkpt lat="45.55479" lon="5.01076">
        <ele>251</ele>
        <time>2023-02-14T12:58:31.000Z</time>
      </trkpt>
      <trkpt lat="45.55438" lon="5.00896">
        <ele>250</ele>
        <time>2023-02-14T12:58:55.000Z</time>
      </trkpt>
      <trkpt lat="45.55417" lon="5.00787">
        <ele>244</ele>
        <time>2023-02-14T12:59:09.000Z</time>
      </trkpt>
      <trkpt lat="45.5541" lon="5.00718">
        <ele>243</ele>
        <time>2023-02-14T12:59:17.000Z</time>
      </trkpt>
      <trkpt lat="45.55399" lon="5.00682">
        <ele>242</ele>
        <time>2023-02-14T12:59:22.000Z</time>
      </trkpt>
      <trkpt lat="45.55383" lon="5.00608">
        <ele>241</ele>
        <time>2023-02-14T12:59:32.000Z</time>
      </trkpt>
      <trkpt lat="45.55377" lon="5.00558">
        <ele>241</ele>
        <time>2023-02-14T12:59:38.000Z</time>
      </trkpt>
      <trkpt lat="45.55361" lon="5.00502">
        <ele>241</ele>
        <time>2023-02-14T12:59:46.000Z</time>
      </trkpt>
      <trkpt lat="45.55352" lon="5.00487">
        <ele>241</ele>
        <time>2023-02-14T12:59:48.000Z</time>
      </trkpt>
      <trkpt lat="45.55341" lon="5.00478">
        <ele>242</ele>
        <time>2023-02-14T12:59:50.000Z</time>
      </trkpt>
      <trkpt lat="45.55324" lon="5.00469">
        <ele>242</ele>
        <time>2023-02-14T12:59:54.000Z</time>
      </trkpt>
      <trkpt lat="45.55308" lon="5.0045">
        <ele>242</ele>
        <time>2023-02-14T12:59:57.000Z</time>
      </trkpt>
      <trkpt lat="45.55302" lon="5.00439">
        <ele>242</ele>
        <time>2023-02-14T12:59:59.000Z</time>
      </trkpt>
      <trkpt lat="45.55297" lon="5.00416">
        <ele>242</ele>
        <time>2023-02-14T13:00:02.000Z</time>
      </trkpt>
      <trkpt lat="45.55282" lon="5.00391">
        <ele>242</ele>
        <time>2023-02-14T13:00:06.000Z</time>
      </trkpt>
      <trkpt lat="45.55246" lon="5.00292">
        <ele>241</ele>
        <time>2023-02-14T13:00:20.000Z</time>
      </trkpt>
      <trkpt lat="45.5522" lon="5.00207">
        <ele>240</ele>
        <time>2023-02-14T13:00:32.000Z</time>
      </trkpt>
      <trkpt lat="45.55191" lon="5.00094">
        <ele>240</ele>
        <time>2023-02-14T13:00:47.000Z</time>
      </trkpt>
      <trkpt lat="45.55174" lon="5.00052">
        <ele>240</ele>
        <time>2023-02-14T13:00:53.000Z</time>
      </trkpt>
      <trkpt lat="45.55155" lon="5.00014">
        <ele>240</ele>
        <time>2023-02-14T13:00:59.000Z</time>
      </trkpt>
      <trkpt lat="45.55153" lon="5.00005">
        <ele>239</ele>
        <time>2023-02-14T13:01:00.000Z</time>
      </trkpt>
      <trkpt lat="45.55151" lon="4.99969">
        <ele>239</ele>
        <time>2023-02-14T13:01:04.000Z</time>
      </trkpt>
      <trkpt lat="45.55154" lon="4.99951">
        <ele>239</ele>
        <time>2023-02-14T13:01:07.000Z</time>
      </trkpt>
      <trkpt lat="45.55179" lon="4.99868">
        <ele>238</ele>
        <time>2023-02-14T13:01:18.000Z</time>
      </trkpt>
      <trkpt lat="45.55185" lon="4.99812">
        <ele>240</ele>
        <time>2023-02-14T13:01:25.000Z</time>
      </trkpt>
      <trkpt lat="45.55186" lon="4.99766">
        <ele>243</ele>
        <time>2023-02-14T13:01:31.000Z</time>
      </trkpt>
      <trkpt lat="45.55196" lon="4.99652">
        <ele>245</ele>
        <time>2023-02-14T13:01:45.000Z</time>
      </trkpt>
      <trkpt lat="45.55203" lon="4.99488">
        <ele>244</ele>
        <time>2023-02-14T13:02:05.000Z</time>
      </trkpt>
      <trkpt lat="45.55203" lon="4.99257">
        <ele>236</ele>
        <time>2023-02-14T13:02:34.000Z</time>
      </trkpt>
      <trkpt lat="45.55205" lon="4.99234">
        <ele>236</ele>
        <time>2023-02-14T13:02:37.000Z</time>
      </trkpt>
      <trkpt lat="45.55226" lon="4.99102">
        <ele>237</ele>
        <time>2023-02-14T13:02:54.000Z</time>
      </trkpt>
      <trkpt lat="45.55262" lon="4.98987">
        <ele>235</ele>
        <time>2023-02-14T13:03:10.000Z</time>
      </trkpt>
      <trkpt lat="45.55267" lon="4.98962">
        <ele>236</ele>
        <time>2023-02-14T13:03:13.000Z</time>
      </trkpt>
      <trkpt lat="45.55272" lon="4.98858">
        <ele>241</ele>
        <time>2023-02-14T13:03:26.000Z</time>
      </trkpt>
      <trkpt lat="45.55284" lon="4.98757">
        <ele>236</ele>
        <time>2023-02-14T13:03:39.000Z</time>
      </trkpt>
      <trkpt lat="45.55292" lon="4.98642">
        <ele>231</ele>
        <time>2023-02-14T13:03:53.000Z</time>
      </trkpt>
      <trkpt lat="45.55286" lon="4.98567">
        <ele>229</ele>
        <time>2023-02-14T13:04:02.000Z</time>
      </trkpt>
      <trkpt lat="45.5526" lon="4.98501">
        <ele>229</ele>
        <time>2023-02-14T13:04:12.000Z</time>
      </trkpt>
      <trkpt lat="45.55231" lon="4.98442">
        <ele>231</ele>
        <time>2023-02-14T13:04:21.000Z</time>
      </trkpt>
      <trkpt lat="45.55216" lon="4.98398">
        <ele>230</ele>
        <time>2023-02-14T13:04:27.000Z</time>
      </trkpt>
      <trkpt lat="45.55202" lon="4.98346">
        <ele>228</ele>
        <time>2023-02-14T13:04:34.000Z</time>
      </trkpt>
      <trkpt lat="45.55202" lon="4.98328">
        <ele>227</ele>
        <time>2023-02-14T13:04:36.000Z</time>
      </trkpt>
      <trkpt lat="45.5521" lon="4.98313">
        <ele>227</ele>
        <time>2023-02-14T13:04:38.000Z</time>
      </trkpt>
      <trkpt lat="45.55246" lon="4.98276">
        <ele>225</ele>
        <time>2023-02-14T13:04:46.000Z</time>
      </trkpt>
      <trkpt lat="45.55254" lon="4.98259">
        <ele>225</ele>
        <time>2023-02-14T13:04:49.000Z</time>
      </trkpt>
      <trkpt lat="45.55256" lon="4.98248">
        <ele>225</ele>
        <time>2023-02-14T13:04:50.000Z</time>
      </trkpt>
      <trkpt lat="45.55258" lon="4.9797">
        <ele>220</ele>
        <time>2023-02-14T13:05:25.000Z</time>
      </trkpt>
      <trkpt lat="45.55254" lon="4.97907">
        <ele>220</ele>
        <time>2023-02-14T13:05:33.000Z</time>
      </trkpt>
      <trkpt lat="45.55248" lon="4.97877">
        <ele>219</ele>
        <time>2023-02-14T13:05:37.000Z</time>
      </trkpt>
      <trkpt lat="45.55204" lon="4.9771">
        <ele>216</ele>
        <time>2023-02-14T13:05:59.000Z</time>
      </trkpt>
      <trkpt lat="45.5517" lon="4.97529">
        <ele>214</ele>
        <time>2023-02-14T13:06:22.000Z</time>
      </trkpt>
      <trkpt lat="45.55123" lon="4.97312">
        <ele>212</ele>
        <time>2023-02-14T13:06:51.000Z</time>
      </trkpt>
      <trkpt lat="45.55065" lon="4.97013">
        <ele>213</ele>
        <time>2023-02-14T13:07:29.000Z</time>
      </trkpt>
      <trkpt lat="45.55019" lon="4.96755">
        <ele>211</ele>
        <time>2023-02-14T13:08:02.000Z</time>
      </trkpt>
      <trkpt lat="45.5499" lon="4.9654">
        <ele>211</ele>
        <time>2023-02-14T13:08:30.000Z</time>
      </trkpt>
      <trkpt lat="45.54975" lon="4.96451">
        <ele>210</ele>
        <time>2023-02-14T13:08:41.000Z</time>
      </trkpt>
      <trkpt lat="45.54958" lon="4.96364">
        <ele>209</ele>
        <time>2023-02-14T13:08:52.000Z</time>
      </trkpt>
      <trkpt lat="45.54935" lon="4.96298">
        <ele>208.9</ele>
        <time>2023-02-14T13:09:09.000Z</time>
      </trkpt>
      <trkpt lat="45.54931" lon="4.96283">
        <ele>208.9</ele>
        <time>2023-02-14T13:09:10.000Z</time>
      </trkpt>
      <trkpt lat="45.54925" lon="4.96259">
        <ele>208.9</ele>
        <time>2023-02-14T13:09:11.000Z</time>
      </trkpt>
      <trkpt lat="45.54962" lon="4.96237">
        <ele>208.4</ele>
        <time>2023-02-14T13:09:18.077Z</time>
      </trkpt>
      <trkpt lat="45.55292" lon="4.96226">
        <ele>208</ele>
        <time>2023-02-14T13:10:16.000Z</time>
      </trkpt>
      <trkpt lat="45.55438" lon="4.96222">
        <ele>208</ele>
        <time>2023-02-14T13:10:42.000Z</time>
      </trkpt>
      <trkpt lat="45.55758" lon="4.96221">
        <ele>214</ele>
        <time>2023-02-14T13:11:39.000Z</time>
      </trkpt>
      <trkpt lat="45.5578" lon="4.9622">
        <ele>216</ele>
        <time>2023-02-14T13:11:43.000Z</time>
      </trkpt>
      <trkpt lat="45.55788" lon="4.96217">
        <ele>217</ele>
        <time>2023-02-14T13:11:44.000Z</time>
      </trkpt>
      <trkpt lat="45.55791" lon="4.96209">
        <ele>217</ele>
        <time>2023-02-14T13:11:46.000Z</time>
      </trkpt>
      <trkpt lat="45.55796" lon="4.96152">
        <ele>218</ele>
        <time>2023-02-14T13:11:53.000Z</time>
      </trkpt>
      <trkpt lat="45.55804" lon="4.96009">
        <ele>223</ele>
        <time>2023-02-14T13:12:11.000Z</time>
      </trkpt>
      <trkpt lat="45.55806" lon="4.95902">
        <ele>225</ele>
        <time>2023-02-14T13:12:24.000Z</time>
      </trkpt>
      <trkpt lat="45.55799" lon="4.95838">
        <ele>229</ele>
        <time>2023-02-14T13:12:32.000Z</time>
      </trkpt>
      <trkpt lat="45.55733" lon="4.95559">
        <ele>225</ele>
        <time>2023-02-14T13:13:09.000Z</time>
      </trkpt>
      <trkpt lat="45.55722" lon="4.95496">
        <ele>223</ele>
        <time>2023-02-14T13:13:17.000Z</time>
      </trkpt>
      <trkpt lat="45.55725" lon="4.95481">
        <ele>223</ele>
        <time>2023-02-14T13:13:19.000Z</time>
      </trkpt>
      <trkpt lat="45.55729" lon="4.95476">
        <ele>224</ele>
        <time>2023-02-14T13:13:20.000Z</time>
      </trkpt>
      <trkpt lat="45.55734" lon="4.95472">
        <ele>224</ele>
        <time>2023-02-14T13:13:21.000Z</time>
      </trkpt>
      <trkpt lat="45.5576" lon="4.95464">
        <ele>227</ele>
        <time>2023-02-14T13:13:25.000Z</time>
      </trkpt>
      <trkpt lat="45.5578" lon="4.95462">
        <ele>229</ele>
        <time>2023-02-14T13:13:29.000Z</time>
      </trkpt>
      <trkpt lat="45.55805" lon="4.95464">
        <ele>232</ele>
        <time>2023-02-14T13:13:34.000Z</time>
      </trkpt>
      <trkpt lat="45.55878" lon="4.95487">
        <ele>241</ele>
        <time>2023-02-14T13:13:47.000Z</time>
      </trkpt>
      <trkpt lat="45.55908" lon="4.95492">
        <ele>243</ele>
        <time>2023-02-14T13:13:52.000Z</time>
      </trkpt>
      <trkpt lat="45.55953" lon="4.95489">
        <ele>245</ele>
        <time>2023-02-14T13:14:00.000Z</time>
      </trkpt>
      <trkpt lat="45.56014" lon="4.95477">
        <ele>248</ele>
        <time>2023-02-14T13:14:11.000Z</time>
      </trkpt>
      <trkpt lat="45.56026" lon="4.95478">
        <ele>249</ele>
        <time>2023-02-14T13:14:13.000Z</time>
      </trkpt>
      <trkpt lat="45.56042" lon="4.95482">
        <ele>250</ele>
        <time>2023-02-14T13:14:16.000Z</time>
      </trkpt>
      <trkpt lat="45.56105" lon="4.95509">
        <ele>254</ele>
        <time>2023-02-14T13:14:28.000Z</time>
      </trkpt>
      <trkpt lat="45.56136" lon="4.95518">
        <ele>254</ele>
        <time>2023-02-14T13:14:34.000Z</time>
      </trkpt>
      <trkpt lat="45.56157" lon="4.95527">
        <ele>255</ele>
        <time>2023-02-14T13:14:37.000Z</time>
      </trkpt>
      <trkpt lat="45.5619" lon="4.95552">
        <ele>258</ele>
        <time>2023-02-14T13:14:44.000Z</time>
      </trkpt>
      <trkpt lat="45.56209" lon="4.95573">
        <ele>261</ele>
        <time>2023-02-14T13:14:48.000Z</time>
      </trkpt>
      <trkpt lat="45.56229" lon="4.95606">
        <ele>264</ele>
        <time>2023-02-14T13:14:54.000Z</time>
      </trkpt>
      <trkpt lat="45.56261" lon="4.95698">
        <ele>275</ele>
        <time>2023-02-14T13:15:07.000Z</time>
      </trkpt>
      <trkpt lat="45.56272" lon="4.95703">
        <ele>275</ele>
        <time>2023-02-14T13:15:09.000Z</time>
      </trkpt>
      <trkpt lat="45.56281" lon="4.957">
        <ele>274</ele>
        <time>2023-02-14T13:15:10.000Z</time>
      </trkpt>
      <trkpt lat="45.563" lon="4.95676">
        <ele>269</ele>
        <time>2023-02-14T13:15:15.000Z</time>
      </trkpt>
      <trkpt lat="45.56309" lon="4.95668">
        <ele>267</ele>
        <time>2023-02-14T13:15:17.000Z</time>
      </trkpt>
      <trkpt lat="45.56326" lon="4.95661">
        <ele>265</ele>
        <time>2023-02-14T13:15:20.000Z</time>
      </trkpt>
      <trkpt lat="45.56366" lon="4.9566">
        <ele>266</ele>
        <time>2023-02-14T13:15:27.000Z</time>
      </trkpt>
      <trkpt lat="45.56464" lon="4.95681">
        <ele>272</ele>
        <time>2023-02-14T13:15:45.000Z</time>
      </trkpt>
      <trkpt lat="45.56487" lon="4.95684">
        <ele>274</ele>
        <time>2023-02-14T13:15:49.000Z</time>
      </trkpt>
      <trkpt lat="45.56522" lon="4.95679">
        <ele>275</ele>
        <time>2023-02-14T13:15:55.000Z</time>
      </trkpt>
      <trkpt lat="45.56559" lon="4.95652">
        <ele>275</ele>
        <time>2023-02-14T13:16:02.000Z</time>
      </trkpt>
      <trkpt lat="45.56567" lon="4.95655">
        <ele>275</ele>
        <time>2023-02-14T13:16:04.000Z</time>
      </trkpt>
      <trkpt lat="45.56571" lon="4.95652">
        <ele>275</ele>
        <time>2023-02-14T13:16:05.000Z</time>
      </trkpt>
      <trkpt lat="45.56578" lon="4.95653">
        <ele>275</ele>
        <time>2023-02-14T13:16:06.000Z</time>
      </trkpt>
      <trkpt lat="45.5659" lon="4.9566">
        <ele>275</ele>
        <time>2023-02-14T13:16:08.000Z</time>
      </trkpt>
      <trkpt lat="45.56602" lon="4.95672">
        <ele>275</ele>
        <time>2023-02-14T13:16:11.000Z</time>
      </trkpt>
      <trkpt lat="45.56611" lon="4.95686">
        <ele>276</ele>
        <time>2023-02-14T13:16:13.000Z</time>
      </trkpt>
      <trkpt lat="45.56619" lon="4.95713">
        <ele>277</ele>
        <time>2023-02-14T13:16:17.000Z</time>
      </trkpt>
      <trkpt lat="45.56623" lon="4.95755">
        <ele>279</ele>
        <time>2023-02-14T13:16:22.000Z</time>
      </trkpt>
      <trkpt lat="45.5663" lon="4.95771">
        <ele>280</ele>
        <time>2023-02-14T13:16:24.000Z</time>
      </trkpt>
      <trkpt lat="45.56635" lon="4.95777">
        <ele>281</ele>
        <time>2023-02-14T13:16:26.000Z</time>
      </trkpt>
      <trkpt lat="45.56649" lon="4.95782">
        <ele>280</ele>
        <time>2023-02-14T13:16:28.000Z</time>
      </trkpt>
      <trkpt lat="45.56663" lon="4.95774">
        <ele>279</ele>
        <time>2023-02-14T13:16:31.000Z</time>
      </trkpt>
      <trkpt lat="45.56699" lon="4.95739">
        <ele>276</ele>
        <time>2023-02-14T13:16:39.000Z</time>
      </trkpt>
      <trkpt lat="45.56742" lon="4.95702">
        <ele>272</ele>
        <time>2023-02-14T13:16:48.000Z</time>
      </trkpt>
      <trkpt lat="45.56838" lon="4.95636">
        <ele>264</ele>
        <time>2023-02-14T13:17:06.000Z</time>
      </trkpt>
      <trkpt lat="45.5689" lon="4.95582">
        <ele>259</ele>
        <time>2023-02-14T13:17:18.000Z</time>
      </trkpt>
      <trkpt lat="45.56912" lon="4.95563">
        <ele>257</ele>
        <time>2023-02-14T13:17:22.000Z</time>
      </trkpt>
      <trkpt lat="45.56948" lon="4.95543">
        <ele>253</ele>
        <time>2023-02-14T13:17:29.000Z</time>
      </trkpt>
      <trkpt lat="45.56972" lon="4.95539">
        <ele>251</ele>
        <time>2023-02-14T13:17:34.000Z</time>
      </trkpt>
      <trkpt lat="45.56996" lon="4.9554">
        <ele>250</ele>
        <time>2023-02-14T13:17:38.000Z</time>
      </trkpt>
      <trkpt lat="45.5703" lon="4.95551">
        <ele>246</ele>
        <time>2023-02-14T13:17:44.000Z</time>
      </trkpt>
      <trkpt lat="45.57047" lon="4.95563">
        <ele>244</ele>
        <time>2023-02-14T13:17:48.000Z</time>
      </trkpt>
      <trkpt lat="45.57058" lon="4.95579">
        <ele>243</ele>
        <time>2023-02-14T13:17:50.000Z</time>
      </trkpt>
      <trkpt lat="45.57059" lon="4.95601">
        <ele>243</ele>
        <time>2023-02-14T13:17:53.000Z</time>
      </trkpt>
      <trkpt lat="45.5705" lon="4.95621">
        <ele>245</ele>
        <time>2023-02-14T13:17:56.000Z</time>
      </trkpt>
      <trkpt lat="45.57022" lon="4.95653">
        <ele>249</ele>
        <time>2023-02-14T13:18:02.000Z</time>
      </trkpt>
      <trkpt lat="45.57015" lon="4.95674">
        <ele>250</ele>
        <time>2023-02-14T13:18:05.000Z</time>
      </trkpt>
      <trkpt lat="45.57018" lon="4.95697">
        <ele>250</ele>
        <time>2023-02-14T13:18:08.000Z</time>
      </trkpt>
      <trkpt lat="45.5703" lon="4.95712">
        <ele>248</ele>
        <time>2023-02-14T13:18:11.000Z</time>
      </trkpt>
      <trkpt lat="45.57046" lon="4.95712">
        <ele>246</ele>
        <time>2023-02-14T13:18:14.000Z</time>
      </trkpt>
      <trkpt lat="45.57081" lon="4.95689">
        <ele>240</ele>
        <time>2023-02-14T13:18:21.000Z</time>
      </trkpt>
      <trkpt lat="45.571" lon="4.95682">
        <ele>237</ele>
        <time>2023-02-14T13:18:24.000Z</time>
      </trkpt>
      <trkpt lat="45.5712" lon="4.9568">
        <ele>235</ele>
        <time>2023-02-14T13:18:28.000Z</time>
      </trkpt>
      <trkpt lat="45.57138" lon="4.9569">
        <ele>233</ele>
        <time>2023-02-14T13:18:31.000Z</time>
      </trkpt>
      <trkpt lat="45.57144" lon="4.95699">
        <ele>232</ele>
        <time>2023-02-14T13:18:33.000Z</time>
      </trkpt>
      <trkpt lat="45.57165" lon="4.95747">
        <ele>231</ele>
        <time>2023-02-14T13:18:40.000Z</time>
      </trkpt>
      <trkpt lat="45.57182" lon="4.95762">
        <ele>230</ele>
        <time>2023-02-14T13:18:43.000Z</time>
      </trkpt>
      <trkpt lat="45.57203" lon="4.95762">
        <ele>228</ele>
        <time>2023-02-14T13:18:47.000Z</time>
      </trkpt>
      <trkpt lat="45.57269" lon="4.9574">
        <ele>223</ele>
        <time>2023-02-14T13:18:59.000Z</time>
      </trkpt>
      <trkpt lat="45.57291" lon="4.95742">
        <ele>223</ele>
        <time>2023-02-14T13:19:03.000Z</time>
      </trkpt>
      <trkpt lat="45.57422" lon="4.95815">
        <ele>219</ele>
        <time>2023-02-14T13:19:28.000Z</time>
      </trkpt>
      <trkpt lat="45.57479" lon="4.95842">
        <ele>217</ele>
        <time>2023-02-14T13:19:39.000Z</time>
      </trkpt>
      <trkpt lat="45.5768" lon="4.95901">
        <ele>217</ele>
        <time>2023-02-14T13:20:15.000Z</time>
      </trkpt>
      <trkpt lat="45.57761" lon="4.95918">
        <ele>220</ele>
        <time>2023-02-14T13:20:30.000Z</time>
      </trkpt>
      <trkpt lat="45.57909" lon="4.95943">
        <ele>217</ele>
        <time>2023-02-14T13:20:56.000Z</time>
      </trkpt>
      <trkpt lat="45.58123" lon="4.95984">
        <ele>218</ele>
        <time>2023-02-14T13:21:35.000Z</time>
      </trkpt>
      <trkpt lat="45.58452" lon="4.96051">
        <ele>222</ele>
        <time>2023-02-14T13:22:34.000Z</time>
      </trkpt>
      <trkpt lat="45.58514" lon="4.96071">
        <ele>223</ele>
        <time>2023-02-14T13:22:45.000Z</time>
      </trkpt>
      <trkpt lat="45.58556" lon="4.96078">
        <ele>223</ele>
        <time>2023-02-14T13:22:53.000Z</time>
      </trkpt>
      <trkpt lat="45.58577" lon="4.96099">
        <ele>223</ele>
        <time>2023-02-14T13:22:57.000Z</time>
      </trkpt>
      <trkpt lat="45.58583" lon="4.96102">
        <ele>223</ele>
        <time>2023-02-14T13:22:58.000Z</time>
      </trkpt>
      <trkpt lat="45.58589" lon="4.96103">
        <ele>223</ele>
        <time>2023-02-14T13:23:00.000Z</time>
      </trkpt>
      <trkpt lat="45.58613" lon="4.96094">
        <ele>223</ele>
        <time>2023-02-14T13:23:04.000Z</time>
      </trkpt>
      <trkpt lat="45.58626" lon="4.96095">
        <ele>223</ele>
        <time>2023-02-14T13:23:06.000Z</time>
      </trkpt>
      <trkpt lat="45.58662" lon="4.96113">
        <ele>223</ele>
        <time>2023-02-14T13:23:13.000Z</time>
      </trkpt>
      <trkpt lat="45.58683" lon="4.96139">
        <ele>224</ele>
        <time>2023-02-14T13:23:18.000Z</time>
      </trkpt>
      <trkpt lat="45.58693" lon="4.96144">
        <ele>224</ele>
        <time>2023-02-14T13:23:20.000Z</time>
      </trkpt>
      <trkpt lat="45.58701" lon="4.96137">
        <ele>224</ele>
        <time>2023-02-14T13:23:22.000Z</time>
      </trkpt>
      <trkpt lat="45.58705" lon="4.96079">
        <ele>224</ele>
        <time>2023-02-14T13:23:29.000Z</time>
      </trkpt>
      <trkpt lat="45.5873" lon="4.9593">
        <ele>222</ele>
        <time>2023-02-14T13:23:48.000Z</time>
      </trkpt>
      <trkpt lat="45.58736" lon="4.95751">
        <ele>221</ele>
        <time>2023-02-14T13:24:10.000Z</time>
      </trkpt>
      <trkpt lat="45.58772" lon="4.95637">
        <ele>223</ele>
        <time>2023-02-14T13:24:26.000Z</time>
      </trkpt>
      <trkpt lat="45.58785" lon="4.95606">
        <ele>224</ele>
        <time>2023-02-14T13:24:30.000Z</time>
      </trkpt>
      <trkpt lat="45.58812" lon="4.95568">
        <ele>225</ele>
        <time>2023-02-14T13:24:37.000Z</time>
      </trkpt>
      <trkpt lat="45.58835" lon="4.95547">
        <ele>225</ele>
        <time>2023-02-14T13:24:42.000Z</time>
      </trkpt>
      <trkpt lat="45.58849" lon="4.95538">
        <ele>225</ele>
        <time>2023-02-14T13:24:45.000Z</time>
      </trkpt>
      <trkpt lat="45.58859" lon="4.95541">
        <ele>225</ele>
        <time>2023-02-14T13:24:46.000Z</time>
      </trkpt>
      <trkpt lat="45.58865" lon="4.95553">
        <ele>226</ele>
        <time>2023-02-14T13:24:48.000Z</time>
      </trkpt>
      <trkpt lat="45.58876" lon="4.95627">
        <ele>226</ele>
        <time>2023-02-14T13:24:58.000Z</time>
      </trkpt>
      <trkpt lat="45.58885" lon="4.95636">
        <ele>226</ele>
        <time>2023-02-14T13:25:00.000Z</time>
      </trkpt>
      <trkpt lat="45.58912" lon="4.95645">
        <ele>227</ele>
        <time>2023-02-14T13:25:05.000Z</time>
      </trkpt>
      <trkpt lat="45.58926" lon="4.95647">
        <ele>227</ele>
        <time>2023-02-14T13:25:07.000Z</time>
      </trkpt>
      <trkpt lat="45.58953" lon="4.95663">
        <ele>228</ele>
        <time>2023-02-14T13:25:12.000Z</time>
      </trkpt>
      <trkpt lat="45.59109" lon="4.95724">
        <ele>239</ele>
        <time>2023-02-14T13:25:41.000Z</time>
      </trkpt>
      <trkpt lat="45.59145" lon="4.95742">
        <ele>240</ele>
        <time>2023-02-14T13:25:48.000Z</time>
      </trkpt>
      <trkpt lat="45.59356" lon="4.95824">
        <ele>248</ele>
        <time>2023-02-14T13:26:27.000Z</time>
      </trkpt>
      <trkpt lat="45.59708" lon="4.95884">
        <ele>262</ele>
        <time>2023-02-14T13:27:30.000Z</time>
      </trkpt>
      <trkpt lat="45.59718" lon="4.95881">
        <ele>263</ele>
        <time>2023-02-14T13:27:32.000Z</time>
      </trkpt>
      <trkpt lat="45.59727" lon="4.95874">
        <ele>264</ele>
        <time>2023-02-14T13:27:33.000Z</time>
      </trkpt>
      <trkpt lat="45.59741" lon="4.95855">
        <ele>265</ele>
        <time>2023-02-14T13:27:37.000Z</time>
      </trkpt>
      <trkpt lat="45.59757" lon="4.95821">
        <ele>268</ele>
        <time>2023-02-14T13:27:42.000Z</time>
      </trkpt>
      <trkpt lat="45.59765" lon="4.95811">
        <ele>269</ele>
        <time>2023-02-14T13:27:44.000Z</time>
      </trkpt>
      <trkpt lat="45.5978" lon="4.95803">
        <ele>271</ele>
        <time>2023-02-14T13:27:47.000Z</time>
      </trkpt>
      <trkpt lat="45.59796" lon="4.95804">
        <ele>272</ele>
        <time>2023-02-14T13:27:50.000Z</time>
      </trkpt>
      <trkpt lat="45.59811" lon="4.95811">
        <ele>273</ele>
        <time>2023-02-14T13:27:52.000Z</time>
      </trkpt>
      <trkpt lat="45.59822" lon="4.95823">
        <ele>272</ele>
        <time>2023-02-14T13:27:55.000Z</time>
      </trkpt>
      <trkpt lat="45.59875" lon="4.95906">
        <ele>276</ele>
        <time>2023-02-14T13:28:09.000Z</time>
      </trkpt>
      <trkpt lat="45.599" lon="4.95938">
        <ele>276</ele>
        <time>2023-02-14T13:28:15.000Z</time>
      </trkpt>
      <trkpt lat="45.59917" lon="4.95951">
        <ele>277</ele>
        <time>2023-02-14T13:28:18.000Z</time>
      </trkpt>
      <trkpt lat="45.59941" lon="4.95963">
        <ele>277</ele>
        <time>2023-02-14T13:28:23.000Z</time>
      </trkpt>
      <trkpt lat="45.59964" lon="4.95971">
        <ele>277</ele>
        <time>2023-02-14T13:28:27.000Z</time>
      </trkpt>
      <trkpt lat="45.60002" lon="4.9598">
        <ele>278</ele>
        <time>2023-02-14T13:28:34.000Z</time>
      </trkpt>
      <trkpt lat="45.60025" lon="4.95975">
        <ele>278</ele>
        <time>2023-02-14T13:28:38.000Z</time>
      </trkpt>
      <trkpt lat="45.60036" lon="4.95968">
        <ele>278</ele>
        <time>2023-02-14T13:28:40.000Z</time>
      </trkpt>
      <trkpt lat="45.60046" lon="4.95957">
        <ele>279</ele>
        <time>2023-02-14T13:28:42.000Z</time>
      </trkpt>
      <trkpt lat="45.60076" lon="4.95885">
        <ele>284</ele>
        <time>2023-02-14T13:28:53.000Z</time>
      </trkpt>
      <trkpt lat="45.60091" lon="4.9586">
        <ele>286</ele>
        <time>2023-02-14T13:28:57.000Z</time>
      </trkpt>
      <trkpt lat="45.601" lon="4.95852">
        <ele>286</ele>
        <time>2023-02-14T13:28:59.000Z</time>
      </trkpt>
      <trkpt lat="45.60111" lon="4.95847">
        <ele>286</ele>
        <time>2023-02-14T13:29:01.000Z</time>
      </trkpt>
      <trkpt lat="45.60128" lon="4.95848">
        <ele>286</ele>
        <time>2023-02-14T13:29:04.000Z</time>
      </trkpt>
      <trkpt lat="45.60233" lon="4.95924">
        <ele>287</ele>
        <time>2023-02-14T13:29:25.000Z</time>
      </trkpt>
      <trkpt lat="45.60286" lon="4.9595">
        <ele>288</ele>
        <time>2023-02-14T13:29:35.000Z</time>
      </trkpt>
      <trkpt lat="45.6039" lon="4.9599">
        <ele>289</ele>
        <time>2023-02-14T13:29:54.000Z</time>
      </trkpt>
      <trkpt lat="45.60425" lon="4.96009">
        <ele>289</ele>
        <time>2023-02-14T13:30:01.000Z</time>
      </trkpt>
      <trkpt lat="45.60449" lon="4.96032">
        <ele>290</ele>
        <time>2023-02-14T13:30:06.000Z</time>
      </trkpt>
      <trkpt lat="45.6051" lon="4.96099">
        <ele>292</ele>
        <time>2023-02-14T13:30:19.000Z</time>
      </trkpt>
      <trkpt lat="45.60578" lon="4.96179">
        <ele>291</ele>
        <time>2023-02-14T13:30:35.000Z</time>
      </trkpt>
      <trkpt lat="45.60724" lon="4.9631">
        <ele>297</ele>
        <time>2023-02-14T13:31:06.000Z</time>
      </trkpt>
      <trkpt lat="45.60794" lon="4.96357">
        <ele>300</ele>
        <time>2023-02-14T13:31:20.000Z</time>
      </trkpt>
      <trkpt lat="45.6082" lon="4.96369">
        <ele>301</ele>
        <time>2023-02-14T13:31:24.000Z</time>
      </trkpt>
      <trkpt lat="45.60853" lon="4.96374">
        <ele>301</ele>
        <time>2023-02-14T13:31:30.000Z</time>
      </trkpt>
      <trkpt lat="45.60878" lon="4.96374">
        <ele>302</ele>
        <time>2023-02-14T13:31:35.000Z</time>
      </trkpt>
      <trkpt lat="45.60913" lon="4.96363">
        <ele>302</ele>
        <time>2023-02-14T13:31:41.000Z</time>
      </trkpt>
      <trkpt lat="45.61022" lon="4.96345">
        <ele>300</ele>
        <time>2023-02-14T13:32:01.000Z</time>
      </trkpt>
      <trkpt lat="45.61034" lon="4.96341">
        <ele>300</ele>
        <time>2023-02-14T13:32:03.000Z</time>
      </trkpt>
      <trkpt lat="45.6105" lon="4.96329">
        <ele>300</ele>
        <time>2023-02-14T13:32:06.000Z</time>
      </trkpt>
      <trkpt lat="45.61075" lon="4.96295">
        <ele>300</ele>
        <time>2023-02-14T13:32:12.000Z</time>
      </trkpt>
      <trkpt lat="45.61081" lon="4.9628">
        <ele>300</ele>
        <time>2023-02-14T13:32:14.000Z</time>
      </trkpt>
      <trkpt lat="45.61089" lon="4.96278">
        <ele>300</ele>
        <time>2023-02-14T13:32:16.000Z</time>
      </trkpt>
      <trkpt lat="45.61106" lon="4.96267">
        <ele>301</ele>
        <time>2023-02-14T13:32:19.000Z</time>
      </trkpt>
      <trkpt lat="45.61191" lon="4.96197">
        <ele>301</ele>
        <time>2023-02-14T13:32:37.000Z</time>
      </trkpt>
      <trkpt lat="45.61221" lon="4.9618">
        <ele>300</ele>
        <time>2023-02-14T13:32:42.000Z</time>
      </trkpt>
      <trkpt lat="45.61238" lon="4.96177">
        <ele>300</ele>
        <time>2023-02-14T13:32:45.000Z</time>
      </trkpt>
      <trkpt lat="45.61264" lon="4.96183">
        <ele>299</ele>
        <time>2023-02-14T13:32:50.000Z</time>
      </trkpt>
      <trkpt lat="45.61272" lon="4.96188">
        <ele>299</ele>
        <time>2023-02-14T13:32:52.000Z</time>
      </trkpt>
      <trkpt lat="45.61285" lon="4.96204">
        <ele>300</ele>
        <time>2023-02-14T13:32:55.000Z</time>
      </trkpt>
      <trkpt lat="45.61364" lon="4.96332">
        <ele>302</ele>
        <time>2023-02-14T13:33:16.000Z</time>
      </trkpt>
      <trkpt lat="45.61381" lon="4.96377">
        <ele>302</ele>
        <time>2023-02-14T13:33:22.000Z</time>
      </trkpt>
      <trkpt lat="45.61413" lon="4.96504">
        <ele>301</ele>
        <time>2023-02-14T13:33:39.000Z</time>
      </trkpt>
      <trkpt lat="45.61498" lon="4.96801">
        <ele>299</ele>
        <time>2023-02-14T13:34:19.000Z</time>
      </trkpt>
      <trkpt lat="45.61525" lon="4.96851">
        <ele>298</ele>
        <time>2023-02-14T13:34:27.000Z</time>
      </trkpt>
      <trkpt lat="45.61596" lon="4.9697">
        <ele>294</ele>
        <time>2023-02-14T13:34:46.000Z</time>
      </trkpt>
      <trkpt lat="45.61617" lon="4.97002">
        <ele>294</ele>
        <time>2023-02-14T13:34:52.000Z</time>
      </trkpt>
      <trkpt lat="45.6164" lon="4.9703">
        <ele>294</ele>
        <time>2023-02-14T13:34:57.000Z</time>
      </trkpt>
      <trkpt lat="45.61651" lon="4.97053">
        <ele>294</ele>
        <time>2023-02-14T13:35:01.000Z</time>
      </trkpt>
      <trkpt lat="45.61665" lon="4.97126">
        <ele>296</ele>
        <time>2023-02-14T13:35:10.000Z</time>
      </trkpt>
      <trkpt lat="45.61674" lon="4.97139">
        <ele>297</ele>
        <time>2023-02-14T13:35:12.000Z</time>
      </trkpt>
      <trkpt lat="45.61686" lon="4.97138">
        <ele>297</ele>
        <time>2023-02-14T13:35:14.000Z</time>
      </trkpt>
      <trkpt lat="45.61699" lon="4.97129">
        <ele>296</ele>
        <time>2023-02-14T13:35:17.000Z</time>
      </trkpt>
      <trkpt lat="45.61846" lon="4.97002">
        <ele>298</ele>
        <time>2023-02-14T13:35:48.000Z</time>
      </trkpt>
      <trkpt lat="45.61859" lon="4.96989">
        <ele>299</ele>
        <time>2023-02-14T13:35:50.000Z</time>
      </trkpt>
      <trkpt lat="45.61939" lon="4.96876">
        <ele>300</ele>
        <time>2023-02-14T13:36:10.000Z</time>
      </trkpt>
      <trkpt lat="45.61991" lon="4.96822">
        <ele>302</ele>
        <time>2023-02-14T13:36:22.000Z</time>
      </trkpt>
      <trkpt lat="45.62036" lon="4.96789">
        <ele>302</ele>
        <time>2023-02-14T13:36:31.000Z</time>
      </trkpt>
      <trkpt lat="45.62097" lon="4.96754">
        <ele>302</ele>
        <time>2023-02-14T13:36:43.000Z</time>
      </trkpt>
      <trkpt lat="45.62151" lon="4.96746">
        <ele>302</ele>
        <time>2023-02-14T13:36:52.000Z</time>
      </trkpt>
      <trkpt lat="45.6223" lon="4.96744">
        <ele>300</ele>
        <time>2023-02-14T13:37:06.000Z</time>
      </trkpt>
      <trkpt lat="45.62271" lon="4.96746">
        <ele>299</ele>
        <time>2023-02-14T13:37:14.000Z</time>
      </trkpt>
      <trkpt lat="45.6236" lon="4.96756">
        <ele>296</ele>
        <time>2023-02-14T13:37:29.000Z</time>
      </trkpt>
      <trkpt lat="45.62471" lon="4.96754">
        <ele>289</ele>
        <time>2023-02-14T13:37:49.000Z</time>
      </trkpt>
      <trkpt lat="45.62493" lon="4.96758">
        <ele>286</ele>
        <time>2023-02-14T13:37:53.000Z</time>
      </trkpt>
      <trkpt lat="45.62497" lon="4.96762">
        <ele>286</ele>
        <time>2023-02-14T13:37:54.000Z</time>
      </trkpt>
      <trkpt lat="45.62497" lon="4.96783">
        <ele>284</ele>
        <time>2023-02-14T13:37:57.000Z</time>
      </trkpt>
      <trkpt lat="45.6246" lon="4.96938">
        <ele>284</ele>
        <time>2023-02-14T13:38:17.000Z</time>
      </trkpt>
      <trkpt lat="45.6246" lon="4.96981">
        <ele>283</ele>
        <time>2023-02-14T13:38:22.000Z</time>
      </trkpt>
      <trkpt lat="45.62467" lon="4.97014">
        <ele>281</ele>
        <time>2023-02-14T13:38:27.000Z</time>
      </trkpt>
      <trkpt lat="45.6248" lon="4.97043">
        <ele>280</ele>
        <time>2023-02-14T13:38:31.000Z</time>
      </trkpt>
      <trkpt lat="45.62549" lon="4.97157">
        <ele>278</ele>
        <time>2023-02-14T13:38:50.000Z</time>
      </trkpt>
      <trkpt lat="45.62564" lon="4.97201">
        <ele>276</ele>
        <time>2023-02-14T13:38:56.000Z</time>
      </trkpt>
      <trkpt lat="45.62584" lon="4.973">
        <ele>273</ele>
        <time>2023-02-14T13:39:09.000Z</time>
      </trkpt>
      <trkpt lat="45.62599" lon="4.97336">
        <ele>271</ele>
        <time>2023-02-14T13:39:14.000Z</time>
      </trkpt>
      <trkpt lat="45.62742" lon="4.9753">
        <ele>257</ele>
        <time>2023-02-14T13:39:49.000Z</time>
      </trkpt>
      <trkpt lat="45.62775" lon="4.97584">
        <ele>256</ele>
        <time>2023-02-14T13:39:58.000Z</time>
      </trkpt>
      <trkpt lat="45.62791" lon="4.97592">
        <ele>255</ele>
        <time>2023-02-14T13:40:01.000Z</time>
      </trkpt>
      <trkpt lat="45.62821" lon="4.97592">
        <ele>254</ele>
        <time>2023-02-14T13:40:06.000Z</time>
      </trkpt>
      <trkpt lat="45.62852" lon="4.97579">
        <ele>253</ele>
        <time>2023-02-14T13:40:12.000Z</time>
      </trkpt>
      <trkpt lat="45.62909" lon="4.97547">
        <ele>250</ele>
        <time>2023-02-14T13:40:23.000Z</time>
      </trkpt>
      <trkpt lat="45.63013" lon="4.9748">
        <ele>247</ele>
        <time>2023-02-14T13:40:43.000Z</time>
      </trkpt>
      <trkpt lat="45.63078" lon="4.97422">
        <ele>244</ele>
        <time>2023-02-14T13:40:57.000Z</time>
      </trkpt>
      <trkpt lat="45.63138" lon="4.97358">
        <ele>243</ele>
        <time>2023-02-14T13:41:10.000Z</time>
      </trkpt>
      <trkpt lat="45.6317" lon="4.9732">
        <ele>242</ele>
        <time>2023-02-14T13:41:17.000Z</time>
      </trkpt>
      <trkpt lat="45.63257" lon="4.97185">
        <ele>240</ele>
        <time>2023-02-14T13:41:40.000Z</time>
      </trkpt>
      <trkpt lat="45.6335" lon="4.97064">
        <ele>236</ele>
        <time>2023-02-14T13:42:03.000Z</time>
      </trkpt>
      <trkpt lat="45.6337" lon="4.97026">
        <ele>234</ele>
        <time>2023-02-14T13:42:09.000Z</time>
      </trkpt>
      <trkpt lat="45.63389" lon="4.96966">
        <ele>231</ele>
        <time>2023-02-14T13:42:17.000Z</time>
      </trkpt>
      <trkpt lat="45.63401" lon="4.96937">
        <ele>231</ele>
        <time>2023-02-14T13:42:21.000Z</time>
      </trkpt>
      <trkpt lat="45.63527" lon="4.96734">
        <ele>225</ele>
        <time>2023-02-14T13:42:55.000Z</time>
      </trkpt>
      <trkpt lat="45.63551" lon="4.96703">
        <ele>225</ele>
        <time>2023-02-14T13:43:01.000Z</time>
      </trkpt>
      <trkpt lat="45.63598" lon="4.96667">
        <ele>226</ele>
        <time>2023-02-14T13:43:10.000Z</time>
      </trkpt>
      <trkpt lat="45.63614" lon="4.96649">
        <ele>227</ele>
        <time>2023-02-14T13:43:14.000Z</time>
      </trkpt>
      <trkpt lat="45.63632" lon="4.96617">
        <ele>227</ele>
        <time>2023-02-14T13:43:19.000Z</time>
      </trkpt>
      <trkpt lat="45.63681" lon="4.96492">
        <ele>226</ele>
        <time>2023-02-14T13:43:37.000Z</time>
      </trkpt>
      <trkpt lat="45.63699" lon="4.96463">
        <ele>225</ele>
        <time>2023-02-14T13:43:41.000Z</time>
      </trkpt>
      <trkpt lat="45.63748" lon="4.96394">
        <ele>227</ele>
        <time>2023-02-14T13:43:54.000Z</time>
      </trkpt>
      <trkpt lat="45.63774" lon="4.96336">
        <ele>227</ele>
        <time>2023-02-14T13:44:02.000Z</time>
      </trkpt>
      <trkpt lat="45.63791" lon="4.96304">
        <ele>226</ele>
        <time>2023-02-14T13:44:07.000Z</time>
      </trkpt>
      <trkpt lat="45.6383" lon="4.96249">
        <ele>228</ele>
        <time>2023-02-14T13:44:17.000Z</time>
      </trkpt>
      <trkpt lat="45.63893" lon="4.96193">
        <ele>229</ele>
        <time>2023-02-14T13:44:30.000Z</time>
      </trkpt>
      <trkpt lat="45.639" lon="4.96184">
        <ele>229</ele>
        <time>2023-02-14T13:44:32.000Z</time>
      </trkpt>
      <trkpt lat="45.63948" lon="4.96059">
        <ele>229</ele>
        <time>2023-02-14T13:44:50.000Z</time>
      </trkpt>
      <trkpt lat="45.63972" lon="4.96015">
        <ele>230</ele>
        <time>2023-02-14T13:44:56.000Z</time>
      </trkpt>
      <trkpt lat="45.64" lon="4.95977">
        <ele>231</ele>
        <time>2023-02-14T13:45:03.000Z</time>
      </trkpt>
      <trkpt lat="45.64018" lon="4.95962">
        <ele>232</ele>
        <time>2023-02-14T13:45:07.000Z</time>
      </trkpt>
      <trkpt lat="45.64053" lon="4.95946">
        <ele>232</ele>
        <time>2023-02-14T13:45:14.000Z</time>
      </trkpt>
      <trkpt lat="45.64186" lon="4.9591">
        <ele>228</ele>
        <time>2023-02-14T13:45:38.000Z</time>
      </trkpt>
      <trkpt lat="45.64218" lon="4.95916">
        <ele>227</ele>
        <time>2023-02-14T13:45:43.000Z</time>
      </trkpt>
      <trkpt lat="45.64272" lon="4.95944">
        <ele>224</ele>
        <time>2023-02-14T13:45:54.000Z</time>
      </trkpt>
      <trkpt lat="45.64328" lon="4.95966">
        <ele>222</ele>
        <time>2023-02-14T13:46:04.000Z</time>
      </trkpt>
      <trkpt lat="45.64351" lon="4.95972">
        <ele>222</ele>
        <time>2023-02-14T13:46:08.000Z</time>
      </trkpt>
      <trkpt lat="45.6441" lon="4.9598">
        <ele>223</ele>
        <time>2023-02-14T13:46:19.000Z</time>
      </trkpt>
      <trkpt lat="45.64593" lon="4.95992">
        <ele>224</ele>
        <time>2023-02-14T13:46:51.000Z</time>
      </trkpt>
      <trkpt lat="45.64639" lon="4.95989">
        <ele>224</ele>
        <time>2023-02-14T13:46:59.000Z</time>
      </trkpt>
      <trkpt lat="45.64695" lon="4.95968">
        <ele>223</ele>
        <time>2023-02-14T13:47:10.000Z</time>
      </trkpt>
      <trkpt lat="45.64732" lon="4.95936">
        <ele>222</ele>
        <time>2023-02-14T13:47:17.000Z</time>
      </trkpt>
      <trkpt lat="45.64791" lon="4.95866">
        <ele>222</ele>
        <time>2023-02-14T13:47:31.000Z</time>
      </trkpt>
      <trkpt lat="45.65071" lon="4.9548">
        <ele>220</ele>
        <time>2023-02-14T13:48:40.000Z</time>
      </trkpt>
      <trkpt lat="45.65122" lon="4.95431">
        <ele>221</ele>
        <time>2023-02-14T13:48:51.000Z</time>
      </trkpt>
      <trkpt lat="45.65159" lon="4.95405">
        <ele>222</ele>
        <time>2023-02-14T13:48:59.000Z</time>
      </trkpt>
      <trkpt lat="45.65173" lon="4.95416">
        <ele>222</ele>
        <time>2023-02-14T13:49:01.000Z</time>
      </trkpt>
      <trkpt lat="45.65189" lon="4.95415">
        <ele>222</ele>
        <time>2023-02-14T13:49:04.000Z</time>
      </trkpt>
      <trkpt lat="45.65202" lon="4.95403">
        <ele>222</ele>
        <time>2023-02-14T13:49:07.000Z</time>
      </trkpt>
      <trkpt lat="45.65435" lon="4.95411">
        <ele>223</ele>
        <time>2023-02-14T13:49:48.000Z</time>
      </trkpt>
      <trkpt lat="45.65743" lon="4.95392">
        <ele>225</ele>
        <time>2023-02-14T13:50:43.000Z</time>
      </trkpt>
      <trkpt lat="45.6585" lon="4.95388">
        <ele>228</ele>
        <time>2023-02-14T13:51:02.000Z</time>
      </trkpt>
      <trkpt lat="45.65958" lon="4.9538">
        <ele>229</ele>
        <time>2023-02-14T13:51:22.000Z</time>
      </trkpt>
      <trkpt lat="45.66" lon="4.9537">
        <ele>227</ele>
        <time>2023-02-14T13:51:29.000Z</time>
      </trkpt>
      <trkpt lat="45.66006" lon="4.95362">
        <ele>226</ele>
        <time>2023-02-14T13:51:31.000Z</time>
      </trkpt>
      <trkpt lat="45.66026" lon="4.95354">
        <ele>225</ele>
        <time>2023-02-14T13:51:34.000Z</time>
      </trkpt>
      <trkpt lat="45.66059" lon="4.95349">
        <ele>224</ele>
        <time>2023-02-14T13:51:40.000Z</time>
      </trkpt>
      <trkpt lat="45.66087" lon="4.9535">
        <ele>224</ele>
        <time>2023-02-14T13:51:45.000Z</time>
      </trkpt>
      <trkpt lat="45.6612" lon="4.95344">
        <ele>223</ele>
        <time>2023-02-14T13:51:51.000Z</time>
      </trkpt>
    </trkseg>
  </trk>
</gpx>